Time,TemperatureF,DewpointF,PressureIn,WindDirection,WindDirectionDegrees,WindSpeedMPH,WindSpeedGustMPH,Humidity,HourlyPrecipIn,Conditions,Clouds,dailyrainin,SoftwareType,DateUTC
2013-03-10 00:00:00,30.7,12.9,29.96,SW,227,3.6,3.6,47,0.00,,---,0.00,VWS V14.01,2013-03-10 07:00:00,
2013-03-10 00:01:00,28.8,12.9,29.96,East,99,2.7,4.0,51,0.00,,---,0.00,VWS V14.01,2013-03-10 07:01:00,
2013-03-10 00:02:00,28.8,12.9,29.96,ENE,72,0.0,2.7,51,0.00,,---,0.00,VWS V14.01,2013-03-10 07:02:00,
2013-03-10 00:03:00,28.8,12.9,29.96,ENE,73,0.0,0.0,51,0.00,,---,0.00,VWS V14.01,2013-03-10 07:03:00,
2013-03-10 00:04:00,28.8,12.5,29.96,ENE,73,0.0,0.0,50,0.00,,---,0.00,VWS V14.01,2013-03-10 07:04:00,
2013-03-10 00:05:00,30.6,13.2,29.96,WSW,242,2.7,4.0,48,0.00,,---,0.00,VWS V14.01,2013-03-10 07:05:00,
2013-03-10 00:06:00,28.6,12.3,29.96,ENE,73,0.0,0.0,50,0.00,,---,0.00,VWS V14.01,2013-03-10 07:06:00,
2013-03-10 00:07:00,28.6,12.3,29.96,ENE,73,0.0,0.0,50,0.00,,---,0.00,VWS V14.01,2013-03-10 07:07:00,
2013-03-10 00:08:00,28.6,12.3,29.96,ENE,73,0.0,0.0,50,0.00,,---,0.00,VWS V14.01,2013-03-10 07:08:00,
2013-03-10 00:09:00,28.6,12.3,29.96,ENE,73,0.0,0.0,50,0.00,,---,0.00,VWS V14.01,2013-03-10 07:09:00,
2013-03-10 00:10:00,30.4,13.1,29.96,West,269,0.0,0.0,48,0.00,,---,0.00,VWS V14.01,2013-03-10 07:10:00,
2013-03-10 00:11:00,28.4,12.6,29.96,ENE,73,0.0,0.0,51,0.00,,---,0.00,VWS V14.01,2013-03-10 07:11:00,
2013-03-10 00:12:00,28.4,12.6,29.96,ENE,73,0.0,0.0,51,0.00,,---,0.00,VWS V14.01,2013-03-10 07:12:00,
2013-03-10 00:13:00,28.2,12.4,29.96,ENE,73,0.0,0.0,51,0.00,,---,0.00,VWS V14.01,2013-03-10 07:13:00,
2013-03-10 00:14:00,28.2,12.4,29.96,NW,321,2.7,4.0,51,0.00,,---,0.00,VWS V14.01,2013-03-10 07:14:00,
2013-03-10 00:15:00,30.4,13.1,29.96,West,281,0.0,0.0,48,0.00,,---,0.00,VWS V14.01,2013-03-10 07:15:00,
2013-03-10 00:16:00,28.0,12.3,29.96,NW,326,0.0,3.6,51,0.00,,---,0.00,VWS V14.01,2013-03-10 07:16:00,
2013-03-10 00:17:00,28.0,12.3,29.96,NW,326,0.0,0.0,51,0.00,,---,0.00,VWS V14.01,2013-03-10 07:17:00,
2013-03-10 00:18:00,28.0,12.3,29.96,NW,326,0.0,0.0,51,0.00,,---,0.00,VWS V14.01,2013-03-10 07:18:00,
2013-03-10 00:19:00,27.9,12.1,29.96,NW,326,0.0,0.0,51,0.00,,---,0.00,VWS V14.01,2013-03-10 07:19:00,
2013-03-10 00:20:00,30.2,13.4,29.96,West,275,0.0,0.0,49,0.00,,---,0.00,VWS V14.01,2013-03-10 07:20:00,
2013-03-10 00:21:00,27.9,12.5,29.96,NNW,348,0.0,0.0,52,0.00,,---,0.00,VWS V14.01,2013-03-10 07:21:00,
2013-03-10 00:22:00,27.9,12.5,29.96,North,353,0.0,0.0,52,0.00,,---,0.00,VWS V14.01,2013-03-10 07:22:00,
2013-03-10 00:23:00,27.7,12.8,29.96,NE,55,3.1,3.1,53,0.00,,---,0.00,VWS V14.01,2013-03-10 07:23:00,
2013-03-10 00:24:00,27.5,12.6,29.96,ENE,61,5.4,5.4,53,0.00,,---,0.00,VWS V14.01,2013-03-10 07:24:00,
2013-03-10 00:25:00,30.2,12.9,29.96,West,277,2.7,4.0,48,0.00,,---,0.00,VWS V14.01,2013-03-10 07:25:00,
2013-03-10 00:26:00,27.5,12.6,29.96,ENE,76,3.6,5.8,53,0.00,,---,0.00,VWS V14.01,2013-03-10 07:26:00,
2013-03-10 00:27:00,27.3,12.9,29.96,ENE,74,3.1,3.6,54,0.00,,---,0.00,VWS V14.01,2013-03-10 07:27:00,
2013-03-10 00:28:00,27.3,13.3,29.96,East,90,0.0,4.0,55,0.00,,---,0.00,VWS V14.01,2013-03-10 07:28:00,
2013-03-10 00:29:00,27.3,13.3,29.96,East,90,0.0,0.0,55,0.00,,---,0.00,VWS V14.01,2013-03-10 07:29:00,
2013-03-10 00:30:00,30.2,12.9,29.96,WSW,239,0.0,3.6,48,0.00,,---,0.00,VWS V14.01,2013-03-10 07:30:00,
2013-03-10 00:31:00,27.1,13.1,29.96,East,91,0.0,2.7,55,0.00,,---,0.00,VWS V14.01,2013-03-10 07:31:00,
2013-03-10 00:32:00,27.1,13.1,29.96,East,91,0.0,0.0,55,0.00,,---,0.00,VWS V14.01,2013-03-10 07:32:00,
2013-03-10 00:33:00,27.0,13.0,29.96,East,91,0.0,0.0,55,0.00,,---,0.00,VWS V14.01,2013-03-10 07:33:00,
2013-03-10 00:34:00,27.0,13.0,29.96,East,91,0.0,0.0,55,0.00,,---,0.00,VWS V14.01,2013-03-10 07:34:00,
2013-03-10 00:35:00,30.2,13.4,29.96,WSW,239,0.0,0.0,49,0.00,,---,0.00,VWS V14.01,2013-03-10 07:35:00,
2013-03-10 00:36:00,26.8,12.8,29.96,East,91,0.0,0.0,55,0.00,,---,0.00,VWS V14.01,2013-03-10 07:36:00,
2013-03-10 00:37:00,26.8,12.4,29.96,East,91,0.0,0.0,54,0.00,,---,0.00,VWS V14.01,2013-03-10 07:37:00,
2013-03-10 00:38:00,26.8,12.4,29.96,East,91,0.0,0.0,54,0.00,,---,0.00,VWS V14.01,2013-03-10 07:38:00,
2013-03-10 00:39:00,26.6,12.6,29.96,East,91,0.0,0.0,55,0.00,,---,0.00,VWS V14.01,2013-03-10 07:39:00,
2013-03-10 00:40:00,29.8,12.6,29.96,ENE,61,0.0,0.0,48,0.00,,---,0.00,VWS V14.01,2013-03-10 07:40:00,
2013-03-10 00:41:00,26.4,12.5,29.96,East,91,0.0,0.0,55,0.00,,---,0.00,VWS V14.01,2013-03-10 07:41:00,
2013-03-10 00:42:00,26.4,12.5,29.96,East,91,0.0,0.0,55,0.00,,---,0.00,VWS V14.01,2013-03-10 07:42:00,
2013-03-10 00:43:00,26.4,12.5,29.96,East,91,0.0,0.0,55,0.00,,---,0.00,VWS V14.01,2013-03-10 07:43:00,
2013-03-10 00:44:00,26.2,12.3,29.96,East,91,0.0,0.0,55,0.00,,---,0.00,VWS V14.01,2013-03-10 07:44:00,
2013-03-10 00:45:00,29.5,12.7,29.96,ENE,61,0.0,0.0,49,0.00,,---,0.00,VWS V14.01,2013-03-10 07:45:00,
2013-03-10 00:46:00,26.2,12.3,29.96,East,91,0.0,0.0,55,0.00,,---,0.00,VWS V14.01,2013-03-10 07:46:00,
2013-03-10 00:47:00,26.1,12.1,29.96,East,91,0.0,0.0,55,0.00,,---,0.00,VWS V14.01,2013-03-10 07:47:00,
2013-03-10 00:48:00,26.1,12.5,29.96,East,82,2.7,2.7,56,0.00,,---,0.00,VWS V14.01,2013-03-10 07:48:00,
2013-03-10 00:49:00,26.1,12.9,29.99,ENE,73,0.0,3.6,57,0.00,,---,0.00,VWS V14.01,2013-03-10 07:49:00,
2013-03-10 00:50:00,29.1,12.8,29.96,ENE,77,0.0,0.0,50,0.00,,---,0.00,VWS V14.01,2013-03-10 07:50:00,
2013-03-10 00:51:00,26.1,12.9,29.99,ENE,73,0.0,0.0,57,0.00,,---,0.00,VWS V14.01,2013-03-10 07:51:00,
2013-03-10 00:52:00,26.1,12.9,29.99,ENE,73,0.0,0.0,57,0.00,,---,0.00,VWS V14.01,2013-03-10 07:52:00,
2013-03-10 00:53:00,26.1,12.9,29.99,ENE,73,0.0,0.0,57,0.00,,---,0.00,VWS V14.01,2013-03-10 07:53:00,
2013-03-10 00:54:00,26.1,12.9,29.99,ENE,73,0.0,0.0,57,0.00,,---,0.00,VWS V14.01,2013-03-10 07:54:00,
2013-03-10 00:55:00,28.8,12.9,29.96,East,79,0.0,0.0,51,0.00,,---,0.00,VWS V14.01,2013-03-10 07:55:00,
2013-03-10 00:56:00,26.1,12.9,29.99,ENE,73,0.0,0.0,57,0.00,,---,0.00,VWS V14.01,2013-03-10 07:56:00,
2013-03-10 00:57:00,26.1,12.9,29.99,ENE,73,0.0,0.0,57,0.00,,---,0.00,VWS V14.01,2013-03-10 07:57:00,
2013-03-10 00:58:00,25.9,12.8,29.99,ENE,73,0.0,0.0,57,0.00,,---,0.00,VWS V14.01,2013-03-10 07:58:00,
2013-03-10 00:59:00,25.9,12.8,29.99,ENE,73,0.0,0.0,57,0.00,,---,0.00,VWS V14.01,2013-03-10 07:59:00,
2013-03-10 01:00:00,28.8,12.9,29.96,ESE,118,4.0,4.0,51,0.00,,---,0.00,VWS V14.01,2013-03-10 08:00:00,
2013-03-10 01:05:00,28.8,12.5,29.96,ENE,73,0.0,0.0,50,0.00,,---,0.00,VWS V14.01,2013-03-10 08:05:00,
2013-03-10 01:10:00,28.6,12.3,29.96,ENE,73,0.0,0.0,50,0.00,,---,0.00,VWS V14.01,2013-03-10 08:10:00,
2013-03-10 01:15:00,28.2,12.4,29.96,NW,326,3.6,5.4,51,0.00,,---,0.00,VWS V14.01,2013-03-10 08:15:00,
2013-03-10 01:20:00,27.9,12.5,29.96,NNW,340,0.0,0.0,52,0.00,,---,0.00,VWS V14.01,2013-03-10 08:20:00,
2013-03-10 01:25:00,27.5,12.6,29.96,East,79,5.8,5.8,53,0.00,,---,0.00,VWS V14.01,2013-03-10 08:25:00,
2013-03-10 01:30:00,27.3,13.3,29.96,East,90,0.0,0.0,55,0.00,,---,0.00,VWS V14.01,2013-03-10 08:30:00,
2013-03-10 01:35:00,27.0,13.0,29.96,East,91,0.0,0.0,55,0.00,,---,0.00,VWS V14.01,2013-03-10 08:35:00,
2013-03-10 01:40:00,26.6,12.6,29.96,East,91,0.0,0.0,55,0.00,,---,0.00,VWS V14.01,2013-03-10 08:40:00,
2013-03-10 01:45:00,26.2,12.3,29.96,East,91,0.0,0.0,55,0.00,,---,0.00,VWS V14.01,2013-03-10 08:45:00,
2013-03-10 01:50:00,26.1,12.9,29.99,ENE,73,0.0,0.0,57,0.00,,---,0.00,VWS V14.01,2013-03-10 08:50:00,
2013-03-10 01:55:00,26.1,12.9,29.99,ENE,73,0.0,0.0,57,0.00,,---,0.00,VWS V14.01,2013-03-10 08:55:00,
2013-03-10 03:00:00,25.9,12.8,29.99,ENE,73,0.0,0.0,57,0.00,,---,0.00,VWS V14.01,2013-03-10 09:00:00,
2013-03-10 03:01:00,25.9,12.8,29.99,ENE,73,0.0,0.0,57,0.00,,---,0.00,VWS V14.01,2013-03-10 09:01:00,
2013-03-10 03:02:00,25.9,12.8,29.99,ENE,73,0.0,0.0,57,0.00,,---,0.00,VWS V14.01,2013-03-10 09:02:00,
2013-03-10 03:03:00,25.9,12.8,29.99,ENE,73,0.0,0.0,57,0.00,,---,0.00,VWS V14.01,2013-03-10 09:03:00,
2013-03-10 03:04:00,25.9,12.8,29.99,ENE,73,0.0,0.0,57,0.00,,---,0.00,VWS V14.01,2013-03-10 09:04:00,
2013-03-10 03:05:00,25.9,13.1,29.99,ENE,73,0.0,0.0,58,0.00,,---,0.00,VWS V14.01,2013-03-10 09:05:00,
2013-03-10 03:06:00,25.9,13.5,29.99,ENE,73,0.0,0.0,59,0.00,,---,0.00,VWS V14.01,2013-03-10 09:06:00,
2013-03-10 03:07:00,25.9,13.9,29.99,ENE,73,0.0,0.0,60,0.00,,---,0.00,VWS V14.01,2013-03-10 09:07:00,
2013-03-10 03:08:00,25.9,13.9,29.99,ENE,73,0.0,0.0,60,0.00,,---,0.00,VWS V14.01,2013-03-10 09:08:00,
2013-03-10 03:09:00,25.9,13.9,29.99,ENE,73,0.0,0.0,60,0.00,,---,0.00,VWS V14.01,2013-03-10 09:09:00,
2013-03-10 03:10:00,25.7,13.8,29.99,ENE,73,0.0,0.0,60,0.00,,---,0.00,VWS V14.01,2013-03-10 09:10:00,
2013-03-10 03:11:00,25.7,13.4,29.99,ENE,73,0.0,0.0,59,0.00,,---,0.00,VWS V14.01,2013-03-10 09:11:00,
2013-03-10 03:12:00,25.7,13.4,29.99,ENE,73,0.0,0.0,59,0.00,,---,0.00,VWS V14.01,2013-03-10 09:12:00,
2013-03-10 03:13:00,25.7,13.4,29.99,ENE,73,0.0,0.0,59,0.00,,---,0.00,VWS V14.01,2013-03-10 09:13:00,
2013-03-10 03:14:00,25.7,13.8,29.99,ENE,73,0.0,0.0,60,0.00,,---,0.00,VWS V14.01,2013-03-10 09:14:00,
2013-03-10 03:15:00,25.7,14.1,29.99,ESE,123,0.0,0.0,61,0.00,,---,0.00,VWS V14.01,2013-03-10 09:15:00,
2013-03-10 03:16:00,25.5,14.7,29.99,ESE,123,0.0,0.0,63,0.00,,---,0.00,VWS V14.01,2013-03-10 09:16:00,
2013-03-10 03:17:00,25.5,15.1,29.99,ESE,123,0.0,0.0,64,0.00,,---,0.00,VWS V14.01,2013-03-10 09:17:00,
2013-03-10 03:18:00,25.5,15.1,29.99,ESE,123,0.0,0.0,64,0.00,,---,0.00,VWS V14.01,2013-03-10 09:18:00,
2013-03-10 03:19:00,25.5,15.1,29.99,ESE,123,0.0,0.0,64,0.00,,---,0.00,VWS V14.01,2013-03-10 09:19:00,
2013-03-10 03:20:00,25.5,15.1,29.99,ESE,123,0.0,0.0,64,0.00,,---,0.00,VWS V14.01,2013-03-10 09:20:00,
2013-03-10 03:21:00,25.3,14.9,29.99,ESE,111,0.0,0.0,64,0.00,,---,0.00,VWS V14.01,2013-03-10 09:21:00,
2013-03-10 03:22:00,25.3,14.9,29.99,ESE,111,0.0,0.0,64,0.00,,---,0.00,VWS V14.01,2013-03-10 09:22:00,
2013-03-10 03:23:00,25.3,14.5,29.99,ESE,111,0.0,0.0,63,0.00,,---,0.00,VWS V14.01,2013-03-10 09:23:00,
2013-03-10 03:24:00,25.3,14.5,29.99,ESE,111,0.0,0.0,63,0.00,,---,0.00,VWS V14.01,2013-03-10 09:24:00,
2013-03-10 03:25:00,25.3,14.5,29.99,ESE,111,0.0,0.0,63,0.00,,---,0.00,VWS V14.01,2013-03-10 09:25:00,
2013-03-10 03:26:00,25.2,14.4,29.99,ESE,111,0.0,0.0,63,0.00,,---,0.00,VWS V14.01,2013-03-10 09:26:00,
2013-03-10 03:27:00,25.2,14.4,29.99,ESE,111,0.0,0.0,63,0.00,,---,0.00,VWS V14.01,2013-03-10 09:27:00,
2013-03-10 03:28:00,25.2,14.4,29.99,ESE,111,0.0,0.0,63,0.00,,---,0.00,VWS V14.01,2013-03-10 09:28:00,
2013-03-10 03:29:00,25.2,14.7,29.99,ESE,110,0.0,0.0,64,0.00,,---,0.00,VWS V14.01,2013-03-10 09:29:00,
2013-03-10 03:30:00,25.2,14.7,29.99,ESE,111,0.0,0.0,64,0.00,,---,0.00,VWS V14.01,2013-03-10 09:30:00,
2013-03-10 03:31:00,25.2,14.7,29.99,ESE,111,0.0,0.0,64,0.00,,---,0.00,VWS V14.01,2013-03-10 09:31:00,
2013-03-10 03:32:00,25.2,14.7,29.99,ESE,111,0.0,0.0,64,0.00,,---,0.00,VWS V14.01,2013-03-10 09:32:00,
2013-03-10 03:33:00,25.2,15.1,29.99,ESE,111,0.0,0.0,65,0.00,,---,0.00,VWS V14.01,2013-03-10 09:33:00,
2013-03-10 03:34:00,25.2,15.1,29.99,East,93,5.8,5.8,65,0.00,,---,0.00,VWS V14.01,2013-03-10 09:34:00,
2013-03-10 03:35:00,25.2,15.4,29.99,SSE,156,3.6,5.8,66,0.00,,---,0.00,VWS V14.01,2013-03-10 09:35:00,
2013-03-10 03:36:00,25.3,15.9,29.99,SSE,166,3.1,3.6,67,0.00,,---,0.00,VWS V14.01,2013-03-10 09:36:00,
2013-03-10 03:37:00,25.5,16.1,29.99,SSW,208,0.0,4.0,67,0.00,,---,0.00,VWS V14.01,2013-03-10 09:37:00,
2013-03-10 03:38:00,25.7,15.9,29.99,ESE,104,5.4,5.4,66,0.00,,---,0.00,VWS V14.01,2013-03-10 09:38:00,
2013-03-10 03:39:00,25.7,15.9,29.99,ENE,62,3.6,5.4,66,0.00,,---,0.00,VWS V14.01,2013-03-10 09:39:00,
2013-03-10 03:40:00,25.9,16.1,29.99,ENE,58,0.0,3.6,66,0.00,,---,0.00,VWS V14.01,2013-03-10 09:40:00,
2013-03-10 03:41:00,25.9,16.1,29.99,ENE,78,3.6,3.6,66,0.00,,---,0.00,VWS V14.01,2013-03-10 09:41:00,
2013-03-10 03:42:00,25.9,16.1,29.99,ENE,78,0.0,3.6,66,0.00,,---,0.00,VWS V14.01,2013-03-10 09:42:00,
2013-03-10 03:43:00,25.9,16.1,29.99,ENE,78,0.0,0.0,66,0.00,,---,0.00,VWS V14.01,2013-03-10 09:43:00,
2013-03-10 03:44:00,25.9,16.1,29.99,ENE,78,0.0,0.0,66,0.00,,---,0.00,VWS V14.01,2013-03-10 09:44:00,
2013-03-10 03:45:00,26.1,15.9,29.99,ENE,78,0.0,0.0,65,0.00,,---,0.00,VWS V14.01,2013-03-10 09:45:00,
2013-03-10 03:46:00,25.9,15.8,29.99,ENE,78,0.0,0.0,65,0.00,,---,0.00,VWS V14.01,2013-03-10 09:46:00,
2013-03-10 03:47:00,25.9,15.8,29.99,ENE,78,0.0,0.0,65,0.00,,---,0.00,VWS V14.01,2013-03-10 09:47:00,
2013-03-10 03:48:00,25.9,15.4,29.99,ENE,78,0.0,0.0,64,0.00,,---,0.00,VWS V14.01,2013-03-10 09:48:00,
2013-03-10 03:49:00,25.9,15.4,29.99,ENE,78,0.0,0.0,64,0.00,,---,0.00,VWS V14.01,2013-03-10 09:49:00,
2013-03-10 03:50:00,25.7,15.2,29.99,ENE,78,0.0,0.0,64,0.00,,---,0.00,VWS V14.01,2013-03-10 09:50:00,
2013-03-10 03:51:00,25.7,15.2,29.99,ENE,78,0.0,0.0,64,0.00,,---,0.00,VWS V14.01,2013-03-10 09:51:00,
2013-03-10 03:52:00,25.7,15.2,29.99,ENE,77,0.0,0.0,64,0.00,,---,0.00,VWS V14.01,2013-03-10 09:52:00,
2013-03-10 03:53:00,25.7,15.2,29.99,NE,48,6.3,6.3,64,0.00,,---,0.00,VWS V14.01,2013-03-10 09:53:00,
2013-03-10 03:54:00,25.7,15.2,29.99,NE,51,6.3,7.6,64,0.00,,---,0.00,VWS V14.01,2013-03-10 09:54:00,
2013-03-10 03:55:00,25.7,15.2,29.99,South,185,3.6,6.3,64,0.00,,---,0.00,VWS V14.01,2013-03-10 09:55:00,
2013-03-10 03:56:00,25.7,15.6,29.99,SSW,208,5.8,5.8,65,0.00,,---,0.00,VWS V14.01,2013-03-10 09:56:00,
2013-03-10 03:57:00,25.7,15.2,29.99,WSW,242,5.4,5.8,64,0.00,,---,0.00,VWS V14.01,2013-03-10 09:57:00,
2013-03-10 03:58:00,25.7,15.2,29.99,West,263,0.0,5.4,64,0.00,,---,0.00,VWS V14.01,2013-03-10 09:58:00,
2013-03-10 03:59:00,25.9,15.8,29.99,SW,234,0.0,0.0,65,0.00,,---,0.00,VWS V14.01,2013-03-10 09:59:00,
2013-03-10 04:00:00,25.9,15.8,29.99,SW,235,0.0,0.0,65,0.00,,---,0.00,VWS V14.01,2013-03-10 10:00:00,
2013-03-10 04:01:00,25.9,15.8,29.99,WSW,237,0.0,0.0,65,0.00,,---,0.00,VWS V14.01,2013-03-10 10:01:00,
2013-03-10 04:02:00,26.1,15.9,29.99,WSW,237,0.0,0.0,65,0.00,,---,0.00,VWS V14.01,2013-03-10 10:02:00,
2013-03-10 04:03:00,26.1,15.9,29.99,WSW,237,0.0,0.0,65,0.00,,---,0.00,VWS V14.01,2013-03-10 10:03:00,
2013-03-10 04:04:00,26.1,15.9,29.99,WSW,237,0.0,0.0,65,0.00,,---,0.00,VWS V14.01,2013-03-10 10:04:00,
2013-03-10 04:05:00,26.2,16.1,29.99,WSW,244,0.0,0.0,65,0.00,,---,0.00,VWS V14.01,2013-03-10 10:05:00,
2013-03-10 04:06:00,26.1,15.6,29.99,WSW,244,0.0,0.0,64,0.00,,---,0.00,VWS V14.01,2013-03-10 10:06:00,
2013-03-10 04:07:00,26.1,15.6,29.99,SW,227,0.0,0.0,64,0.00,,---,0.00,VWS V14.01,2013-03-10 10:07:00,
2013-03-10 04:08:00,26.1,15.6,29.99,South,181,0.0,0.0,64,0.00,,---,0.00,VWS V14.01,2013-03-10 10:08:00,
2013-03-10 04:09:00,25.9,15.0,29.99,SSE,158,4.9,4.9,63,0.00,,---,0.00,VWS V14.01,2013-03-10 10:09:00,
2013-03-10 04:10:00,25.9,15.0,29.99,SSE,156,5.4,5.4,63,0.00,,---,0.00,VWS V14.01,2013-03-10 10:10:00,
2013-03-10 04:11:00,25.7,14.9,29.99,SSE,156,4.0,5.4,63,0.00,,---,0.00,VWS V14.01,2013-03-10 10:11:00,
2013-03-10 04:12:00,25.7,14.9,29.99,SSE,153,3.1,4.0,63,0.00,,---,0.00,VWS V14.01,2013-03-10 10:12:00,
2013-03-10 04:13:00,25.7,14.9,29.99,SSE,152,0.0,3.6,63,0.00,,---,0.00,VWS V14.01,2013-03-10 10:13:00,
2013-03-10 04:14:00,25.7,14.9,29.99,SSE,152,0.0,0.0,63,0.00,,---,0.00,VWS V14.01,2013-03-10 10:14:00,
2013-03-10 04:15:00,25.5,14.7,29.99,SSE,152,3.1,3.1,63,0.00,,---,0.00,VWS V14.01,2013-03-10 10:15:00,
2013-03-10 04:16:00,25.5,14.7,29.99,SSE,152,0.0,3.1,63,0.00,,---,0.00,VWS V14.01,2013-03-10 10:16:00,
2013-03-10 04:17:00,25.5,14.7,29.99,SSE,152,0.0,0.0,63,0.00,,---,0.00,VWS V14.01,2013-03-10 10:17:00,
2013-03-10 04:18:00,25.5,14.7,29.99,SSE,152,0.0,0.0,63,0.00,,---,0.00,VWS V14.01,2013-03-10 10:18:00,
2013-03-10 04:19:00,25.5,14.7,29.96,East,82,3.6,3.6,63,0.00,,---,0.00,VWS V14.01,2013-03-10 10:19:00,
2013-03-10 04:20:00,25.5,14.7,29.96,ENE,68,3.6,5.8,63,0.00,,---,0.00,VWS V14.01,2013-03-10 10:20:00,
2013-03-10 04:21:00,25.5,14.7,29.96,NW,321,3.6,3.6,63,0.00,,---,0.00,VWS V14.01,2013-03-10 10:21:00,
2013-03-10 04:22:00,25.7,14.9,29.96,North,357,5.8,6.3,63,0.00,,---,0.00,VWS V14.01,2013-03-10 10:22:00,
2013-03-10 04:23:00,25.9,15.0,29.96,North,1,0.0,5.8,63,0.00,,---,0.00,VWS V14.01,2013-03-10 10:23:00,
2013-03-10 04:24:00,26.2,15.4,29.96,North,1,0.0,0.0,63,0.00,,---,0.00,VWS V14.01,2013-03-10 10:24:00,
2013-03-10 04:25:00,26.8,15.9,29.96,North,2,0.0,0.0,63,0.00,,---,0.00,VWS V14.01,2013-03-10 10:25:00,
2013-03-10 04:26:00,27.0,16.1,29.96,North,1,0.0,0.0,63,0.00,,---,0.00,VWS V14.01,2013-03-10 10:26:00,
2013-03-10 04:27:00,27.0,16.1,29.96,North,0,0.0,0.0,63,0.00,,---,0.00,VWS V14.01,2013-03-10 10:27:00,
2013-03-10 04:28:00,27.0,16.1,29.96,North,0,0.0,0.0,63,0.00,,---,0.00,VWS V14.01,2013-03-10 10:28:00,
2013-03-10 04:29:00,27.0,15.7,29.96,North,357,0.0,0.0,62,0.00,,---,0.00,VWS V14.01,2013-03-10 10:29:00,
2013-03-10 04:30:00,27.0,15.3,29.96,North,357,0.0,0.0,61,0.00,,---,0.00,VWS V14.01,2013-03-10 10:30:00,
2013-03-10 04:31:00,27.0,15.3,29.96,North,357,0.0,0.0,61,0.00,,---,0.00,VWS V14.01,2013-03-10 10:31:00,
2013-03-10 04:32:00,27.0,15.3,29.96,North,0,0.0,0.0,61,0.00,,---,0.00,VWS V14.01,2013-03-10 10:32:00,
2013-03-10 04:33:00,26.8,14.8,29.96,North,1,0.0,0.0,60,0.00,,---,0.00,VWS V14.01,2013-03-10 10:33:00,
2013-03-10 04:34:00,26.8,14.8,29.96,North,0,0.0,0.0,60,0.00,,---,0.00,VWS V14.01,2013-03-10 10:34:00,
2013-03-10 04:35:00,26.6,13.8,29.96,North,1,0.0,0.0,58,0.00,,---,0.00,VWS V14.01,2013-03-10 10:35:00,
2013-03-10 04:36:00,26.6,13.8,29.96,North,1,0.0,0.0,58,0.00,,---,0.00,VWS V14.01,2013-03-10 10:36:00,
2013-03-10 04:37:00,26.4,12.9,29.96,North,1,0.0,0.0,56,0.00,,---,0.00,VWS V14.01,2013-03-10 10:37:00,
2013-03-10 04:38:00,26.4,12.9,29.96,East,86,0.0,0.0,56,0.00,,---,0.00,VWS V14.01,2013-03-10 10:38:00,
2013-03-10 04:39:00,26.2,12.7,29.96,ESE,120,0.0,0.0,56,0.00,,---,0.00,VWS V14.01,2013-03-10 10:39:00,
2013-03-10 04:40:00,26.2,12.3,29.96,SE,139,0.0,0.0,55,0.00,,---,0.00,VWS V14.01,2013-03-10 10:40:00,
2013-03-10 04:41:00,26.1,12.1,29.96,SE,139,2.7,4.0,55,0.00,,---,0.00,VWS V14.01,2013-03-10 10:41:00,
2013-03-10 04:42:00,26.1,12.1,29.96,SE,139,0.0,2.7,55,0.00,,---,0.00,VWS V14.01,2013-03-10 10:42:00,
2013-03-10 04:43:00,26.1,12.1,29.96,SE,139,0.0,0.0,55,0.00,,---,0.00,VWS V14.01,2013-03-10 10:43:00,
2013-03-10 04:44:00,26.1,12.1,29.96,SE,140,0.0,0.0,55,0.00,,---,0.00,VWS V14.01,2013-03-10 10:44:00,
2013-03-10 04:45:00,26.1,12.1,29.96,SE,140,0.0,0.0,55,0.00,,---,0.00,VWS V14.01,2013-03-10 10:45:00,
2013-03-10 04:46:00,25.9,11.9,29.96,SE,140,0.0,0.0,55,0.00,,---,0.00,VWS V14.01,2013-03-10 10:46:00,
2013-03-10 04:47:00,25.9,12.4,29.96,SE,139,0.0,0.0,56,0.00,,---,0.00,VWS V14.01,2013-03-10 10:47:00,
2013-03-10 04:48:00,25.7,12.2,29.96,SE,140,0.0,0.0,56,0.00,,---,0.00,VWS V14.01,2013-03-10 10:48:00,
2013-03-10 04:49:00,25.7,12.2,29.96,SW,222,0.0,0.0,56,0.00,,---,0.00,VWS V14.01,2013-03-10 10:49:00,
2013-03-10 04:50:00,25.5,12.0,29.96,WSW,258,0.0,0.0,56,0.00,,---,0.00,VWS V14.01,2013-03-10 10:50:00,
2013-03-10 04:51:00,25.5,12.0,29.96,West,262,0.0,0.0,56,0.00,,---,0.00,VWS V14.01,2013-03-10 10:51:00,
2013-03-10 04:52:00,25.3,11.9,29.96,West,262,0.0,0.0,56,0.00,,---,0.00,VWS V14.01,2013-03-10 10:52:00,
2013-03-10 04:53:00,25.3,12.2,29.96,West,262,0.0,0.0,57,0.00,,---,0.00,VWS V14.01,2013-03-10 10:53:00,
2013-03-10 04:54:00,25.5,12.8,29.96,West,262,2.2,2.7,58,0.00,,---,0.00,VWS V14.01,2013-03-10 10:54:00,
2013-03-10 04:55:00,25.5,12.8,29.96,West,262,2.7,2.7,58,0.00,,---,0.00,VWS V14.01,2013-03-10 10:55:00,
2013-03-10 04:56:00,25.5,12.8,29.96,West,262,0.0,2.2,58,0.00,,---,0.00,VWS V14.01,2013-03-10 10:56:00,
2013-03-10 04:57:00,25.5,12.8,29.96,West,262,0.0,0.0,58,0.00,,---,0.00,VWS V14.01,2013-03-10 10:57:00,
2013-03-10 04:58:00,25.5,12.4,29.96,West,262,0.0,0.0,57,0.00,,---,0.00,VWS V14.01,2013-03-10 10:58:00,
2013-03-10 04:59:00,25.5,12.4,29.96,West,262,0.0,0.0,57,0.00,,---,0.00,VWS V14.01,2013-03-10 10:59:00,
2013-03-10 05:00:00,25.5,12.4,29.96,West,262,0.0,0.0,57,0.00,,---,0.00,VWS V14.01,2013-03-10 11:00:00,
2013-03-10 05:01:00,25.3,12.2,29.96,West,262,0.0,0.0,57,0.00,,---,0.00,VWS V14.01,2013-03-10 11:01:00,
2013-03-10 05:02:00,25.3,12.2,29.96,West,262,0.0,0.0,57,0.00,,---,0.00,VWS V14.01,2013-03-10 11:02:00,
2013-03-10 05:03:00,25.3,12.2,29.96,West,262,0.0,0.0,57,0.00,,---,0.00,VWS V14.01,2013-03-10 11:03:00,
2013-03-10 05:04:00,25.3,12.2,29.96,West,262,0.0,0.0,57,0.00,,---,0.00,VWS V14.01,2013-03-10 11:04:00,
2013-03-10 05:05:00,25.3,12.2,29.96,West,262,0.0,0.0,57,0.00,,---,0.00,VWS V14.01,2013-03-10 11:05:00,
2013-03-10 05:06:00,25.3,12.2,29.96,West,262,0.0,0.0,57,0.00,,---,0.00,VWS V14.01,2013-03-10 11:06:00,
2013-03-10 05:07:00,25.2,12.1,29.96,West,262,0.0,0.0,57,0.00,,---,0.00,VWS V14.01,2013-03-10 11:07:00,
2013-03-10 05:08:00,25.2,12.1,29.96,West,262,0.0,0.0,57,0.00,,---,0.00,VWS V14.01,2013-03-10 11:08:00,
2013-03-10 05:09:00,25.2,12.1,29.96,West,262,0.0,0.0,57,0.00,,---,0.00,VWS V14.01,2013-03-10 11:09:00,
2013-03-10 05:10:00,25.2,12.1,29.96,West,262,0.0,0.0,57,0.00,,---,0.00,VWS V14.01,2013-03-10 11:10:00,
2013-03-10 05:11:00,25.0,11.9,29.96,West,260,0.0,2.7,57,0.00,,---,0.00,VWS V14.01,2013-03-10 11:11:00,
2013-03-10 05:12:00,25.0,11.9,29.96,West,260,2.7,2.7,57,0.00,,---,0.00,VWS V14.01,2013-03-10 11:12:00,
2013-03-10 05:13:00,25.0,11.9,29.96,West,260,2.2,2.7,57,0.00,,---,0.00,VWS V14.01,2013-03-10 11:13:00,
2013-03-10 05:14:00,25.2,12.1,29.96,West,260,0.0,2.2,57,0.00,,---,0.00,VWS V14.01,2013-03-10 11:14:00,
2013-03-10 05:15:00,25.0,11.9,29.96,West,260,0.0,0.0,57,0.00,,---,0.00,VWS V14.01,2013-03-10 11:15:00,
2013-03-10 05:16:00,25.0,11.9,29.96,West,260,0.0,0.0,57,0.00,,---,0.00,VWS V14.01,2013-03-10 11:16:00,
2013-03-10 05:17:00,25.0,11.9,29.96,West,261,0.0,0.0,57,0.00,,---,0.00,VWS V14.01,2013-03-10 11:17:00,
2013-03-10 05:18:00,24.8,11.7,29.96,West,260,0.0,0.0,57,0.00,,---,0.00,VWS V14.01,2013-03-10 11:18:00,
2013-03-10 05:19:00,24.8,11.7,29.96,West,261,0.0,0.0,57,0.00,,---,0.00,VWS V14.01,2013-03-10 11:19:00,
2013-03-10 05:20:00,24.8,11.7,29.96,West,261,0.0,0.0,57,0.00,,---,0.00,VWS V14.01,2013-03-10 11:20:00,
2013-03-10 05:21:00,24.8,11.7,29.96,West,261,0.0,0.0,57,0.00,,---,0.00,VWS V14.01,2013-03-10 11:21:00,
2013-03-10 05:22:00,24.8,11.7,29.96,West,261,0.0,0.0,57,0.00,,---,0.00,VWS V14.01,2013-03-10 11:22:00,
2013-03-10 05:23:00,25.0,11.9,29.96,West,261,0.0,0.0,57,0.00,,---,0.00,VWS V14.01,2013-03-10 11:23:00,
2013-03-10 05:24:00,25.0,11.9,29.96,West,261,0.0,0.0,57,0.00,,---,0.00,VWS V14.01,2013-03-10 11:24:00,
2013-03-10 05:25:00,25.2,12.1,29.96,West,261,0.0,0.0,57,0.00,,---,0.00,VWS V14.01,2013-03-10 11:25:00,
2013-03-10 05:26:00,25.2,12.1,29.96,West,261,0.0,0.0,57,0.00,,---,0.00,VWS V14.01,2013-03-10 11:26:00,
2013-03-10 05:27:00,25.2,12.1,29.96,West,261,2.2,2.2,57,0.00,,---,0.00,VWS V14.01,2013-03-10 11:27:00,
2013-03-10 05:28:00,25.0,11.9,29.96,West,261,0.0,2.2,57,0.00,,---,0.00,VWS V14.01,2013-03-10 11:28:00,
2013-03-10 05:29:00,25.0,11.5,29.96,West,261,0.0,0.0,56,0.00,,---,0.00,VWS V14.01,2013-03-10 11:29:00,
2013-03-10 05:30:00,24.8,11.7,29.96,West,261,0.0,0.0,57,0.00,,---,0.00,VWS V14.01,2013-03-10 11:30:00,
2013-03-10 05:31:00,24.8,11.7,29.96,West,261,0.0,0.0,57,0.00,,---,0.00,VWS V14.01,2013-03-10 11:31:00,
2013-03-10 05:32:00,24.8,11.7,29.96,West,261,0.0,0.0,57,0.00,,---,0.00,VWS V14.01,2013-03-10 11:32:00,
2013-03-10 05:33:00,24.6,11.2,29.96,West,261,0.0,0.0,56,0.00,,---,0.00,VWS V14.01,2013-03-10 11:33:00,
2013-03-10 05:34:00,24.4,11.0,29.96,West,261,0.0,0.0,56,0.00,,---,0.00,VWS V14.01,2013-03-10 11:34:00,
2013-03-10 05:35:00,24.4,11.0,29.96,West,261,0.0,0.0,56,0.00,,---,0.00,VWS V14.01,2013-03-10 11:35:00,
2013-03-10 05:36:00,24.4,11.0,29.96,West,261,0.0,0.0,56,0.00,,---,0.00,VWS V14.01,2013-03-10 11:36:00,
2013-03-10 05:37:00,24.6,11.6,29.96,West,261,0.0,0.0,57,0.00,,---,0.00,VWS V14.01,2013-03-10 11:37:00,
2013-03-10 05:38:00,24.4,11.4,29.96,SE,130,0.0,2.7,57,0.00,,---,0.00,VWS V14.01,2013-03-10 11:38:00,
2013-03-10 05:39:00,24.4,11.4,29.96,West,267,3.1,3.1,57,0.00,,---,0.00,VWS V14.01,2013-03-10 11:39:00,
2013-03-10 05:40:00,24.4,11.4,29.96,West,267,0.0,3.1,57,0.00,,---,0.00,VWS V14.01,2013-03-10 11:40:00,
2013-03-10 05:41:00,24.3,11.2,29.96,West,278,0.0,0.0,57,0.00,,---,0.00,VWS V14.01,2013-03-10 11:41:00,
2013-03-10 05:42:00,24.3,11.2,29.96,ENE,63,2.7,3.1,57,0.00,,---,0.00,VWS V14.01,2013-03-10 11:42:00,
2013-03-10 05:43:00,24.1,11.1,29.96,SE,137,5.8,5.8,57,0.00,,---,0.00,VWS V14.01,2013-03-10 11:43:00,
2013-03-10 05:44:00,24.1,11.5,29.96,SE,130,0.0,5.8,58,0.00,,---,0.00,VWS V14.01,2013-03-10 11:44:00,
2013-03-10 05:45:00,24.1,11.5,29.96,NW,323,4.0,4.0,58,0.00,,---,0.00,VWS V14.01,2013-03-10 11:45:00,
2013-03-10 05:46:00,24.1,11.5,29.96,NW,318,2.2,3.1,58,0.00,,---,0.00,VWS V14.01,2013-03-10 11:46:00,
2013-03-10 05:47:00,24.1,11.5,29.96,NW,318,0.0,2.2,58,0.00,,---,0.00,VWS V14.01,2013-03-10 11:47:00,
2013-03-10 05:48:00,24.1,11.5,29.96,NW,318,0.0,0.0,58,0.00,,---,0.00,VWS V14.01,2013-03-10 11:48:00,
2013-03-10 05:49:00,24.1,11.5,29.99,NW,318,0.0,0.0,58,0.00,,---,0.00,VWS V14.01,2013-03-10 11:49:00,
2013-03-10 05:50:00,24.1,11.5,29.99,NW,318,0.0,0.0,58,0.00,,---,0.00,VWS V14.01,2013-03-10 11:50:00,
2013-03-10 05:51:00,24.1,11.5,29.99,NW,318,0.0,0.0,58,0.00,,---,0.00,VWS V14.01,2013-03-10 11:51:00,
2013-03-10 05:52:00,23.9,11.3,29.99,NW,318,0.0,0.0,58,0.00,,---,0.00,VWS V14.01,2013-03-10 11:52:00,
2013-03-10 05:53:00,23.9,11.3,29.99,NW,318,0.0,0.0,58,0.00,,---,0.00,VWS V14.01,2013-03-10 11:53:00,
2013-03-10 05:54:00,23.9,11.3,29.99,NW,318,0.0,0.0,58,0.00,,---,0.00,VWS V14.01,2013-03-10 11:54:00,
2013-03-10 05:55:00,23.9,11.7,29.99,NW,318,0.0,0.0,59,0.00,,---,0.00,VWS V14.01,2013-03-10 11:55:00,
2013-03-10 05:56:00,23.9,11.7,29.99,NW,318,0.0,0.0,59,0.00,,---,0.00,VWS V14.01,2013-03-10 11:56:00,
2013-03-10 05:57:00,23.9,11.7,29.99,NW,318,0.0,0.0,59,0.00,,---,0.00,VWS V14.01,2013-03-10 11:57:00,
2013-03-10 05:58:00,23.9,11.7,29.99,NW,318,0.0,0.0,59,0.00,,---,0.00,VWS V14.01,2013-03-10 11:58:00,
2013-03-10 05:59:00,23.9,11.7,29.99,NW,318,0.0,0.0,59,0.00,,---,0.00,VWS V14.01,2013-03-10 11:59:00,
2013-03-10 06:00:00,23.9,12.1,29.99,NW,318,0.0,0.0,60,0.00,,---,0.00,VWS V14.01,2013-03-10 12:00:00,
2013-03-10 06:01:00,23.9,12.1,29.99,NW,318,0.0,0.0,60,0.00,,---,0.00,VWS V14.01,2013-03-10 12:01:00,
2013-03-10 06:02:00,23.7,11.9,29.99,NW,318,0.0,0.0,60,0.00,,---,0.00,VWS V14.01,2013-03-10 12:02:00,
2013-03-10 06:03:00,23.7,11.9,29.99,NW,318,0.0,0.0,60,0.00,,---,0.00,VWS V14.01,2013-03-10 12:03:00,
2013-03-10 06:04:00,23.5,11.3,29.99,NW,318,0.0,0.0,59,0.00,,---,0.00,VWS V14.01,2013-03-10 12:04:00,
2013-03-10 06:05:00,23.5,11.3,29.99,NW,318,0.0,0.0,59,0.00,,---,0.00,VWS V14.01,2013-03-10 12:05:00,
2013-03-10 06:06:00,23.5,11.3,29.99,NW,318,0.0,0.0,59,0.00,,---,0.00,VWS V14.01,2013-03-10 12:06:00,
2013-03-10 06:07:00,23.5,11.3,29.99,NW,318,0.0,0.0,59,0.00,,---,0.00,VWS V14.01,2013-03-10 12:07:00,
2013-03-10 06:08:00,23.4,11.2,29.99,NW,318,0.0,0.0,59,0.00,,---,0.00,VWS V14.01,2013-03-10 12:08:00,
2013-03-10 06:09:00,23.4,11.2,29.99,NW,318,0.0,0.0,59,0.00,,---,0.00,VWS V14.01,2013-03-10 12:09:00,
2013-03-10 06:10:00,23.4,11.2,29.99,NW,318,0.0,0.0,59,0.00,,---,0.00,VWS V14.01,2013-03-10 12:10:00,
2013-03-10 06:11:00,23.4,11.2,29.99,East,98,2.7,2.7,59,0.00,,---,0.00,VWS V14.01,2013-03-10 12:11:00,
2013-03-10 06:12:00,23.4,11.2,29.99,East,98,0.0,4.0,59,0.00,,---,0.00,VWS V14.01,2013-03-10 12:12:00,
2013-03-10 06:13:00,23.4,11.2,29.99,East,96,0.0,0.0,59,0.00,,---,0.00,VWS V14.01,2013-03-10 12:13:00,
2013-03-10 06:14:00,23.4,11.2,29.99,East,95,0.0,0.0,59,0.00,,---,0.00,VWS V14.01,2013-03-10 12:14:00,
2013-03-10 06:15:00,23.2,11.0,29.99,East,96,0.0,0.0,59,0.00,,---,0.00,VWS V14.01,2013-03-10 12:15:00,
2013-03-10 06:16:00,23.2,11.0,29.99,East,95,0.0,0.0,59,0.00,,---,0.00,VWS V14.01,2013-03-10 12:16:00,
2013-03-10 06:17:00,23.2,11.0,29.99,East,96,0.0,0.0,59,0.00,,---,0.00,VWS V14.01,2013-03-10 12:17:00,
2013-03-10 06:18:00,23.2,11.4,29.99,East,95,0.0,0.0,60,0.00,,---,0.00,VWS V14.01,2013-03-10 12:18:00,
2013-03-10 06:19:00,23.2,11.4,29.99,East,95,0.0,0.0,60,0.00,,---,0.00,VWS V14.01,2013-03-10 12:19:00,
2013-03-10 06:20:00,23.2,11.7,29.99,East,95,0.0,0.0,61,0.00,,---,0.00,VWS V14.01,2013-03-10 12:20:00,
2013-03-10 06:21:00,23.0,11.6,29.99,East,95,0.0,0.0,61,0.00,,---,0.00,VWS V14.01,2013-03-10 12:21:00,
2013-03-10 06:22:00,23.0,11.6,29.99,East,95,0.0,0.0,61,0.00,,---,0.00,VWS V14.01,2013-03-10 12:22:00,
2013-03-10 06:23:00,22.8,11.4,29.99,East,95,0.0,0.0,61,0.00,,---,0.00,VWS V14.01,2013-03-10 12:23:00,
2013-03-10 06:24:00,22.8,11.4,29.99,East,93,0.0,0.0,61,0.00,,---,0.00,VWS V14.01,2013-03-10 12:24:00,
2013-03-10 06:25:00,22.8,11.4,29.99,East,93,0.0,0.0,61,0.00,,---,0.00,VWS V14.01,2013-03-10 12:25:00,
2013-03-10 06:26:00,22.8,11.4,29.99,East,93,0.0,0.0,61,0.00,,---,0.00,VWS V14.01,2013-03-10 12:26:00,
2013-03-10 06:27:00,22.8,11.4,29.99,East,93,0.0,0.0,61,0.00,,---,0.00,VWS V14.01,2013-03-10 12:27:00,
2013-03-10 06:28:00,22.8,11.4,29.99,East,93,0.0,0.0,61,0.00,,---,0.00,VWS V14.01,2013-03-10 12:28:00,
2013-03-10 06:29:00,22.6,11.6,29.99,East,93,0.0,0.0,62,0.00,,---,0.00,VWS V14.01,2013-03-10 12:29:00,
2013-03-10 06:30:00,22.6,11.6,29.99,East,93,0.0,0.0,62,0.00,,---,0.00,VWS V14.01,2013-03-10 12:30:00,
2013-03-10 06:31:00,22.6,12.3,29.99,East,93,0.0,0.0,64,0.00,,---,0.00,VWS V14.01,2013-03-10 12:31:00,
2013-03-10 06:32:00,22.6,12.3,29.99,East,93,0.0,0.0,64,0.00,,---,0.00,VWS V14.01,2013-03-10 12:32:00,
2013-03-10 06:33:00,22.6,12.3,29.99,East,93,0.0,0.0,64,0.00,,---,0.00,VWS V14.01,2013-03-10 12:33:00,
2013-03-10 06:34:00,22.6,12.3,29.99,East,93,0.0,0.0,64,0.00,,---,0.00,VWS V14.01,2013-03-10 12:34:00,
2013-03-10 06:35:00,22.6,12.3,29.99,East,93,0.0,0.0,64,0.00,,---,0.00,VWS V14.01,2013-03-10 12:35:00,
2013-03-10 06:36:00,22.6,12.3,29.99,East,93,0.0,0.0,64,0.00,,---,0.00,VWS V14.01,2013-03-10 12:36:00,
2013-03-10 06:37:00,22.5,12.1,29.99,East,93,0.0,0.0,64,0.00,,---,0.00,VWS V14.01,2013-03-10 12:37:00,
2013-03-10 06:38:00,22.5,12.1,29.99,East,93,0.0,0.0,64,0.00,,---,0.00,VWS V14.01,2013-03-10 12:38:00,
2013-03-10 06:39:00,22.5,12.1,29.99,East,93,0.0,0.0,64,0.00,,---,0.00,VWS V14.01,2013-03-10 12:39:00,
2013-03-10 06:40:00,22.5,12.1,29.99,East,93,0.0,0.0,64,0.00,,---,0.00,VWS V14.01,2013-03-10 12:40:00,
2013-03-10 06:41:00,22.3,12.0,29.99,East,94,0.0,0.0,64,0.00,,---,0.00,VWS V14.01,2013-03-10 12:41:00,
2013-03-10 06:42:00,22.3,12.0,29.99,East,94,0.0,0.0,64,0.00,,---,0.00,VWS V14.01,2013-03-10 12:42:00,
2013-03-10 06:43:00,22.3,12.0,29.99,East,94,0.0,0.0,64,0.00,,---,0.00,VWS V14.01,2013-03-10 12:43:00,
2013-03-10 06:44:00,22.1,11.8,29.99,East,93,0.0,0.0,64,0.00,,---,0.00,VWS V14.01,2013-03-10 12:44:00,
2013-03-10 06:45:00,22.1,11.8,29.99,East,94,0.0,0.0,64,0.00,,---,0.00,VWS V14.01,2013-03-10 12:45:00,
2013-03-10 06:46:00,22.1,11.8,29.99,East,93,0.0,0.0,64,0.00,,---,0.00,VWS V14.01,2013-03-10 12:46:00,
2013-03-10 06:47:00,22.1,11.8,29.99,East,93,0.0,0.0,64,0.00,,---,0.00,VWS V14.01,2013-03-10 12:47:00,
2013-03-10 06:48:00,22.1,11.8,29.99,East,93,0.0,0.0,64,0.00,,---,0.00,VWS V14.01,2013-03-10 12:48:00,
2013-03-10 06:49:00,21.9,11.3,29.99,East,93,0.0,0.0,63,0.00,,---,0.00,VWS V14.01,2013-03-10 12:49:00,
2013-03-10 06:50:00,21.9,11.3,29.99,East,93,0.0,0.0,63,0.00,,---,0.00,VWS V14.01,2013-03-10 12:50:00,
2013-03-10 06:51:00,21.9,11.3,29.99,East,93,0.0,0.0,63,0.00,,---,0.00,VWS V14.01,2013-03-10 12:51:00,
2013-03-10 06:52:00,21.7,11.1,29.99,East,94,0.0,0.0,63,0.00,,---,0.00,VWS V14.01,2013-03-10 12:52:00,
2013-03-10 06:53:00,21.7,11.1,29.99,East,93,0.0,0.0,63,0.00,,---,0.00,VWS V14.01,2013-03-10 12:53:00,
2013-03-10 06:54:00,21.6,10.9,29.99,East,93,0.0,0.0,63,0.00,,---,0.00,VWS V14.01,2013-03-10 12:54:00,
2013-03-10 06:55:00,21.6,10.9,29.99,East,93,0.0,0.0,63,0.00,,---,0.00,VWS V14.01,2013-03-10 12:55:00,
2013-03-10 06:56:00,21.6,10.9,29.99,East,93,0.0,0.0,63,0.00,,---,0.00,VWS V14.01,2013-03-10 12:56:00,
2013-03-10 06:57:00,21.6,10.9,29.99,East,93,0.0,0.0,63,0.00,,---,0.00,VWS V14.01,2013-03-10 12:57:00,
2013-03-10 06:58:00,21.4,10.8,29.99,East,93,0.0,0.0,63,0.00,,---,0.00,VWS V14.01,2013-03-10 12:58:00,
2013-03-10 06:59:00,21.4,11.1,29.99,East,93,0.0,0.0,64,0.00,,---,0.00,VWS V14.01,2013-03-10 12:59:00,
2013-03-10 07:00:00,21.4,11.1,29.99,East,93,0.0,0.0,64,0.00,,---,0.00,VWS V14.01,2013-03-10 13:00:00,
2013-03-10 07:01:00,21.2,11.3,29.99,East,93,0.0,0.0,65,0.00,,---,0.00,VWS V14.01,2013-03-10 13:01:00,
2013-03-10 07:02:00,21.2,11.3,29.99,East,94,0.0,0.0,65,0.00,,---,0.00,VWS V14.01,2013-03-10 13:02:00,
2013-03-10 07:03:00,21.2,11.3,29.99,East,93,0.0,0.0,65,0.00,,---,0.00,VWS V14.01,2013-03-10 13:03:00,
2013-03-10 07:04:00,21.2,11.3,29.99,East,93,0.0,0.0,65,0.00,,---,0.00,VWS V14.01,2013-03-10 13:04:00,
2013-03-10 07:05:00,21.2,11.3,29.99,East,93,0.0,0.0,65,0.00,,---,0.00,VWS V14.01,2013-03-10 13:05:00,
2013-03-10 07:06:00,21.2,11.3,29.99,East,94,0.0,0.0,65,0.00,,---,0.00,VWS V14.01,2013-03-10 13:06:00,
2013-03-10 07:07:00,21.2,11.3,29.99,East,94,0.0,0.0,65,0.00,,---,0.00,VWS V14.01,2013-03-10 13:07:00,
2013-03-10 07:08:00,21.2,11.3,29.99,East,94,0.0,0.0,65,0.00,,---,0.00,VWS V14.01,2013-03-10 13:08:00,
2013-03-10 07:09:00,21.2,11.3,29.99,East,93,0.0,0.0,65,0.00,,---,0.00,VWS V14.01,2013-03-10 13:09:00,
2013-03-10 07:10:00,21.2,11.3,29.99,East,94,0.0,0.0,65,0.00,,---,0.00,VWS V14.01,2013-03-10 13:10:00,
2013-03-10 07:11:00,21.2,11.3,29.99,East,93,0.0,0.0,65,0.00,,---,0.00,VWS V14.01,2013-03-10 13:11:00,
2013-03-10 07:12:00,21.2,11.3,29.99,East,93,0.0,0.0,65,0.00,,---,0.00,VWS V14.01,2013-03-10 13:12:00,
2013-03-10 07:13:00,21.0,11.1,29.99,East,94,0.0,0.0,65,0.00,,---,0.00,VWS V14.01,2013-03-10 13:13:00,
2013-03-10 07:14:00,21.0,11.8,29.99,East,93,0.0,0.0,67,0.00,,---,0.00,VWS V14.01,2013-03-10 13:14:00,
2013-03-10 07:15:00,21.0,11.8,29.99,East,94,0.0,0.0,67,0.00,,---,0.00,VWS V14.01,2013-03-10 13:15:00,
2013-03-10 07:16:00,21.0,11.8,29.99,East,94,0.0,0.0,67,0.00,,---,0.00,VWS V14.01,2013-03-10 13:16:00,
2013-03-10 07:17:00,20.8,11.6,29.99,East,93,0.0,0.0,67,0.00,,---,0.00,VWS V14.01,2013-03-10 13:17:00,
2013-03-10 07:18:00,20.8,11.6,29.99,East,93,0.0,0.0,67,0.00,,---,0.00,VWS V14.01,2013-03-10 13:18:00,
2013-03-10 07:19:00,20.8,11.6,29.99,East,93,0.0,0.0,67,0.00,,---,0.00,VWS V14.01,2013-03-10 13:19:00,
2013-03-10 07:20:00,20.8,11.6,29.99,East,94,0.0,0.0,67,0.00,,---,0.00,VWS V14.01,2013-03-10 13:20:00,
2013-03-10 07:21:00,20.8,11.3,29.99,East,94,0.0,0.0,66,0.00,,---,0.00,VWS V14.01,2013-03-10 13:21:00,
2013-03-10 07:22:00,20.8,11.6,29.99,East,93,0.0,0.0,67,0.00,,---,0.00,VWS V14.01,2013-03-10 13:22:00,
2013-03-10 07:23:00,20.7,11.4,29.99,East,93,0.0,0.0,67,0.00,,---,0.00,VWS V14.01,2013-03-10 13:23:00,
2013-03-10 07:24:00,20.7,11.4,29.99,East,93,0.0,0.0,67,0.00,,---,0.00,VWS V14.01,2013-03-10 13:24:00,
2013-03-10 07:25:00,20.7,11.4,29.99,East,93,0.0,0.0,67,0.00,,---,0.00,VWS V14.01,2013-03-10 13:25:00,
2013-03-10 07:26:00,20.7,11.4,29.99,East,94,0.0,0.0,67,0.00,,---,0.00,VWS V14.01,2013-03-10 13:26:00,
2013-03-10 07:27:00,20.7,11.4,29.99,East,93,0.0,0.0,67,0.00,,---,0.00,VWS V14.01,2013-03-10 13:27:00,
2013-03-10 07:28:00,20.7,11.4,29.99,East,93,0.0,0.0,67,0.00,,---,0.00,VWS V14.01,2013-03-10 13:28:00,
2013-03-10 07:29:00,20.5,10.9,29.99,East,93,0.0,0.0,66,0.00,,---,0.00,VWS V14.01,2013-03-10 13:29:00,
2013-03-10 07:30:00,20.5,10.9,29.99,East,93,0.0,0.0,66,0.00,,---,0.00,VWS V14.01,2013-03-10 13:30:00,
2013-03-10 07:31:00,20.5,10.9,29.99,East,94,0.0,0.0,66,0.00,,---,0.00,VWS V14.01,2013-03-10 13:31:00,
2013-03-10 07:32:00,20.5,11.3,29.99,East,94,0.0,0.0,67,0.00,,---,0.00,VWS V14.01,2013-03-10 13:32:00,
2013-03-10 07:33:00,20.5,11.6,29.99,ESE,103,0.0,0.0,68,0.00,,---,0.00,VWS V14.01,2013-03-10 13:33:00,
2013-03-10 07:34:00,20.5,11.9,29.96,ESE,104,0.0,0.0,69,0.00,,---,0.00,VWS V14.01,2013-03-10 13:34:00,
2013-03-10 07:35:00,20.5,11.9,29.96,ESE,104,0.0,0.0,69,0.00,,---,0.00,VWS V14.01,2013-03-10 13:35:00,
2013-03-10 07:36:00,20.5,11.9,29.96,ESE,103,0.0,0.0,69,0.00,,---,0.00,VWS V14.01,2013-03-10 13:36:00,
2013-03-10 07:37:00,20.5,11.9,29.96,ESE,104,0.0,0.0,69,0.00,,---,0.00,VWS V14.01,2013-03-10 13:37:00,
2013-03-10 07:38:00,20.5,11.9,29.96,ESE,104,0.0,0.0,69,0.00,,---,0.00,VWS V14.01,2013-03-10 13:38:00,
2013-03-10 07:39:00,20.5,11.9,29.96,ESE,104,0.0,0.0,69,0.00,,---,0.00,VWS V14.01,2013-03-10 13:39:00,
2013-03-10 07:40:00,20.5,11.9,29.96,ESE,104,0.0,0.0,69,0.00,,---,0.00,VWS V14.01,2013-03-10 13:40:00,
2013-03-10 07:41:00,20.5,12.3,29.96,ESE,104,0.0,0.0,70,0.00,,---,0.00,VWS V14.01,2013-03-10 13:41:00,
2013-03-10 07:42:00,20.5,12.3,29.96,ESE,104,0.0,0.0,70,0.00,,---,0.00,VWS V14.01,2013-03-10 13:42:00,
2013-03-10 07:43:00,20.5,12.3,29.96,ESE,104,0.0,0.0,70,0.00,,---,0.00,VWS V14.01,2013-03-10 13:43:00,
2013-03-10 07:44:00,20.5,12.3,29.96,ESE,105,0.0,0.0,70,0.00,,---,0.00,VWS V14.01,2013-03-10 13:44:00,
2013-03-10 07:45:00,20.5,12.3,29.96,ESE,107,0.0,0.0,70,0.00,,---,0.00,VWS V14.01,2013-03-10 13:45:00,
2013-03-10 07:46:00,20.5,12.3,29.96,ESE,114,0.0,0.0,70,0.00,,---,0.00,VWS V14.01,2013-03-10 13:46:00,
2013-03-10 07:47:00,20.5,12.3,29.96,ESE,116,0.0,0.0,70,0.00,,---,0.00,VWS V14.01,2013-03-10 13:47:00,
2013-03-10 07:48:00,20.5,12.3,29.96,ESE,116,0.0,0.0,70,0.00,,---,0.00,VWS V14.01,2013-03-10 13:48:00,
2013-03-10 07:49:00,20.5,11.9,29.96,ESE,116,0.0,0.0,69,0.00,,---,0.00,VWS V14.01,2013-03-10 13:49:00,
2013-03-10 07:50:00,20.5,11.9,29.96,ESE,116,0.0,0.0,69,0.00,,---,0.00,VWS V14.01,2013-03-10 13:50:00,
2013-03-10 07:51:00,20.5,11.9,29.96,ESE,116,0.0,0.0,69,0.00,,---,0.00,VWS V14.01,2013-03-10 13:51:00,
2013-03-10 07:52:00,20.5,11.9,29.96,ESE,116,0.0,0.0,69,0.00,,---,0.00,VWS V14.01,2013-03-10 13:52:00,
2013-03-10 07:53:00,20.7,12.4,29.96,SSE,152,0.0,0.0,70,0.00,,---,0.00,VWS V14.01,2013-03-10 13:53:00,
2013-03-10 07:54:00,20.7,12.4,29.96,SSE,153,0.0,0.0,70,0.00,,---,0.00,VWS V14.01,2013-03-10 13:54:00,
2013-03-10 07:55:00,20.7,12.4,29.96,SSE,153,0.0,0.0,70,0.00,,---,0.00,VWS V14.01,2013-03-10 13:55:00,
2013-03-10 07:56:00,20.7,12.1,29.96,SSE,153,0.0,0.0,69,0.00,,---,0.00,VWS V14.01,2013-03-10 13:56:00,
2013-03-10 07:57:00,20.7,12.1,29.96,SSE,153,0.0,0.0,69,0.00,,---,0.00,VWS V14.01,2013-03-10 13:57:00,
2013-03-10 07:58:00,20.7,12.1,29.96,SSE,153,0.0,0.0,69,0.00,,---,0.00,VWS V14.01,2013-03-10 13:58:00,
2013-03-10 07:59:00,20.7,12.1,29.96,SSW,202,0.0,0.0,69,0.00,,---,0.00,VWS V14.01,2013-03-10 13:59:00,
2013-03-10 08:00:00,20.7,12.1,29.96,SSW,202,0.0,0.0,69,0.00,,---,0.00,VWS V14.01,2013-03-10 14:00:00,
2013-03-10 08:01:00,20.7,12.1,29.96,SSW,207,0.0,0.0,69,0.00,,---,0.00,VWS V14.01,2013-03-10 14:01:00,
2013-03-10 08:02:00,20.7,12.1,29.96,SSW,207,0.0,0.0,69,0.00,,---,0.00,VWS V14.01,2013-03-10 14:02:00,
2013-03-10 08:03:00,20.7,12.1,29.96,SSW,207,0.0,0.0,69,0.00,,---,0.00,VWS V14.01,2013-03-10 14:03:00,
2013-03-10 08:04:00,20.8,12.3,29.99,SSW,207,0.0,0.0,69,0.00,,---,0.00,VWS V14.01,2013-03-10 14:04:00,
2013-03-10 08:05:00,20.8,12.3,29.99,SSW,207,0.0,0.0,69,0.00,,---,0.00,VWS V14.01,2013-03-10 14:05:00,
2013-03-10 08:06:00,20.8,12.3,29.99,SSW,212,0.0,0.0,69,0.00,,---,0.00,VWS V14.01,2013-03-10 14:06:00,
2013-03-10 08:07:00,20.8,12.3,29.99,SSW,212,0.0,0.0,69,0.00,,---,0.00,VWS V14.01,2013-03-10 14:07:00,
2013-03-10 08:08:00,20.8,12.3,29.99,SSW,212,0.0,0.0,69,0.00,,---,0.00,VWS V14.01,2013-03-10 14:08:00,
2013-03-10 08:09:00,20.8,12.0,29.99,SSW,212,0.0,0.0,68,0.00,,---,0.00,VWS V14.01,2013-03-10 14:09:00,
2013-03-10 08:10:00,20.8,12.0,29.99,SSW,212,0.0,0.0,68,0.00,,---,0.00,VWS V14.01,2013-03-10 14:10:00,
2013-03-10 08:11:00,20.8,12.0,29.99,SSW,212,0.0,0.0,68,0.00,,---,0.00,VWS V14.01,2013-03-10 14:11:00,
2013-03-10 08:12:00,20.8,12.0,29.99,SSW,212,0.0,0.0,68,0.00,,---,0.00,VWS V14.01,2013-03-10 14:12:00,
2013-03-10 08:13:00,20.8,12.0,29.99,SSW,212,0.0,0.0,68,0.00,,---,0.00,VWS V14.01,2013-03-10 14:13:00,
2013-03-10 08:14:00,20.8,12.0,29.99,SSW,212,0.0,0.0,68,0.00,,---,0.00,VWS V14.01,2013-03-10 14:14:00,
2013-03-10 08:15:00,20.8,12.0,29.99,SSW,212,0.0,0.0,68,0.00,,---,0.00,VWS V14.01,2013-03-10 14:15:00,
2013-03-10 08:16:00,20.8,12.0,29.99,SSW,212,0.0,0.0,68,0.00,,---,0.00,VWS V14.01,2013-03-10 14:16:00,
2013-03-10 08:17:00,20.8,12.0,29.99,SSW,212,0.0,0.0,68,0.00,,---,0.00,VWS V14.01,2013-03-10 14:17:00,
2013-03-10 08:18:00,20.8,12.0,29.99,SW,230,0.0,0.0,68,0.00,,---,0.00,VWS V14.01,2013-03-10 14:18:00,
2013-03-10 08:19:00,20.8,12.0,29.99,West,269,2.7,4.0,68,0.00,,---,0.00,VWS V14.01,2013-03-10 14:19:00,
2013-03-10 08:20:00,21.0,12.1,29.99,West,270,0.0,4.0,68,0.00,,---,0.00,VWS V14.01,2013-03-10 14:20:00,
2013-03-10 08:21:00,21.0,12.1,29.99,West,267,3.6,3.6,68,0.00,,---,0.00,VWS V14.01,2013-03-10 14:21:00,
2013-03-10 08:22:00,21.0,12.1,29.99,West,267,0.0,3.6,68,0.00,,---,0.00,VWS V14.01,2013-03-10 14:22:00,
2013-03-10 08:23:00,21.0,12.1,29.99,West,267,0.0,0.0,68,0.00,,---,0.00,VWS V14.01,2013-03-10 14:23:00,
2013-03-10 08:24:00,21.2,12.3,29.99,WNW,290,0.0,0.0,68,0.00,,---,0.00,VWS V14.01,2013-03-10 14:24:00,
2013-03-10 08:25:00,21.2,12.3,29.99,WNW,291,3.1,3.1,68,0.00,,---,0.00,VWS V14.01,2013-03-10 14:25:00,
2013-03-10 08:26:00,21.2,12.3,29.99,West,268,3.6,4.0,68,0.00,,---,0.00,VWS V14.01,2013-03-10 14:26:00,
2013-03-10 08:27:00,21.2,12.6,29.99,West,279,2.7,3.6,69,0.00,,---,0.00,VWS V14.01,2013-03-10 14:27:00,
2013-03-10 08:28:00,21.2,12.3,29.99,West,279,0.0,2.7,68,0.00,,---,0.00,VWS V14.01,2013-03-10 14:28:00,
2013-03-10 08:29:00,21.2,12.3,29.99,West,261,0.0,2.7,68,0.00,,---,0.00,VWS V14.01,2013-03-10 14:29:00,
2013-03-10 08:30:00,21.2,12.3,29.99,WSW,258,3.6,3.6,68,0.00,,---,0.00,VWS V14.01,2013-03-10 14:30:00,
2013-03-10 08:31:00,21.2,12.3,29.99,SW,232,4.0,4.0,68,0.00,,---,0.00,VWS V14.01,2013-03-10 14:31:00,
2013-03-10 08:32:00,21.4,12.5,29.99,SW,216,4.0,4.0,68,0.00,,---,0.00,VWS V14.01,2013-03-10 14:32:00,
2013-03-10 08:33:00,21.4,12.5,29.99,WSW,252,3.1,5.4,68,0.00,,---,0.00,VWS V14.01,2013-03-10 14:33:00,
2013-03-10 08:34:00,21.4,12.1,29.99,West,277,4.0,4.0,67,0.00,,---,0.00,VWS V14.01,2013-03-10 14:34:00,
2013-03-10 08:35:00,21.4,12.1,29.99,West,267,4.0,4.0,67,0.00,,---,0.00,VWS V14.01,2013-03-10 14:35:00,
2013-03-10 08:36:00,21.6,12.3,29.99,WNW,288,3.1,4.9,67,0.00,,---,0.00,VWS V14.01,2013-03-10 14:36:00,
2013-03-10 08:37:00,21.6,12.3,29.99,West,279,3.6,3.6,67,0.00,,---,0.00,VWS V14.01,2013-03-10 14:37:00,
2013-03-10 08:38:00,21.6,12.3,29.99,West,266,3.1,4.9,67,0.00,,---,0.00,VWS V14.01,2013-03-10 14:38:00,
2013-03-10 08:39:00,21.7,12.1,29.99,WSW,251,4.0,4.0,66,0.00,,---,0.00,VWS V14.01,2013-03-10 14:39:00,
2013-03-10 08:40:00,21.7,12.1,29.99,West,263,3.6,4.0,66,0.00,,---,0.00,VWS V14.01,2013-03-10 14:40:00,
2013-03-10 08:41:00,21.9,12.3,29.99,WSW,240,4.0,4.0,66,0.00,,---,0.00,VWS V14.01,2013-03-10 14:41:00,
2013-03-10 08:42:00,21.9,12.3,29.99,WSW,252,3.6,4.0,66,0.00,,---,0.00,VWS V14.01,2013-03-10 14:42:00,
2013-03-10 08:43:00,21.9,12.3,29.99,West,267,4.0,4.0,66,0.00,,---,0.00,VWS V14.01,2013-03-10 14:43:00,
2013-03-10 08:44:00,22.1,12.5,29.99,West,263,4.0,4.0,66,0.00,,---,0.00,VWS V14.01,2013-03-10 14:44:00,
2013-03-10 08:45:00,22.1,12.5,29.99,West,260,3.1,4.0,66,0.00,,---,0.00,VWS V14.01,2013-03-10 14:45:00,
2013-03-10 08:46:00,22.3,12.7,29.99,West,260,4.9,4.9,66,0.00,,---,0.00,VWS V14.01,2013-03-10 14:46:00,
2013-03-10 08:47:00,22.3,13.0,29.99,West,270,2.7,4.9,67,0.00,,---,0.00,VWS V14.01,2013-03-10 14:47:00,
2013-03-10 08:48:00,22.5,13.2,29.99,West,278,3.1,4.0,67,0.00,,---,0.00,VWS V14.01,2013-03-10 14:48:00,
2013-03-10 08:49:00,22.8,13.5,29.99,WSW,252,3.6,4.0,67,0.00,,---,0.00,VWS V14.01,2013-03-10 14:49:00,
2013-03-10 08:50:00,22.8,13.5,29.99,SW,232,4.0,4.0,67,0.00,,---,0.00,VWS V14.01,2013-03-10 14:50:00,
2013-03-10 08:51:00,22.8,13.5,29.99,SW,228,4.9,4.9,67,0.00,,---,0.00,VWS V14.01,2013-03-10 14:51:00,
2013-03-10 08:52:00,23.0,13.7,29.99,WSW,257,3.6,4.9,67,0.00,,---,0.00,VWS V14.01,2013-03-10 14:52:00,
2013-03-10 08:53:00,23.0,13.7,29.99,WSW,251,4.9,5.4,67,0.00,,---,0.00,VWS V14.01,2013-03-10 14:53:00,
2013-03-10 08:54:00,23.4,13.7,29.99,WSW,239,2.2,3.1,66,0.00,,---,0.00,VWS V14.01,2013-03-10 14:54:00,
2013-03-10 08:55:00,23.4,13.7,29.99,WSW,255,4.9,4.9,66,0.00,,---,0.00,VWS V14.01,2013-03-10 14:55:00,
2013-03-10 08:56:00,23.5,13.9,29.99,WSW,244,0.0,4.9,66,0.00,,---,0.00,VWS V14.01,2013-03-10 14:56:00,
2013-03-10 08:57:00,23.5,13.9,29.99,WSW,240,3.1,4.0,66,0.00,,---,0.00,VWS V14.01,2013-03-10 14:57:00,
2013-03-10 08:58:00,23.5,13.9,29.99,WSW,251,2.7,4.0,66,0.00,,---,0.00,VWS V14.01,2013-03-10 14:58:00,
2013-03-10 08:59:00,23.9,13.9,29.99,WSW,251,0.0,0.0,65,0.00,,---,0.00,VWS V14.01,2013-03-10 14:59:00,
2013-03-10 09:00:00,23.9,13.9,29.99,WSW,251,0.0,0.0,65,0.00,,---,0.00,VWS V14.01,2013-03-10 15:00:00,
2013-03-10 09:01:00,24.1,14.0,29.99,WSW,251,0.0,0.0,65,0.00,,---,0.00,VWS V14.01,2013-03-10 15:01:00,
2013-03-10 09:02:00,24.1,14.0,29.99,WSW,251,0.0,0.0,65,0.00,,---,0.00,VWS V14.01,2013-03-10 15:02:00,
2013-03-10 09:03:00,24.3,14.2,29.99,West,263,0.0,0.0,65,0.00,,---,0.00,VWS V14.01,2013-03-10 15:03:00,
2013-03-10 09:04:00,24.6,14.6,29.99,West,263,0.0,0.0,65,0.00,,---,0.00,VWS V14.01,2013-03-10 15:04:00,
2013-03-10 09:05:00,24.6,14.6,29.99,West,263,0.0,0.0,65,0.00,,---,0.00,VWS V14.01,2013-03-10 15:05:00,
2013-03-10 09:06:00,24.8,14.4,29.99,West,263,0.0,0.0,64,0.00,,---,0.00,VWS V14.01,2013-03-10 15:06:00,
2013-03-10 09:07:00,25.0,14.5,29.99,West,263,0.0,0.0,64,0.00,,---,0.00,VWS V14.01,2013-03-10 15:07:00,
2013-03-10 09:08:00,25.0,14.5,29.99,West,263,0.0,0.0,64,0.00,,---,0.00,VWS V14.01,2013-03-10 15:08:00,
2013-03-10 09:09:00,25.3,14.5,29.99,SSE,161,0.0,0.0,63,0.00,,---,0.00,VWS V14.01,2013-03-10 15:09:00,
2013-03-10 09:10:00,25.5,14.7,29.99,SSE,161,0.0,0.0,63,0.00,,---,0.00,VWS V14.01,2013-03-10 15:10:00,
2013-03-10 09:11:00,25.5,14.7,29.99,SSE,161,0.0,0.0,63,0.00,,---,0.00,VWS V14.01,2013-03-10 15:11:00,
2013-03-10 09:12:00,25.9,15.0,29.99,SSE,156,0.0,0.0,63,0.00,,---,0.00,VWS V14.01,2013-03-10 15:12:00,
2013-03-10 09:13:00,26.1,15.2,29.99,SSE,155,0.0,0.0,63,0.00,,---,0.00,VWS V14.01,2013-03-10 15:13:00,
2013-03-10 09:14:00,26.2,15.4,29.99,NE,50,0.0,0.0,63,0.00,,---,0.00,VWS V14.01,2013-03-10 15:14:00,
2013-03-10 09:15:00,26.4,15.6,29.99,NE,50,0.0,0.0,63,0.00,,---,0.00,VWS V14.01,2013-03-10 15:15:00,
2013-03-10 09:16:00,26.4,15.6,29.99,NE,50,0.0,0.0,63,0.00,,---,0.00,VWS V14.01,2013-03-10 15:16:00,
2013-03-10 09:17:00,26.6,15.7,29.99,NE,50,0.0,0.0,63,0.00,,---,0.00,VWS V14.01,2013-03-10 15:17:00,
2013-03-10 09:18:00,27.0,16.1,29.99,ENE,74,0.0,0.0,63,0.00,,---,0.00,VWS V14.01,2013-03-10 15:18:00,
2013-03-10 09:19:00,27.0,15.7,29.99,NE,54,4.0,4.0,62,0.00,,---,0.00,VWS V14.01,2013-03-10 15:19:00,
2013-03-10 09:20:00,27.1,15.9,29.99,NE,47,3.1,4.0,62,0.00,,---,0.00,VWS V14.01,2013-03-10 15:20:00,
2013-03-10 09:21:00,27.1,15.9,29.99,NE,42,0.0,3.6,62,0.00,,---,0.00,VWS V14.01,2013-03-10 15:21:00,
2013-03-10 09:22:00,27.3,16.0,29.99,NE,42,0.0,0.0,62,0.00,,---,0.00,VWS V14.01,2013-03-10 15:22:00,
2013-03-10 09:23:00,27.3,16.0,29.99,North,4,0.0,0.0,62,0.00,,---,0.00,VWS V14.01,2013-03-10 15:23:00,
2013-03-10 09:24:00,27.1,15.5,29.99,NW,324,0.0,2.2,61,0.00,,---,0.00,VWS V14.01,2013-03-10 15:24:00,
2013-03-10 09:25:00,27.0,14.9,29.99,NW,324,0.0,2.2,60,0.00,,---,0.00,VWS V14.01,2013-03-10 15:25:00,
2013-03-10 09:26:00,26.8,14.4,29.99,NW,324,0.0,0.0,59,0.00,,---,0.00,VWS V14.01,2013-03-10 15:26:00,
2013-03-10 09:27:00,26.8,14.4,29.99,NW,324,0.0,0.0,59,0.00,,---,0.00,VWS V14.01,2013-03-10 15:27:00,
2013-03-10 09:28:00,26.8,14.4,29.99,NW,326,0.0,0.0,59,0.00,,---,0.00,VWS V14.01,2013-03-10 15:28:00,
2013-03-10 09:29:00,26.8,14.4,29.99,NW,323,0.0,0.0,59,0.00,,---,0.00,VWS V14.01,2013-03-10 15:29:00,
2013-03-10 09:30:00,26.8,14.4,29.99,NW,323,0.0,0.0,59,0.00,,---,0.00,VWS V14.01,2013-03-10 15:30:00,
2013-03-10 09:31:00,26.8,14.4,29.99,NW,324,0.0,0.0,59,0.00,,---,0.00,VWS V14.01,2013-03-10 15:31:00,
2013-03-10 09:32:00,26.8,14.4,29.99,NW,324,0.0,0.0,59,0.00,,---,0.00,VWS V14.01,2013-03-10 15:32:00,
2013-03-10 09:33:00,26.8,14.4,29.99,NW,325,0.0,0.0,59,0.00,,---,0.00,VWS V14.01,2013-03-10 15:33:00,
2013-03-10 09:34:00,27.0,14.9,29.99,NNW,327,0.0,0.0,60,0.00,,---,0.00,VWS V14.01,2013-03-10 15:34:00,
2013-03-10 09:35:00,27.0,14.9,29.99,NNW,327,0.0,0.0,60,0.00,,---,0.00,VWS V14.01,2013-03-10 15:35:00,
2013-03-10 09:36:00,27.1,15.1,29.99,NE,37,2.7,3.1,60,0.00,,---,0.00,VWS V14.01,2013-03-10 15:36:00,
2013-03-10 09:37:00,27.5,15.4,29.99,ENE,71,3.1,4.0,60,0.00,,---,0.00,VWS V14.01,2013-03-10 15:37:00,
2013-03-10 09:38:00,27.5,15.4,29.99,ENE,71,0.0,3.1,60,0.00,,---,0.00,VWS V14.01,2013-03-10 15:38:00,
2013-03-10 09:39:00,27.9,15.8,29.99,ENE,71,0.0,0.0,60,0.00,,---,0.00,VWS V14.01,2013-03-10 15:39:00,
2013-03-10 09:40:00,27.9,15.8,29.99,ENE,71,0.0,0.0,60,0.00,,---,0.00,VWS V14.01,2013-03-10 15:40:00,
2013-03-10 09:41:00,28.0,16.0,29.99,ENE,71,0.0,0.0,60,0.00,,---,0.00,VWS V14.01,2013-03-10 15:41:00,
2013-03-10 09:42:00,28.2,16.1,29.99,NE,49,0.0,0.0,60,0.00,,---,0.00,VWS V14.01,2013-03-10 15:42:00,
2013-03-10 09:43:00,28.4,16.3,29.99,NNE,23,0.0,0.0,60,0.00,,---,0.00,VWS V14.01,2013-03-10 15:43:00,
2013-03-10 09:44:00,28.6,15.3,29.99,East,96,3.6,4.0,57,0.00,,---,0.00,VWS V14.01,2013-03-10 15:44:00,
2013-03-10 09:45:00,28.8,15.1,29.99,East,79,5.4,5.4,56,0.00,,---,0.00,VWS V14.01,2013-03-10 15:45:00,
2013-03-10 09:46:00,28.9,15.2,29.99,NE,53,2.7,5.4,56,0.00,,---,0.00,VWS V14.01,2013-03-10 15:46:00,
2013-03-10 09:47:00,29.1,15.4,29.99,NE,52,0.0,2.7,56,0.00,,---,0.00,VWS V14.01,2013-03-10 15:47:00,
2013-03-10 09:48:00,29.3,15.6,29.99,NE,52,0.0,0.0,56,0.00,,---,0.00,VWS V14.01,2013-03-10 15:48:00,
2013-03-10 09:49:00,29.5,15.7,29.99,NE,53,0.0,0.0,56,0.00,,---,0.00,VWS V14.01,2013-03-10 15:49:00,
2013-03-10 09:50:00,29.7,15.5,29.99,NE,54,4.0,4.0,55,0.00,,---,0.00,VWS V14.01,2013-03-10 15:50:00,
2013-03-10 09:51:00,29.7,15.5,29.99,ENE,58,4.0,4.0,55,0.00,,---,0.00,VWS V14.01,2013-03-10 15:51:00,
2013-03-10 09:52:00,30.0,15.8,29.99,ENE,58,3.1,4.9,55,0.00,,---,0.00,VWS V14.01,2013-03-10 15:52:00,
2013-03-10 09:53:00,30.2,16.0,29.99,NE,52,3.6,5.8,55,0.00,,---,0.00,VWS V14.01,2013-03-10 15:53:00,
2013-03-10 09:54:00,30.4,15.7,29.99,NE,47,5.4,6.3,54,0.00,,---,0.00,VWS V14.01,2013-03-10 15:54:00,
2013-03-10 09:55:00,30.6,15.9,29.99,NE,46,5.8,6.3,54,0.00,,---,0.00,VWS V14.01,2013-03-10 15:55:00,
2013-03-10 09:56:00,30.7,16.1,29.99,NNE,32,5.8,5.8,54,0.00,,---,0.00,VWS V14.01,2013-03-10 15:56:00,
2013-03-10 09:57:00,30.9,16.7,29.99,ENE,72,8.1,8.1,55,0.00,,---,0.00,VWS V14.01,2013-03-10 15:57:00,
2013-03-10 09:58:00,30.9,16.7,29.99,East,94,6.3,8.1,55,0.00,,---,0.00,VWS V14.01,2013-03-10 15:58:00,
2013-03-10 09:59:00,31.1,16.8,29.99,ENE,64,3.6,6.3,55,0.00,,---,0.00,VWS V14.01,2013-03-10 15:59:00,
2013-03-10 10:00:00,31.1,16.4,29.99,NE,53,6.3,6.3,54,0.00,,---,0.00,VWS V14.01,2013-03-10 16:00:00,
2013-03-10 10:01:00,31.1,16.4,29.99,ENE,63,5.8,6.3,54,0.00,,---,0.00,VWS V14.01,2013-03-10 16:01:00,
2013-03-10 10:02:00,31.1,16.4,29.99,East,86,3.6,6.3,54,0.00,,---,0.00,VWS V14.01,2013-03-10 16:02:00,
2013-03-10 10:03:00,31.3,16.6,29.99,East,86,2.7,4.0,54,0.00,,---,0.00,VWS V14.01,2013-03-10 16:03:00,
2013-03-10 10:04:00,31.3,16.1,29.99,ENE,60,3.6,4.0,53,0.00,,---,0.00,VWS V14.01,2013-03-10 16:04:00,
2013-03-10 10:05:00,31.3,16.1,29.99,ENE,60,0.0,4.0,53,0.00,,---,0.00,VWS V14.01,2013-03-10 16:05:00,
2013-03-10 10:06:00,31.5,16.3,29.99,ENE,58,0.0,0.0,53,0.00,,---,0.00,VWS V14.01,2013-03-10 16:06:00,
2013-03-10 10:07:00,31.5,16.3,29.99,ENE,70,6.3,6.3,53,0.00,,---,0.00,VWS V14.01,2013-03-10 16:07:00,
2013-03-10 10:08:00,31.6,16.5,29.99,NE,56,4.9,6.3,53,0.00,,---,0.00,VWS V14.01,2013-03-10 16:08:00,
2013-03-10 10:09:00,31.8,16.6,29.99,ENE,58,5.4,5.4,53,0.00,,---,0.00,VWS V14.01,2013-03-10 16:09:00,
2013-03-10 10:10:00,31.8,16.6,29.99,ENE,62,6.3,6.3,53,0.00,,---,0.00,VWS V14.01,2013-03-10 16:10:00,
2013-03-10 10:11:00,32.0,16.4,29.99,ENE,74,3.6,8.1,52,0.00,,---,0.00,VWS V14.01,2013-03-10 16:11:00,
2013-03-10 10:12:00,32.2,16.5,29.99,ENE,65,2.7,7.6,52,0.00,,---,0.00,VWS V14.01,2013-03-10 16:12:00,
2013-03-10 10:13:00,32.2,16.5,29.99,NE,38,4.0,4.9,52,0.00,,---,0.00,VWS V14.01,2013-03-10 16:13:00,
2013-03-10 10:14:00,32.2,16.1,29.99,NE,46,4.0,4.0,51,0.00,,---,0.00,VWS V14.01,2013-03-10 16:14:00,
2013-03-10 10:15:00,32.2,16.1,29.99,NNE,22,5.4,5.8,51,0.00,,---,0.00,VWS V14.01,2013-03-10 16:15:00,
2013-03-10 10:16:00,32.4,16.3,29.99,NNE,21,7.6,7.6,51,0.00,,---,0.00,VWS V14.01,2013-03-10 16:16:00,
2013-03-10 10:17:00,32.4,16.3,29.99,NE,45,4.0,7.6,51,0.00,,---,0.00,VWS V14.01,2013-03-10 16:17:00,
2013-03-10 10:18:00,32.2,16.1,29.99,NE,49,5.8,5.8,51,0.00,,---,0.00,VWS V14.01,2013-03-10 16:18:00,
2013-03-10 10:19:00,32.2,15.6,29.96,NE,42,5.8,5.8,50,0.00,,---,0.00,VWS V14.01,2013-03-10 16:19:00,
2013-03-10 10:20:00,32.2,15.6,29.96,NE,46,4.0,5.8,50,0.00,,---,0.00,VWS V14.01,2013-03-10 16:20:00,
2013-03-10 10:21:00,32.4,15.8,29.96,NE,48,3.6,4.5,50,0.00,,---,0.00,VWS V14.01,2013-03-10 16:21:00,
2013-03-10 10:22:00,32.4,15.8,29.96,NE,55,4.0,6.3,50,0.00,,---,0.00,VWS V14.01,2013-03-10 16:22:00,
2013-03-10 10:23:00,32.4,15.4,29.96,ENE,60,5.8,5.8,49,0.00,,---,0.00,VWS V14.01,2013-03-10 16:23:00,
2013-03-10 10:24:00,32.5,15.5,29.96,ENE,61,4.0,4.9,49,0.00,,---,0.00,VWS V14.01,2013-03-10 16:24:00,
2013-03-10 10:25:00,32.5,15.5,29.96,NE,56,3.6,4.9,49,0.00,,---,0.00,VWS V14.01,2013-03-10 16:25:00,
2013-03-10 10:26:00,32.7,15.7,29.96,NE,38,4.0,7.2,49,0.00,,---,0.00,VWS V14.01,2013-03-10 16:26:00,
2013-03-10 10:27:00,32.7,15.7,29.96,NE,44,3.6,6.3,49,0.00,,---,0.00,VWS V14.01,2013-03-10 16:27:00,
2013-03-10 10:28:00,32.7,15.7,29.96,NE,48,6.3,6.3,49,0.00,,---,0.00,VWS V14.01,2013-03-10 16:28:00,
2013-03-10 10:29:00,32.9,15.4,29.96,NNE,15,5.4,5.8,48,0.00,,---,0.00,VWS V14.01,2013-03-10 16:29:00,
2013-03-10 10:30:00,32.9,14.4,29.96,NE,39,5.8,8.1,46,0.00,,---,0.00,VWS V14.01,2013-03-10 16:30:00,
2013-03-10 10:31:00,33.1,14.1,29.96,NE,51,3.6,5.8,45,0.00,,---,0.00,VWS V14.01,2013-03-10 16:31:00,
2013-03-10 10:32:00,33.1,13.6,29.96,SE,138,0.0,3.6,44,0.00,,---,0.00,VWS V14.01,2013-03-10 16:32:00,
2013-03-10 10:33:00,33.3,13.2,29.96,ESE,102,5.4,8.1,43,0.00,,---,0.00,VWS V14.01,2013-03-10 16:33:00,
2013-03-10 10:34:00,33.4,13.4,29.96,East,81,0.0,5.8,43,0.00,,---,0.00,VWS V14.01,2013-03-10 16:34:00,
2013-03-10 10:35:00,33.4,13.4,29.96,East,81,0.0,5.8,43,0.00,,---,0.00,VWS V14.01,2013-03-10 16:35:00,
2013-03-10 10:36:00,33.4,13.4,29.96,NW,322,2.7,2.7,43,0.00,,---,0.00,VWS V14.01,2013-03-10 16:36:00,
2013-03-10 10:37:00,33.6,13.5,29.96,NNE,31,3.6,6.3,43,0.00,,---,0.00,VWS V14.01,2013-03-10 16:37:00,
2013-03-10 10:38:00,33.6,13.5,29.96,ENE,58,3.6,3.6,43,0.00,,---,0.00,VWS V14.01,2013-03-10 16:38:00,
2013-03-10 10:39:00,33.8,13.1,29.96,NE,46,4.9,5.4,42,0.00,,---,0.00,VWS V14.01,2013-03-10 16:39:00,
2013-03-10 10:40:00,33.8,13.1,29.96,NE,49,4.0,5.4,42,0.00,,---,0.00,VWS V14.01,2013-03-10 16:40:00,
2013-03-10 10:41:00,33.8,13.1,29.96,NE,54,3.6,4.0,42,0.00,,---,0.00,VWS V14.01,2013-03-10 16:41:00,
2013-03-10 10:42:00,34.0,13.3,29.96,ENE,61,4.0,5.4,42,0.00,,---,0.00,VWS V14.01,2013-03-10 16:42:00,
2013-03-10 10:43:00,34.2,13.5,29.96,NE,43,5.4,5.4,42,0.00,,---,0.00,VWS V14.01,2013-03-10 16:43:00,
2013-03-10 10:44:00,34.3,13.6,29.96,NE,50,0.0,2.7,42,0.00,,---,0.00,VWS V14.01,2013-03-10 16:44:00,
2013-03-10 10:45:00,34.5,14.3,29.96,NE,50,0.0,2.7,43,0.00,,---,0.00,VWS V14.01,2013-03-10 16:45:00,
2013-03-10 10:46:00,34.5,14.3,29.96,NE,43,4.0,4.0,43,0.00,,---,0.00,VWS V14.01,2013-03-10 16:46:00,
2013-03-10 10:47:00,34.7,14.5,29.96,ENE,61,5.8,5.8,43,0.00,,---,0.00,VWS V14.01,2013-03-10 16:47:00,
2013-03-10 10:48:00,34.9,14.7,29.96,NE,38,3.6,5.8,43,0.00,,---,0.00,VWS V14.01,2013-03-10 16:48:00,
2013-03-10 10:49:00,35.1,14.8,29.96,NE,52,3.6,3.6,43,0.00,,---,0.00,VWS V14.01,2013-03-10 16:49:00,
2013-03-10 10:50:00,35.2,15.0,29.96,NE,51,2.7,3.6,43,0.00,,---,0.00,VWS V14.01,2013-03-10 16:50:00,
2013-03-10 10:51:00,35.4,14.6,29.96,NE,39,0.0,2.7,42,0.00,,---,0.00,VWS V14.01,2013-03-10 16:51:00,
2013-03-10 10:52:00,35.4,14.6,29.96,NE,56,5.4,5.4,42,0.00,,---,0.00,VWS V14.01,2013-03-10 16:52:00,
2013-03-10 10:53:00,35.6,14.2,29.96,NNE,28,3.6,5.8,41,0.00,,---,0.00,VWS V14.01,2013-03-10 16:53:00,
2013-03-10 10:54:00,35.8,14.4,29.96,NE,40,0.0,4.5,41,0.00,,---,0.00,VWS V14.01,2013-03-10 16:54:00,
2013-03-10 10:55:00,35.8,14.4,29.96,NNE,33,0.0,4.5,41,0.00,,---,0.00,VWS V14.01,2013-03-10 16:55:00,
2013-03-10 10:56:00,35.8,14.4,29.96,NNE,27,2.7,2.7,41,0.00,,---,0.00,VWS V14.01,2013-03-10 16:56:00,
2013-03-10 10:57:00,35.8,14.4,29.96,NNE,27,0.0,3.1,41,0.00,,---,0.00,VWS V14.01,2013-03-10 16:57:00,
2013-03-10 10:58:00,35.8,13.8,29.96,NNE,27,0.0,0.0,40,0.00,,---,0.00,VWS V14.01,2013-03-10 16:58:00,
2013-03-10 10:59:00,35.8,13.8,29.96,NNE,27,0.0,0.0,40,0.00,,---,0.00,VWS V14.01,2013-03-10 16:59:00,
2013-03-10 11:00:00,35.8,13.8,29.96,NNE,27,0.0,0.0,40,0.00,,---,0.00,VWS V14.01,2013-03-10 17:00:00,
2013-03-10 11:01:00,35.8,13.8,29.96,NNE,27,0.0,0.0,40,0.00,,---,0.00,VWS V14.01,2013-03-10 17:01:00,
2013-03-10 11:02:00,35.8,13.8,29.96,NNE,28,3.1,3.1,40,0.00,,---,0.00,VWS V14.01,2013-03-10 17:02:00,
2013-03-10 11:03:00,36.0,14.0,29.96,NNE,16,4.0,4.0,40,0.00,,---,0.00,VWS V14.01,2013-03-10 17:03:00,
2013-03-10 11:04:00,36.1,14.2,29.96,NE,54,2.7,2.7,40,0.00,,---,0.00,VWS V14.01,2013-03-10 17:04:00,
2013-03-10 11:05:00,36.1,14.2,29.96,NNE,25,5.8,5.8,40,0.00,,---,0.00,VWS V14.01,2013-03-10 17:05:00,
2013-03-10 11:06:00,36.3,14.3,29.96,NE,40,3.6,5.8,40,0.00,,---,0.00,VWS V14.01,2013-03-10 17:06:00,
2013-03-10 11:07:00,36.5,14.5,29.96,NNE,31,4.0,4.0,40,0.00,,---,0.00,VWS V14.01,2013-03-10 17:07:00,
2013-03-10 11:08:00,36.7,14.6,29.96,NNW,328,3.6,4.0,40,0.00,,---,0.00,VWS V14.01,2013-03-10 17:08:00,
2013-03-10 11:09:00,36.5,14.5,29.96,North,1,2.2,4.0,40,0.00,,---,0.00,VWS V14.01,2013-03-10 17:09:00,
2013-03-10 11:10:00,36.5,14.5,29.96,NE,46,6.3,7.2,40,0.00,,---,0.00,VWS V14.01,2013-03-10 17:10:00,
2013-03-10 11:11:00,36.7,14.6,29.96,NE,37,8.1,8.1,40,0.00,,---,0.00,VWS V14.01,2013-03-10 17:11:00,
2013-03-10 11:12:00,36.7,15.2,29.96,NNE,16,3.6,8.1,41,0.00,,---,0.00,VWS V14.01,2013-03-10 17:12:00,
2013-03-10 11:13:00,36.7,14.6,29.96,NNW,332,2.7,6.7,40,0.00,,---,0.00,VWS V14.01,2013-03-10 17:13:00,
2013-03-10 11:14:00,36.5,14.5,29.96,NNE,21,5.4,5.4,40,0.00,,---,0.00,VWS V14.01,2013-03-10 17:14:00,
2013-03-10 11:15:00,36.5,14.5,29.96,NNE,19,5.4,5.8,40,0.00,,---,0.00,VWS V14.01,2013-03-10 17:15:00,
2013-03-10 11:16:00,36.5,14.5,29.96,NNW,344,4.5,5.4,40,0.00,,---,0.00,VWS V14.01,2013-03-10 17:16:00,
2013-03-10 11:17:00,36.7,15.2,29.96,NE,45,5.8,8.7,41,0.00,,---,0.00,VWS V14.01,2013-03-10 17:17:00,
2013-03-10 11:18:00,36.7,15.2,29.96,East,86,6.3,8.1,41,0.00,,---,0.00,VWS V14.01,2013-03-10 17:18:00,
2013-03-10 11:19:00,36.9,15.4,29.96,NE,38,3.1,4.0,41,0.00,,---,0.00,VWS V14.01,2013-03-10 17:19:00,
2013-03-10 11:20:00,36.9,15.4,29.96,NE,47,3.1,4.0,41,0.00,,---,0.00,VWS V14.01,2013-03-10 17:20:00,
2013-03-10 11:21:00,37.0,15.5,29.96,NE,54,5.4,5.4,41,0.00,,---,0.00,VWS V14.01,2013-03-10 17:21:00,
2013-03-10 11:22:00,37.0,15.5,29.96,NE,51,3.1,5.8,41,0.00,,---,0.00,VWS V14.01,2013-03-10 17:22:00,
2013-03-10 11:23:00,37.0,15.5,29.96,ENE,61,4.9,4.9,41,0.00,,---,0.00,VWS V14.01,2013-03-10 17:23:00,
2013-03-10 11:24:00,37.4,15.9,29.96,NE,46,2.2,6.3,41,0.00,,---,0.00,VWS V14.01,2013-03-10 17:24:00,
2013-03-10 11:25:00,37.4,15.9,29.96,NNE,27,2.7,6.3,41,0.00,,---,0.00,VWS V14.01,2013-03-10 17:25:00,
2013-03-10 11:26:00,37.4,15.9,29.96,NNE,33,2.7,3.1,41,0.00,,---,0.00,VWS V14.01,2013-03-10 17:26:00,
2013-03-10 11:27:00,37.4,15.9,29.96,NE,37,2.7,3.6,41,0.00,,---,0.00,VWS V14.01,2013-03-10 17:27:00,
2013-03-10 11:28:00,37.4,15.9,29.96,NE,35,4.9,4.9,41,0.00,,---,0.00,VWS V14.01,2013-03-10 17:28:00,
2013-03-10 11:29:00,37.6,16.0,29.96,ENE,74,3.1,4.0,41,0.00,,---,0.00,VWS V14.01,2013-03-10 17:29:00,
2013-03-10 11:30:00,37.6,16.0,29.96,ENE,71,5.4,5.8,41,0.00,,---,0.00,VWS V14.01,2013-03-10 17:30:00,
2013-03-10 11:31:00,37.8,16.2,29.96,East,82,3.6,5.8,41,0.00,,---,0.00,VWS V14.01,2013-03-10 17:31:00,
2013-03-10 11:32:00,37.9,16.4,29.96,NE,48,0.0,3.6,41,0.00,,---,0.00,VWS V14.01,2013-03-10 17:32:00,
2013-03-10 11:33:00,37.9,16.4,29.96,ENE,65,7.6,7.6,41,0.00,,---,0.00,VWS V14.01,2013-03-10 17:33:00,
2013-03-10 11:34:00,37.9,16.4,29.96,NE,52,5.8,5.8,41,0.00,,---,0.00,VWS V14.01,2013-03-10 17:34:00,
2013-03-10 11:35:00,37.9,16.4,29.96,ENE,71,7.6,7.6,41,0.00,,---,0.00,VWS V14.01,2013-03-10 17:35:00,
2013-03-10 11:36:00,37.9,16.4,29.96,ENE,78,4.9,7.6,41,0.00,,---,0.00,VWS V14.01,2013-03-10 17:36:00,
2013-03-10 11:37:00,37.9,16.4,29.96,ENE,77,0.0,4.9,41,0.00,,---,0.00,VWS V14.01,2013-03-10 17:37:00,
2013-03-10 11:38:00,37.9,16.4,29.96,East,91,5.4,5.4,41,0.00,,---,0.00,VWS V14.01,2013-03-10 17:38:00,
2013-03-10 11:39:00,37.9,16.4,29.96,ENE,64,4.0,5.4,41,0.00,,---,0.00,VWS V14.01,2013-03-10 17:39:00,
2013-03-10 11:40:00,37.9,16.4,29.96,ENE,68,4.0,5.4,41,0.00,,---,0.00,VWS V14.01,2013-03-10 17:40:00,
2013-03-10 11:41:00,38.1,16.5,29.96,ENE,74,3.1,5.4,41,0.00,,---,0.00,VWS V14.01,2013-03-10 17:41:00,
2013-03-10 11:42:00,38.1,16.5,29.96,East,98,3.1,4.0,41,0.00,,---,0.00,VWS V14.01,2013-03-10 17:42:00,
2013-03-10 11:43:00,38.3,16.7,29.96,NE,56,5.4,5.4,41,0.00,,---,0.00,VWS V14.01,2013-03-10 17:43:00,
2013-03-10 11:44:00,38.5,16.8,29.96,NE,45,2.7,4.0,41,0.00,,---,0.00,VWS V14.01,2013-03-10 17:44:00,
2013-03-10 11:45:00,38.5,16.8,29.96,NE,46,4.9,4.9,41,0.00,,---,0.00,VWS V14.01,2013-03-10 17:45:00,
2013-03-10 11:46:00,38.5,16.8,29.96,NE,54,5.8,5.8,41,0.00,,---,0.00,VWS V14.01,2013-03-10 17:46:00,
2013-03-10 11:47:00,38.7,17.0,29.96,ENE,76,5.4,5.8,41,0.00,,---,0.00,VWS V14.01,2013-03-10 17:47:00,
2013-03-10 11:48:00,38.7,17.0,29.96,NE,51,0.0,5.4,41,0.00,,---,0.00,VWS V14.01,2013-03-10 17:48:00,
2013-03-10 11:49:00,38.7,17.0,29.96,ENE,62,6.3,6.3,41,0.00,,---,0.00,VWS V14.01,2013-03-10 17:49:00,
2013-03-10 11:50:00,38.7,17.0,29.96,NE,52,8.1,8.1,41,0.00,,---,0.00,VWS V14.01,2013-03-10 17:50:00,
2013-03-10 11:51:00,38.7,17.0,29.96,NNE,17,3.1,8.1,41,0.00,,---,0.00,VWS V14.01,2013-03-10 17:51:00,
2013-03-10 11:52:00,38.7,17.0,29.96,ENE,65,4.9,4.9,41,0.00,,---,0.00,VWS V14.01,2013-03-10 17:52:00,
2013-03-10 11:53:00,38.5,16.3,29.96,East,95,2.7,4.9,40,0.00,,---,0.00,VWS V14.01,2013-03-10 17:53:00,
2013-03-10 11:54:00,38.5,16.8,29.96,East,84,2.7,4.0,41,0.00,,---,0.00,VWS V14.01,2013-03-10 17:54:00,
2013-03-10 11:55:00,38.5,16.8,29.96,NE,44,4.9,5.8,41,0.00,,---,0.00,VWS V14.01,2013-03-10 17:55:00,
2013-03-10 11:56:00,38.7,16.4,29.96,ENE,64,2.7,4.9,40,0.00,,---,0.00,VWS V14.01,2013-03-10 17:56:00,
2013-03-10 11:57:00,38.8,16.6,29.96,East,87,3.1,4.0,40,0.00,,---,0.00,VWS V14.01,2013-03-10 17:57:00,
2013-03-10 11:58:00,38.8,16.6,29.96,East,101,2.7,4.9,40,0.00,,---,0.00,VWS V14.01,2013-03-10 17:58:00,
2013-03-10 11:59:00,39.0,16.8,29.96,East,96,3.6,3.6,40,0.00,,---,0.00,VWS V14.01,2013-03-10 17:59:00,
2013-03-10 12:00:00,39.0,16.8,29.96,NE,53,3.1,3.6,40,0.00,,---,0.00,VWS V14.01,2013-03-10 18:00:00,
2013-03-10 12:01:00,39.0,16.8,29.96,NE,46,3.6,5.4,40,0.00,,---,0.00,VWS V14.01,2013-03-10 18:01:00,
2013-03-10 12:02:00,39.2,16.9,29.96,NE,44,0.0,3.6,40,0.00,,---,0.00,VWS V14.01,2013-03-10 18:02:00,
2013-03-10 12:03:00,39.2,16.9,29.96,ENE,66,0.0,0.0,40,0.00,,---,0.00,VWS V14.01,2013-03-10 18:03:00,
2013-03-10 12:04:00,39.6,16.7,29.96,East,99,0.0,0.0,39,0.00,,---,0.00,VWS V14.01,2013-03-10 18:04:00,
2013-03-10 12:05:00,39.6,16.7,29.96,East,101,4.0,4.0,39,0.00,,---,0.00,VWS V14.01,2013-03-10 18:05:00,
2013-03-10 12:06:00,39.7,16.8,29.96,ENE,60,4.9,4.9,39,0.00,,---,0.00,VWS V14.01,2013-03-10 18:06:00,
2013-03-10 12:07:00,39.9,17.0,29.96,NE,51,3.6,5.8,39,0.00,,---,0.00,VWS V14.01,2013-03-10 18:07:00,
2013-03-10 12:08:00,39.9,17.0,29.96,NE,55,5.8,5.8,39,0.00,,---,0.00,VWS V14.01,2013-03-10 18:08:00,
2013-03-10 12:09:00,40.5,17.5,29.96,ENE,63,0.0,2.7,39,0.00,,---,0.00,VWS V14.01,2013-03-10 18:09:00,
2013-03-10 12:10:00,40.5,17.5,29.96,East,87,0.0,2.7,39,0.00,,---,0.00,VWS V14.01,2013-03-10 18:10:00,
2013-03-10 12:11:00,40.5,17.5,29.96,East,88,2.2,3.6,39,0.00,,---,0.00,VWS V14.01,2013-03-10 18:11:00,
2013-03-10 12:12:00,40.6,17.6,29.96,East,88,3.1,3.1,39,0.00,,---,0.00,VWS V14.01,2013-03-10 18:12:00,
2013-03-10 12:13:00,40.6,17.6,29.96,SSW,202,3.6,3.6,39,0.00,,---,0.00,VWS V14.01,2013-03-10 18:13:00,
2013-03-10 12:14:00,40.8,17.8,29.96,East,94,3.6,4.0,39,0.00,,---,0.00,VWS V14.01,2013-03-10 18:14:00,
2013-03-10 12:15:00,41.0,17.4,29.96,East,94,3.1,4.0,38,0.00,,---,0.00,VWS V14.01,2013-03-10 18:15:00,
2013-03-10 12:16:00,41.0,17.4,29.96,NE,34,0.0,5.8,38,0.00,,---,0.00,VWS V14.01,2013-03-10 18:16:00,
2013-03-10 12:17:00,41.2,17.5,29.96,WNW,297,3.1,3.1,38,0.00,,---,0.00,VWS V14.01,2013-03-10 18:17:00,
2013-03-10 12:18:00,41.2,15.0,29.96,NW,307,3.6,6.3,34,0.00,,---,0.00,VWS V14.01,2013-03-10 18:18:00,
2013-03-10 12:19:00,41.4,13.7,29.93,WNW,294,4.9,8.3,32,0.00,,---,0.00,VWS V14.01,2013-03-10 18:19:00,
2013-03-10 12:20:00,41.5,13.2,29.93,NW,308,6.3,8.3,31,0.00,,---,0.00,VWS V14.01,2013-03-10 18:20:00,
2013-03-10 12:21:00,41.5,12.4,29.93,West,279,3.6,7.6,30,0.00,,---,0.00,VWS V14.01,2013-03-10 18:21:00,
2013-03-10 12:22:00,41.7,13.3,29.93,South,186,4.9,4.9,31,0.00,,---,0.00,VWS V14.01,2013-03-10 18:22:00,
2013-03-10 12:23:00,41.7,13.3,29.93,South,185,0.0,4.9,31,0.00,,---,0.00,VWS V14.01,2013-03-10 18:23:00,
2013-03-10 12:24:00,41.9,12.7,29.93,NW,309,3.1,3.1,30,0.00,,---,0.00,VWS V14.01,2013-03-10 18:24:00,
2013-03-10 12:25:00,42.1,12.1,29.93,NW,311,3.1,5.4,29,0.00,,---,0.00,VWS V14.01,2013-03-10 18:25:00,
2013-03-10 12:26:00,42.1,12.1,29.93,WNW,302,3.1,7.6,29,0.00,,---,0.00,VWS V14.01,2013-03-10 18:26:00,
2013-03-10 12:27:00,42.1,12.1,29.93,NW,307,3.1,5.4,29,0.00,,---,0.00,VWS V14.01,2013-03-10 18:27:00,
2013-03-10 12:28:00,42.3,12.3,29.93,North,4,2.7,3.6,29,0.00,,---,0.00,VWS V14.01,2013-03-10 18:28:00,
2013-03-10 12:29:00,42.3,12.3,29.93,NW,317,2.7,6.3,29,0.00,,---,0.00,VWS V14.01,2013-03-10 18:29:00,
2013-03-10 12:30:00,42.3,12.3,29.93,NW,324,0.0,6.3,29,0.00,,---,0.00,VWS V14.01,2013-03-10 18:30:00,
2013-03-10 12:31:00,42.4,12.4,29.93,WNW,295,5.8,5.8,29,0.00,,---,0.00,VWS V14.01,2013-03-10 18:31:00,
2013-03-10 12:32:00,42.4,12.4,29.93,WNW,295,4.0,5.8,29,0.00,,---,0.00,VWS V14.01,2013-03-10 18:32:00,
2013-03-10 12:33:00,42.6,12.6,29.93,NNW,327,3.1,4.0,29,0.00,,---,0.00,VWS V14.01,2013-03-10 18:33:00,
2013-03-10 12:34:00,42.8,12.0,29.93,NW,309,4.5,4.5,28,0.00,,---,0.00,VWS V14.01,2013-03-10 18:34:00,
2013-03-10 12:35:00,42.8,12.0,29.93,WNW,300,5.4,5.4,28,0.00,,---,0.00,VWS V14.01,2013-03-10 18:35:00,
2013-03-10 12:36:00,42.8,12.0,29.93,West,267,5.4,8.3,28,0.00,,---,0.00,VWS V14.01,2013-03-10 18:36:00,
2013-03-10 12:37:00,42.8,12.0,29.93,WNW,282,0.0,5.4,28,0.00,,---,0.00,VWS V14.01,2013-03-10 18:37:00,
2013-03-10 12:38:00,43.0,12.1,29.93,West,272,5.4,8.7,28,0.00,,---,0.00,VWS V14.01,2013-03-10 18:38:00,
2013-03-10 12:39:00,43.0,12.1,29.93,NW,322,2.7,3.6,28,0.00,,---,0.00,VWS V14.01,2013-03-10 18:39:00,
2013-03-10 12:40:00,43.0,12.1,29.93,WNW,288,5.8,5.8,28,0.00,,---,0.00,VWS V14.01,2013-03-10 18:40:00,
2013-03-10 12:41:00,43.0,12.1,29.93,NW,324,4.0,6.3,28,0.00,,---,0.00,VWS V14.01,2013-03-10 18:41:00,
2013-03-10 12:42:00,43.0,12.1,29.93,WNW,294,3.6,5.4,28,0.00,,---,0.00,VWS V14.01,2013-03-10 18:42:00,
2013-03-10 12:43:00,43.0,12.1,29.93,NNW,331,8.1,8.3,28,0.00,,---,0.00,VWS V14.01,2013-03-10 18:43:00,
2013-03-10 12:44:00,43.2,12.3,29.93,NNW,328,5.4,8.7,28,0.00,,---,0.00,VWS V14.01,2013-03-10 18:44:00,
2013-03-10 12:45:00,43.2,12.3,29.93,NW,319,6.7,8.7,28,0.00,,---,0.00,VWS V14.01,2013-03-10 18:45:00,
2013-03-10 12:46:00,43.2,12.3,29.93,WNW,295,5.8,7.6,28,0.00,,---,0.00,VWS V14.01,2013-03-10 18:46:00,
2013-03-10 12:47:00,43.2,9.7,29.93,NW,306,11.4,11.4,25,0.00,,---,0.00,VWS V14.01,2013-03-10 18:47:00,
2013-03-10 12:48:00,43.2,9.7,29.93,NW,312,2.7,11.4,25,0.00,,---,0.00,VWS V14.01,2013-03-10 18:48:00,
2013-03-10 12:49:00,43.3,12.4,29.91,WNW,294,8.3,8.3,28,0.00,,---,0.00,VWS V14.01,2013-03-10 18:49:00,
2013-03-10 12:50:00,43.3,9.9,29.91,NW,311,5.4,8.3,25,0.00,,---,0.00,VWS V14.01,2013-03-10 18:50:00,
2013-03-10 12:51:00,43.3,12.4,29.91,NW,309,3.6,5.4,28,0.00,,---,0.00,VWS V14.01,2013-03-10 18:51:00,
2013-03-10 12:52:00,43.3,9.9,29.91,WNW,300,5.4,7.6,25,0.00,,---,0.00,VWS V14.01,2013-03-10 18:52:00,
2013-03-10 12:53:00,43.3,9.9,29.91,WNW,289,6.7,7.6,25,0.00,,---,0.00,VWS V14.01,2013-03-10 18:53:00,
2013-03-10 12:54:00,43.3,9.9,29.91,WNW,301,8.3,8.3,25,0.00,,---,0.00,VWS V14.01,2013-03-10 18:54:00,
2013-03-10 12:55:00,43.3,9.9,29.91,NW,306,10.1,10.1,25,0.00,,---,0.00,VWS V14.01,2013-03-10 18:55:00,
2013-03-10 12:56:00,43.3,9.9,29.91,WNW,300,3.1,10.1,25,0.00,,---,0.00,VWS V14.01,2013-03-10 18:56:00,
2013-03-10 12:57:00,43.3,9.9,29.91,NW,312,7.2,7.2,25,0.00,,---,0.00,VWS V14.01,2013-03-10 18:57:00,
2013-03-10 12:58:00,43.5,10.0,29.91,NW,307,7.6,8.3,25,0.00,,---,0.00,VWS V14.01,2013-03-10 18:58:00,
2013-03-10 12:59:00,43.5,10.0,29.91,WSW,244,7.6,8.1,25,0.00,,---,0.00,VWS V14.01,2013-03-10 18:59:00,
2013-03-10 13:00:00,43.5,10.0,29.91,NNW,328,6.3,8.1,25,0.00,,---,0.00,VWS V14.01,2013-03-10 19:00:00,
2013-03-10 13:01:00,43.5,10.0,29.91,WNW,287,5.4,6.3,25,0.00,,---,0.00,VWS V14.01,2013-03-10 19:01:00,
2013-03-10 13:02:00,43.7,10.2,29.91,SW,232,5.8,5.8,25,0.00,,---,0.00,VWS V14.01,2013-03-10 19:02:00,
2013-03-10 13:03:00,43.7,10.2,29.91,WSW,256,4.0,5.8,25,0.00,,---,0.00,VWS V14.01,2013-03-10 19:03:00,
2013-03-10 13:04:00,43.9,10.4,29.91,North,2,2.7,4.0,25,0.00,,---,0.00,VWS V14.01,2013-03-10 19:04:00,
2013-03-10 13:05:00,43.9,10.4,29.91,NW,306,3.6,4.0,25,0.00,,---,0.00,VWS V14.01,2013-03-10 19:05:00,
2013-03-10 13:06:00,44.1,10.5,29.91,NNW,328,3.6,7.2,25,0.00,,---,0.00,VWS V14.01,2013-03-10 19:06:00,
2013-03-10 13:07:00,44.1,10.5,29.91,WNW,285,3.1,5.8,25,0.00,,---,0.00,VWS V14.01,2013-03-10 19:07:00,
2013-03-10 13:08:00,44.1,10.5,29.91,WNW,301,3.6,6.3,25,0.00,,---,0.00,VWS V14.01,2013-03-10 19:08:00,
2013-03-10 13:09:00,44.1,10.5,29.91,WNW,289,8.3,8.3,25,0.00,,---,0.00,VWS V14.01,2013-03-10 19:09:00,
2013-03-10 13:10:00,44.1,10.5,29.91,WNW,300,8.1,8.3,25,0.00,,---,0.00,VWS V14.01,2013-03-10 19:10:00,
2013-03-10 13:11:00,44.1,10.5,29.91,NW,322,3.6,8.7,25,0.00,,---,0.00,VWS V14.01,2013-03-10 19:11:00,
2013-03-10 13:12:00,44.1,10.5,29.91,WSW,250,4.9,7.2,25,0.00,,---,0.00,VWS V14.01,2013-03-10 19:12:00,
2013-03-10 13:13:00,44.1,10.5,29.91,WNW,297,6.3,7.6,25,0.00,,---,0.00,VWS V14.01,2013-03-10 19:13:00,
2013-03-10 13:14:00,44.2,10.7,29.91,WNW,285,5.4,6.3,25,0.00,,---,0.00,VWS V14.01,2013-03-10 19:14:00,
2013-03-10 13:15:00,44.2,10.7,29.91,WNW,297,10.1,10.1,25,0.00,,---,0.00,VWS V14.01,2013-03-10 19:15:00,
2013-03-10 13:16:00,44.2,10.7,29.91,WNW,297,5.4,10.1,25,0.00,,---,0.00,VWS V14.01,2013-03-10 19:16:00,
2013-03-10 13:17:00,44.4,10.8,29.91,NW,323,8.3,13.2,25,0.00,,---,0.00,VWS V14.01,2013-03-10 19:17:00,
2013-03-10 13:18:00,44.4,10.8,29.91,WNW,290,5.8,8.3,25,0.00,,---,0.00,VWS V14.01,2013-03-10 19:18:00,
2013-03-10 13:19:00,44.4,10.8,29.91,NW,317,5.8,5.8,25,0.00,,---,0.00,VWS V14.01,2013-03-10 19:19:00,
2013-03-10 13:20:00,44.2,10.7,29.91,WNW,300,5.8,5.8,25,0.00,,---,0.00,VWS V14.01,2013-03-10 19:20:00,
2013-03-10 13:21:00,44.4,10.8,29.91,WNW,296,3.6,5.8,25,0.00,,---,0.00,VWS V14.01,2013-03-10 19:21:00,
2013-03-10 13:22:00,44.6,11.0,29.91,WNW,283,7.6,8.7,25,0.00,,---,0.00,VWS V14.01,2013-03-10 19:22:00,
2013-03-10 13:23:00,44.6,11.0,29.91,WNW,299,4.0,8.1,25,0.00,,---,0.00,VWS V14.01,2013-03-10 19:23:00,
2013-03-10 13:24:00,44.8,11.1,29.91,WNW,296,3.1,4.9,25,0.00,,---,0.00,VWS V14.01,2013-03-10 19:24:00,
2013-03-10 13:25:00,44.8,11.1,29.91,NW,318,5.4,5.4,25,0.00,,---,0.00,VWS V14.01,2013-03-10 19:25:00,
2013-03-10 13:26:00,44.8,8.3,29.91,WSW,247,7.6,8.3,22,0.00,,---,0.00,VWS V14.01,2013-03-10 19:26:00,
2013-03-10 13:27:00,45.0,8.4,29.91,WNW,302,4.9,8.1,22,0.00,,---,0.00,VWS V14.01,2013-03-10 19:27:00,
2013-03-10 13:28:00,45.0,8.4,29.91,NNW,327,5.4,6.3,22,0.00,,---,0.00,VWS V14.01,2013-03-10 19:28:00,
2013-03-10 13:29:00,45.0,8.4,29.91,WNW,289,6.3,6.3,22,0.00,,---,0.00,VWS V14.01,2013-03-10 19:29:00,
2013-03-10 13:30:00,45.0,8.4,29.91,NW,319,4.9,6.3,22,0.00,,---,0.00,VWS V14.01,2013-03-10 19:30:00,
2013-03-10 13:31:00,45.0,8.4,29.91,WNW,296,4.9,6.3,22,0.00,,---,0.00,VWS V14.01,2013-03-10 19:31:00,
2013-03-10 13:32:00,45.1,8.6,29.91,WNW,291,4.9,4.9,22,0.00,,---,0.00,VWS V14.01,2013-03-10 19:32:00,
2013-03-10 13:33:00,45.1,8.6,29.91,West,276,4.9,5.4,22,0.00,,---,0.00,VWS V14.01,2013-03-10 19:33:00,
2013-03-10 13:34:00,45.3,8.7,29.91,NW,306,5.4,6.3,22,0.00,,---,0.00,VWS V14.01,2013-03-10 19:34:00,
2013-03-10 13:35:00,45.3,8.7,29.91,WNW,287,4.5,6.3,22,0.00,,---,0.00,VWS V14.01,2013-03-10 19:35:00,
2013-03-10 13:36:00,45.3,8.7,29.91,West,275,3.1,5.8,22,0.00,,---,0.00,VWS V14.01,2013-03-10 19:36:00,
2013-03-10 13:37:00,45.3,8.7,29.91,West,279,4.9,5.4,22,0.00,,---,0.00,VWS V14.01,2013-03-10 19:37:00,
2013-03-10 13:38:00,45.3,8.7,29.91,NW,321,8.3,8.3,22,0.00,,---,0.00,VWS V14.01,2013-03-10 19:38:00,
2013-03-10 13:39:00,45.5,8.9,29.91,WNW,290,5.4,7.6,22,0.00,,---,0.00,VWS V14.01,2013-03-10 19:39:00,
2013-03-10 13:40:00,45.5,8.9,29.91,NW,305,8.1,8.1,22,0.00,,---,0.00,VWS V14.01,2013-03-10 19:40:00,
2013-03-10 13:41:00,45.5,8.9,29.91,NW,318,4.9,10.5,22,0.00,,---,0.00,VWS V14.01,2013-03-10 19:41:00,
2013-03-10 13:42:00,45.5,8.9,29.91,WNW,294,7.6,8.7,22,0.00,,---,0.00,VWS V14.01,2013-03-10 19:42:00,
2013-03-10 13:43:00,45.5,8.9,29.91,West,263,4.0,7.6,22,0.00,,---,0.00,VWS V14.01,2013-03-10 19:43:00,
2013-03-10 13:44:00,45.5,8.9,29.91,WSW,239,5.8,5.8,22,0.00,,---,0.00,VWS V14.01,2013-03-10 19:44:00,
2013-03-10 13:45:00,45.5,8.9,29.91,NW,313,5.8,5.8,22,0.00,,---,0.00,VWS V14.01,2013-03-10 19:45:00,
2013-03-10 13:46:00,45.5,8.9,29.91,WNW,303,5.4,5.8,22,0.00,,---,0.00,VWS V14.01,2013-03-10 19:46:00,
2013-03-10 13:47:00,45.5,8.9,29.91,WNW,296,5.8,5.8,22,0.00,,---,0.00,VWS V14.01,2013-03-10 19:47:00,
2013-03-10 13:48:00,45.5,8.9,29.91,WNW,287,7.6,10.1,22,0.00,,---,0.00,VWS V14.01,2013-03-10 19:48:00,
2013-03-10 13:49:00,45.7,9.0,29.88,WNW,284,5.4,5.4,22,0.00,,---,0.00,VWS V14.01,2013-03-10 19:49:00,
2013-03-10 13:50:00,45.7,9.0,29.88,WNW,284,2.7,5.4,22,0.00,,---,0.00,VWS V14.01,2013-03-10 19:50:00,
2013-03-10 13:51:00,45.7,9.0,29.88,WNW,300,7.6,7.6,22,0.00,,---,0.00,VWS V14.01,2013-03-10 19:51:00,
2013-03-10 13:52:00,45.9,9.2,29.88,WSW,240,3.6,7.6,22,0.00,,---,0.00,VWS V14.01,2013-03-10 19:52:00,
2013-03-10 13:53:00,46.0,9.3,29.88,WNW,303,5.4,6.3,22,0.00,,---,0.00,VWS V14.01,2013-03-10 19:53:00,
2013-03-10 13:54:00,46.0,9.3,29.88,West,279,3.6,5.4,22,0.00,,---,0.00,VWS V14.01,2013-03-10 19:54:00,
2013-03-10 13:55:00,46.0,9.3,29.88,WSW,250,0.0,5.8,22,0.00,,---,0.00,VWS V14.01,2013-03-10 19:55:00,
2013-03-10 13:56:00,46.2,9.5,29.88,WSW,253,0.0,3.6,22,0.00,,---,0.00,VWS V14.01,2013-03-10 19:56:00,
2013-03-10 13:57:00,46.2,9.5,29.88,SW,225,0.0,0.0,22,0.00,,---,0.00,VWS V14.01,2013-03-10 19:57:00,
2013-03-10 13:58:00,46.6,11.7,29.88,West,277,0.0,0.0,24,0.00,,---,0.00,VWS V14.01,2013-03-10 19:58:00,
2013-03-10 13:59:00,46.6,11.7,29.88,NE,39,2.2,3.1,24,0.00,,---,0.00,VWS V14.01,2013-03-10 19:59:00,
2013-03-10 14:00:00,46.8,11.9,29.88,ENE,60,0.0,3.1,24,0.00,,---,0.00,VWS V14.01,2013-03-10 20:00:00,
2013-03-10 14:01:00,47.1,14.9,29.88,ESE,105,3.6,3.6,27,0.00,,---,0.00,VWS V14.01,2013-03-10 20:01:00,
2013-03-10 14:02:00,47.3,15.0,29.88,SSE,150,2.2,3.6,27,0.00,,---,0.00,VWS V14.01,2013-03-10 20:02:00,
2013-03-10 14:03:00,47.5,15.2,29.88,SW,221,0.0,4.0,27,0.00,,---,0.00,VWS V14.01,2013-03-10 20:03:00,
2013-03-10 14:04:00,47.8,12.8,29.88,SSE,161,5.4,6.3,24,0.00,,---,0.00,VWS V14.01,2013-03-10 20:04:00,
2013-03-10 14:05:00,47.8,12.8,29.88,SSE,159,8.7,8.7,24,0.00,,---,0.00,VWS V14.01,2013-03-10 20:05:00,
2013-03-10 14:06:00,47.5,15.2,29.88,South,177,3.1,8.7,27,0.00,,---,0.00,VWS V14.01,2013-03-10 20:06:00,
2013-03-10 14:07:00,47.5,15.2,29.88,SSE,152,9.2,9.2,27,0.00,,---,0.00,VWS V14.01,2013-03-10 20:07:00,
2013-03-10 14:08:00,47.1,14.9,29.88,SSE,166,5.8,9.2,27,0.00,,---,0.00,VWS V14.01,2013-03-10 20:08:00,
2013-03-10 14:09:00,47.1,14.9,29.88,SSW,195,4.9,4.9,27,0.00,,---,0.00,VWS V14.01,2013-03-10 20:09:00,
2013-03-10 14:10:00,47.1,14.9,29.88,SSW,195,0.0,4.9,27,0.00,,---,0.00,VWS V14.01,2013-03-10 20:10:00,
2013-03-10 14:11:00,47.3,15.0,29.88,WSW,237,0.0,3.6,27,0.00,,---,0.00,VWS V14.01,2013-03-10 20:11:00,
2013-03-10 14:12:00,47.3,15.0,29.88,SE,131,3.6,4.9,27,0.00,,---,0.00,VWS V14.01,2013-03-10 20:12:00,
2013-03-10 14:13:00,47.3,15.0,29.88,SSE,156,0.0,3.6,27,0.00,,---,0.00,VWS V14.01,2013-03-10 20:13:00,
2013-03-10 14:14:00,47.5,15.2,29.88,South,180,0.0,0.0,27,0.00,,---,0.00,VWS V14.01,2013-03-10 20:14:00,
2013-03-10 14:15:00,47.7,15.3,29.88,West,262,0.0,0.0,27,0.00,,---,0.00,VWS V14.01,2013-03-10 20:15:00,
2013-03-10 14:16:00,47.7,15.3,29.88,WNW,303,3.1,3.1,27,0.00,,---,0.00,VWS V14.01,2013-03-10 20:16:00,
2013-03-10 14:17:00,47.7,12.7,29.88,WNW,295,0.0,5.4,24,0.00,,---,0.00,VWS V14.01,2013-03-10 20:17:00,
2013-03-10 14:18:00,47.7,12.7,29.88,West,274,6.3,8.1,24,0.00,,---,0.00,VWS V14.01,2013-03-10 20:18:00,
2013-03-10 14:19:00,47.7,10.7,29.88,WNW,289,3.6,3.6,22,0.00,,---,0.00,VWS V14.01,2013-03-10 20:19:00,
2013-03-10 14:20:00,47.7,10.7,29.88,NW,316,3.1,4.9,22,0.00,,---,0.00,VWS V14.01,2013-03-10 20:20:00,
2013-03-10 14:21:00,47.7,10.7,29.88,NNW,328,2.7,3.1,22,0.00,,---,0.00,VWS V14.01,2013-03-10 20:21:00,
2013-03-10 14:22:00,47.8,10.9,29.88,West,276,3.1,3.1,22,0.00,,---,0.00,VWS V14.01,2013-03-10 20:22:00,
2013-03-10 14:23:00,47.8,10.9,29.88,West,278,4.0,5.8,22,0.00,,---,0.00,VWS V14.01,2013-03-10 20:23:00,
2013-03-10 14:24:00,48.0,11.0,29.88,West,275,7.6,7.6,22,0.00,,---,0.00,VWS V14.01,2013-03-10 20:24:00,
2013-03-10 14:25:00,48.0,11.0,29.88,WSW,250,8.7,8.7,22,0.00,,---,0.00,VWS V14.01,2013-03-10 20:25:00,
2013-03-10 14:26:00,48.2,10.1,29.88,NW,313,8.3,10.5,21,0.00,,---,0.00,VWS V14.01,2013-03-10 20:26:00,
2013-03-10 14:27:00,48.2,10.1,29.88,NNW,337,6.3,8.3,21,0.00,,---,0.00,VWS V14.01,2013-03-10 20:27:00,
2013-03-10 14:28:00,48.0,11.0,29.88,WNW,297,7.6,8.7,22,0.00,,---,0.00,VWS V14.01,2013-03-10 20:28:00,
2013-03-10 14:29:00,48.0,7.7,29.88,West,266,5.4,7.6,19,0.00,,---,0.00,VWS V14.01,2013-03-10 20:29:00,
2013-03-10 14:30:00,48.0,7.7,29.88,West,265,6.7,7.6,19,0.00,,---,0.00,VWS V14.01,2013-03-10 20:30:00,
2013-03-10 14:31:00,48.0,7.7,29.88,West,274,6.7,8.1,19,0.00,,---,0.00,VWS V14.01,2013-03-10 20:31:00,
2013-03-10 14:32:00,47.8,7.6,29.88,WNW,301,2.7,6.7,19,0.00,,---,0.00,VWS V14.01,2013-03-10 20:32:00,
2013-03-10 14:33:00,47.8,7.6,29.88,West,277,4.0,5.8,19,0.00,,---,0.00,VWS V14.01,2013-03-10 20:33:00,
2013-03-10 14:34:00,47.8,7.6,29.88,NW,305,4.0,5.8,19,0.00,,---,0.00,VWS V14.01,2013-03-10 20:34:00,
2013-03-10 14:35:00,47.8,7.6,29.88,WNW,301,10.5,10.5,19,0.00,,---,0.00,VWS V14.01,2013-03-10 20:35:00,
2013-03-10 14:36:00,47.8,7.6,29.88,West,276,5.8,10.5,19,0.00,,---,0.00,VWS V14.01,2013-03-10 20:36:00,
2013-03-10 14:37:00,47.7,7.4,29.88,NW,318,3.1,6.3,19,0.00,,---,0.00,VWS V14.01,2013-03-10 20:37:00,
2013-03-10 14:38:00,47.7,7.4,29.88,WNW,293,3.1,5.4,19,0.00,,---,0.00,VWS V14.01,2013-03-10 20:38:00,
2013-03-10 14:39:00,47.7,7.4,29.88,NW,314,3.6,5.4,19,0.00,,---,0.00,VWS V14.01,2013-03-10 20:39:00,
2013-03-10 14:40:00,47.7,7.4,29.88,NW,306,6.3,6.3,19,0.00,,---,0.00,VWS V14.01,2013-03-10 20:40:00,
2013-03-10 14:41:00,47.7,7.4,29.88,NW,317,4.9,6.3,19,0.00,,---,0.00,VWS V14.01,2013-03-10 20:41:00,
2013-03-10 14:42:00,47.7,7.4,29.88,WNW,286,6.7,6.7,19,0.00,,---,0.00,VWS V14.01,2013-03-10 20:42:00,
2013-03-10 14:43:00,47.8,7.6,29.88,WNW,297,5.8,8.3,19,0.00,,---,0.00,VWS V14.01,2013-03-10 20:43:00,
2013-03-10 14:44:00,47.8,7.6,29.88,NW,314,5.4,5.8,19,0.00,,---,0.00,VWS V14.01,2013-03-10 20:44:00,
2013-03-10 14:45:00,47.8,7.6,29.88,West,269,2.7,5.8,19,0.00,,---,0.00,VWS V14.01,2013-03-10 20:45:00,
2013-03-10 14:46:00,48.0,11.0,29.88,WSW,254,5.4,5.4,22,0.00,,---,0.00,VWS V14.01,2013-03-10 20:46:00,
2013-03-10 14:47:00,47.8,10.9,29.88,SW,219,5.4,5.8,22,0.00,,---,0.00,VWS V14.01,2013-03-10 20:47:00,
2013-03-10 14:48:00,47.8,10.9,29.88,SSE,167,4.0,5.4,22,0.00,,---,0.00,VWS V14.01,2013-03-10 20:48:00,
2013-03-10 14:49:00,48.0,13.0,29.85,West,271,2.2,5.8,24,0.00,,---,0.00,VWS V14.01,2013-03-10 20:49:00,
2013-03-10 14:50:00,48.2,10.1,29.85,WNW,303,2.7,5.8,21,0.00,,---,0.00,VWS V14.01,2013-03-10 20:50:00,
2013-03-10 14:51:00,48.4,10.3,29.85,West,278,6.3,6.3,21,0.00,,---,0.00,VWS V14.01,2013-03-10 20:51:00,
2013-03-10 14:52:00,48.4,10.3,29.85,WSW,238,3.1,6.3,21,0.00,,---,0.00,VWS V14.01,2013-03-10 20:52:00,
2013-03-10 14:53:00,48.4,10.3,29.85,NW,311,3.6,8.1,21,0.00,,---,0.00,VWS V14.01,2013-03-10 20:53:00,
2013-03-10 14:54:00,48.4,8.0,29.85,West,268,8.1,8.1,19,0.00,,---,0.00,VWS V14.01,2013-03-10 20:54:00,
2013-03-10 14:55:00,48.4,10.3,29.85,WSW,257,10.1,10.1,21,0.00,,---,0.00,VWS V14.01,2013-03-10 20:55:00,
2013-03-10 14:56:00,48.2,10.1,29.85,SW,230,8.1,10.1,21,0.00,,---,0.00,VWS V14.01,2013-03-10 20:56:00,
2013-03-10 14:57:00,47.8,10.9,29.85,SW,219,3.1,8.1,22,0.00,,---,0.00,VWS V14.01,2013-03-10 20:57:00,
2013-03-10 14:58:00,47.8,12.8,29.85,SW,227,0.0,3.1,24,0.00,,---,0.00,VWS V14.01,2013-03-10 20:58:00,
2013-03-10 14:59:00,48.0,13.0,29.85,WNW,288,2.7,3.1,24,0.00,,---,0.00,VWS V14.01,2013-03-10 20:59:00,
2013-03-10 15:00:00,48.0,13.0,29.85,WNW,288,0.0,3.1,24,0.00,,---,0.00,VWS V14.01,2013-03-10 21:00:00,
2013-03-10 15:01:00,48.2,13.1,29.85,SW,222,0.0,0.0,24,0.00,,---,0.00,VWS V14.01,2013-03-10 21:01:00,
2013-03-10 15:02:00,48.7,13.6,29.85,ESE,116,5.4,6.3,24,0.00,,---,0.00,VWS V14.01,2013-03-10 21:02:00,
2013-03-10 15:03:00,48.7,13.6,29.85,SE,136,4.5,8.1,24,0.00,,---,0.00,VWS V14.01,2013-03-10 21:03:00,
2013-03-10 15:04:00,49.1,13.9,29.85,SE,130,3.6,5.4,24,0.00,,---,0.00,VWS V14.01,2013-03-10 21:04:00,
2013-03-10 15:05:00,48.9,13.7,29.85,SSE,160,0.0,5.4,24,0.00,,---,0.00,VWS V14.01,2013-03-10 21:05:00,
2013-03-10 15:06:00,48.9,13.7,29.85,SSE,153,4.0,5.4,24,0.00,,---,0.00,VWS V14.01,2013-03-10 21:06:00,
2013-03-10 15:07:00,48.9,13.7,29.85,SSW,203,2.7,4.9,24,0.00,,---,0.00,VWS V14.01,2013-03-10 21:07:00,
2013-03-10 15:08:00,48.9,13.7,29.85,South,171,0.0,4.0,24,0.00,,---,0.00,VWS V14.01,2013-03-10 21:08:00,
2013-03-10 15:09:00,49.1,13.9,29.85,SSE,165,4.0,4.0,24,0.00,,---,0.00,VWS V14.01,2013-03-10 21:09:00,
2013-03-10 15:10:00,49.3,14.0,29.85,SSE,163,0.0,4.0,24,0.00,,---,0.00,VWS V14.01,2013-03-10 21:10:00,
2013-03-10 15:11:00,49.3,14.0,29.85,SE,135,2.7,3.6,24,0.00,,---,0.00,VWS V14.01,2013-03-10 21:11:00,
2013-03-10 15:12:00,49.3,14.0,29.85,SE,138,3.1,4.0,24,0.00,,---,0.00,VWS V14.01,2013-03-10 21:12:00,
2013-03-10 15:13:00,49.3,14.0,29.85,East,101,5.8,5.8,24,0.00,,---,0.00,VWS V14.01,2013-03-10 21:13:00,
2013-03-10 15:14:00,49.1,13.9,29.85,SE,136,2.7,4.9,24,0.00,,---,0.00,VWS V14.01,2013-03-10 21:14:00,
2013-03-10 15:15:00,48.7,13.6,29.85,SSE,147,5.8,5.8,24,0.00,,---,0.00,VWS V14.01,2013-03-10 21:15:00,
2013-03-10 15:16:00,48.7,13.6,29.85,ESE,123,3.6,5.8,24,0.00,,---,0.00,VWS V14.01,2013-03-10 21:16:00,
2013-03-10 15:17:00,48.2,13.1,29.85,East,98,8.7,8.7,24,0.00,,---,0.00,VWS V14.01,2013-03-10 21:17:00,
2013-03-10 15:18:00,48.4,13.3,29.85,SSW,195,2.2,8.7,24,0.00,,---,0.00,VWS V14.01,2013-03-10 21:18:00,
2013-03-10 15:19:00,48.4,13.3,29.82,South,173,5.8,8.3,24,0.00,,---,0.00,VWS V14.01,2013-03-10 21:19:00,
2013-03-10 15:20:00,48.4,15.1,29.82,SE,127,3.1,8.3,26,0.00,,---,0.00,VWS V14.01,2013-03-10 21:20:00,
2013-03-10 15:21:00,48.0,15.6,29.82,SE,130,5.8,10.5,27,0.00,,---,0.00,VWS V14.01,2013-03-10 21:21:00,
2013-03-10 15:22:00,48.0,15.6,29.82,ESE,123,5.4,5.8,27,0.00,,---,0.00,VWS V14.01,2013-03-10 21:22:00,
2013-03-10 15:23:00,48.2,14.9,29.82,SE,138,4.9,5.4,26,0.00,,---,0.00,VWS V14.01,2013-03-10 21:23:00,
2013-03-10 15:24:00,48.2,14.9,29.82,SE,126,10.5,10.5,26,0.00,,---,0.00,VWS V14.01,2013-03-10 21:24:00,
2013-03-10 15:25:00,48.0,15.6,29.82,ESE,112,4.9,10.5,27,0.00,,---,0.00,VWS V14.01,2013-03-10 21:25:00,
2013-03-10 15:26:00,48.0,15.6,29.82,SE,133,4.0,6.3,27,0.00,,---,0.00,VWS V14.01,2013-03-10 21:26:00,
2013-03-10 15:27:00,47.8,15.5,29.82,ENE,61,0.0,4.0,27,0.00,,---,0.00,VWS V14.01,2013-03-10 21:27:00,
2013-03-10 15:28:00,48.0,15.6,29.82,NNW,346,0.0,0.0,27,0.00,,---,0.00,VWS V14.01,2013-03-10 21:28:00,
2013-03-10 15:29:00,48.0,15.6,29.82,West,269,3.6,3.6,27,0.00,,---,0.00,VWS V14.01,2013-03-10 21:29:00,
2013-03-10 15:30:00,48.0,13.0,29.82,WNW,302,2.7,4.9,24,0.00,,---,0.00,VWS V14.01,2013-03-10 21:30:00,
2013-03-10 15:31:00,48.0,15.6,29.82,NW,320,2.2,3.1,27,0.00,,---,0.00,VWS V14.01,2013-03-10 21:31:00,
2013-03-10 15:32:00,48.0,15.6,29.82,East,93,6.3,6.3,27,0.00,,---,0.00,VWS V14.01,2013-03-10 21:32:00,
2013-03-10 15:33:00,48.4,15.1,29.82,ENE,75,6.3,6.3,26,0.00,,---,0.00,VWS V14.01,2013-03-10 21:33:00,
2013-03-10 15:34:00,48.6,13.4,29.85,ESE,103,0.0,0.0,24,0.00,,---,0.00,VWS V14.01,2013-03-10 21:34:00,
2013-03-10 15:35:00,48.7,13.6,29.85,ENE,76,2.7,5.4,24,0.00,,---,0.00,VWS V14.01,2013-03-10 21:35:00,
2013-03-10 15:36:00,48.9,13.7,29.85,SE,125,4.0,4.0,24,0.00,,---,0.00,VWS V14.01,2013-03-10 21:36:00,
2013-03-10 15:37:00,48.9,13.7,29.85,SE,138,5.8,8.3,24,0.00,,---,0.00,VWS V14.01,2013-03-10 21:37:00,
2013-03-10 15:38:00,48.9,13.7,29.85,ESE,115,3.1,7.2,24,0.00,,---,0.00,VWS V14.01,2013-03-10 21:38:00,
2013-03-10 15:39:00,48.7,13.6,29.85,SE,146,10.5,12.3,24,0.00,,---,0.00,VWS V14.01,2013-03-10 21:39:00,
2013-03-10 15:40:00,48.4,13.3,29.85,SSE,154,10.5,12.3,24,0.00,,---,0.00,VWS V14.01,2013-03-10 21:40:00,
2013-03-10 15:41:00,48.4,15.1,29.85,South,185,2.2,10.5,26,0.00,,---,0.00,VWS V14.01,2013-03-10 21:41:00,
2013-03-10 15:42:00,48.0,15.6,29.85,SE,135,8.7,8.7,27,0.00,,---,0.00,VWS V14.01,2013-03-10 21:42:00,
2013-03-10 15:43:00,47.7,15.3,29.85,SE,137,6.3,9.2,27,0.00,,---,0.00,VWS V14.01,2013-03-10 21:43:00,
2013-03-10 15:44:00,47.8,12.8,29.85,SE,145,5.8,8.1,24,0.00,,---,0.00,VWS V14.01,2013-03-10 21:44:00,
2013-03-10 15:45:00,47.5,12.5,29.85,SSE,165,8.7,12.8,24,0.00,,---,0.00,VWS V14.01,2013-03-10 21:45:00,
2013-03-10 15:46:00,47.7,12.7,29.85,SE,131,8.1,10.1,24,0.00,,---,0.00,VWS V14.01,2013-03-10 21:46:00,
2013-03-10 15:47:00,47.8,15.5,29.85,SE,137,7.6,8.3,27,0.00,,---,0.00,VWS V14.01,2013-03-10 21:47:00,
2013-03-10 15:48:00,47.8,15.5,29.85,SSE,156,10.5,10.5,27,0.00,,---,0.00,VWS V14.01,2013-03-10 21:48:00,
2013-03-10 15:49:00,47.8,12.8,29.82,SE,143,5.4,5.4,24,0.00,,---,0.00,VWS V14.01,2013-03-10 21:49:00,
2013-03-10 15:50:00,47.8,12.8,29.82,SSE,160,0.0,5.4,24,0.00,,---,0.00,VWS V14.01,2013-03-10 21:50:00,
2013-03-10 15:51:00,48.0,13.0,29.82,ESE,102,4.0,4.0,24,0.00,,---,0.00,VWS V14.01,2013-03-10 21:51:00,
2013-03-10 15:52:00,48.0,13.0,29.82,ESE,123,0.0,5.4,24,0.00,,---,0.00,VWS V14.01,2013-03-10 21:52:00,
2013-03-10 15:53:00,48.2,13.1,29.82,East,100,0.0,2.7,24,0.00,,---,0.00,VWS V14.01,2013-03-10 21:53:00,
2013-03-10 15:54:00,48.4,13.3,29.82,SW,227,3.1,3.1,24,0.00,,---,0.00,VWS V14.01,2013-03-10 21:54:00,
2013-03-10 15:55:00,48.4,13.3,29.82,WSW,252,4.0,4.0,24,0.00,,---,0.00,VWS V14.01,2013-03-10 21:55:00,
2013-03-10 15:56:00,48.4,10.3,29.82,NW,309,4.0,5.8,21,0.00,,---,0.00,VWS V14.01,2013-03-10 21:56:00,
2013-03-10 15:57:00,48.4,13.3,29.82,WNW,287,4.9,6.3,24,0.00,,---,0.00,VWS V14.01,2013-03-10 21:57:00,
2013-03-10 15:58:00,48.4,10.3,29.82,WSW,241,4.0,5.4,21,0.00,,---,0.00,VWS V14.01,2013-03-10 21:58:00,
2013-03-10 15:59:00,48.6,10.4,29.82,West,260,5.4,6.7,21,0.00,,---,0.00,VWS V14.01,2013-03-10 21:59:00,
2013-03-10 16:00:00,48.6,10.4,29.82,West,280,3.1,8.7,21,0.00,,---,0.00,VWS V14.01,2013-03-10 22:00:00,
2013-03-10 16:01:00,48.6,8.2,29.82,NW,319,10.5,10.5,19,0.00,,---,0.00,VWS V14.01,2013-03-10 22:01:00,
2013-03-10 16:02:00,48.6,8.2,29.82,WNW,302,7.6,10.5,19,0.00,,---,0.00,VWS V14.01,2013-03-10 22:02:00,
2013-03-10 16:03:00,48.4,8.0,29.82,NW,326,4.9,7.6,19,0.00,,---,0.00,VWS V14.01,2013-03-10 22:03:00,
2013-03-10 16:04:00,48.4,8.0,29.85,West,278,4.9,4.9,19,0.00,,---,0.00,VWS V14.01,2013-03-10 22:04:00,
2013-03-10 16:05:00,48.4,8.0,29.85,WSW,257,8.7,8.7,19,0.00,,---,0.00,VWS V14.01,2013-03-10 22:05:00,
2013-03-10 16:06:00,48.4,8.0,29.85,WSW,253,5.8,8.7,19,0.00,,---,0.00,VWS V14.01,2013-03-10 22:06:00,
2013-03-10 16:07:00,48.2,7.9,29.85,WNW,303,10.5,13.2,19,0.00,,---,0.00,VWS V14.01,2013-03-10 22:07:00,
2013-03-10 16:08:00,48.0,7.7,29.85,WNW,287,5.8,10.5,19,0.00,,---,0.00,VWS V14.01,2013-03-10 22:08:00,
2013-03-10 16:09:00,48.0,7.7,29.85,NW,315,7.6,7.6,19,0.00,,---,0.00,VWS V14.01,2013-03-10 22:09:00,
2013-03-10 16:10:00,48.0,7.7,29.85,WNW,294,8.7,8.7,19,0.00,,---,0.00,VWS V14.01,2013-03-10 22:10:00,
2013-03-10 16:11:00,47.8,7.6,29.85,WSW,250,2.7,9.6,19,0.00,,---,0.00,VWS V14.01,2013-03-10 22:11:00,
2013-03-10 16:12:00,47.8,7.6,29.85,WNW,296,5.8,5.8,19,0.00,,---,0.00,VWS V14.01,2013-03-10 22:12:00,
2013-03-10 16:13:00,47.8,7.6,29.85,SW,217,4.0,6.3,19,0.00,,---,0.00,VWS V14.01,2013-03-10 22:13:00,
2013-03-10 16:14:00,47.8,7.6,29.85,West,278,8.3,8.3,19,0.00,,---,0.00,VWS V14.01,2013-03-10 22:14:00,
2013-03-10 16:15:00,47.8,7.6,29.85,West,265,9.6,9.6,19,0.00,,---,0.00,VWS V14.01,2013-03-10 22:15:00,
2013-03-10 16:16:00,47.8,7.6,29.85,NW,313,10.1,10.1,19,0.00,,---,0.00,VWS V14.01,2013-03-10 22:16:00,
2013-03-10 16:17:00,47.8,7.6,29.85,NW,306,6.3,10.5,19,0.00,,---,0.00,VWS V14.01,2013-03-10 22:17:00,
2013-03-10 16:18:00,47.8,7.6,29.85,WNW,295,6.3,8.7,19,0.00,,---,0.00,VWS V14.01,2013-03-10 22:18:00,
2013-03-10 16:19:00,47.7,7.4,29.85,NW,308,7.2,10.5,19,0.00,,---,0.00,VWS V14.01,2013-03-10 22:19:00,
2013-03-10 16:20:00,47.7,7.4,29.85,West,274,5.4,10.5,19,0.00,,---,0.00,VWS V14.01,2013-03-10 22:20:00,
2013-03-10 16:21:00,47.7,7.4,29.85,NNW,329,4.0,5.4,19,0.00,,---,0.00,VWS V14.01,2013-03-10 22:21:00,
2013-03-10 16:22:00,47.7,7.4,29.85,WNW,289,5.8,5.8,19,0.00,,---,0.00,VWS V14.01,2013-03-10 22:22:00,
2013-03-10 16:23:00,47.7,7.4,29.85,WNW,290,7.6,8.3,19,0.00,,---,0.00,VWS V14.01,2013-03-10 22:23:00,
2013-03-10 16:24:00,47.7,7.4,29.85,West,261,8.7,8.7,19,0.00,,---,0.00,VWS V14.01,2013-03-10 22:24:00,
2013-03-10 16:25:00,47.7,7.4,29.85,WNW,302,6.7,8.7,19,0.00,,---,0.00,VWS V14.01,2013-03-10 22:25:00,
2013-03-10 16:26:00,47.7,7.4,29.85,WNW,303,4.0,6.7,19,0.00,,---,0.00,VWS V14.01,2013-03-10 22:26:00,
2013-03-10 16:27:00,47.7,7.4,29.85,NW,305,6.3,6.3,19,0.00,,---,0.00,VWS V14.01,2013-03-10 22:27:00,
2013-03-10 16:28:00,47.7,7.4,29.85,WNW,289,7.6,10.1,19,0.00,,---,0.00,VWS V14.01,2013-03-10 22:28:00,
2013-03-10 16:29:00,47.7,7.4,29.85,WNW,287,10.1,10.1,19,0.00,,---,0.00,VWS V14.01,2013-03-10 22:29:00,
2013-03-10 16:30:00,47.5,7.3,29.85,WNW,297,12.3,12.3,19,0.00,,---,0.00,VWS V14.01,2013-03-10 22:30:00,
2013-03-10 16:31:00,47.5,7.3,29.85,West,273,5.4,12.3,19,0.00,,---,0.00,VWS V14.01,2013-03-10 22:31:00,
2013-03-10 16:32:00,47.5,7.3,29.85,WNW,297,4.9,8.3,19,0.00,,---,0.00,VWS V14.01,2013-03-10 22:32:00,
2013-03-10 16:33:00,47.5,7.3,29.85,WNW,298,3.6,5.8,19,0.00,,---,0.00,VWS V14.01,2013-03-10 22:33:00,
2013-03-10 16:34:00,47.5,7.3,29.85,West,275,4.9,4.9,19,0.00,,---,0.00,VWS V14.01,2013-03-10 22:34:00,
2013-03-10 16:35:00,47.7,7.4,29.85,SSE,160,3.6,6.3,19,0.00,,---,0.00,VWS V14.01,2013-03-10 22:35:00,
2013-03-10 16:36:00,47.8,7.6,29.85,SE,145,5.8,5.8,19,0.00,,---,0.00,VWS V14.01,2013-03-10 22:36:00,
2013-03-10 16:37:00,47.8,7.6,29.85,NW,304,5.8,5.8,19,0.00,,---,0.00,VWS V14.01,2013-03-10 22:37:00,
2013-03-10 16:38:00,47.8,7.6,29.85,SE,140,6.3,7.2,19,0.00,,---,0.00,VWS V14.01,2013-03-10 22:38:00,
2013-03-10 16:39:00,48.0,11.0,29.85,SW,219,4.9,5.8,22,0.00,,---,0.00,VWS V14.01,2013-03-10 22:39:00,
2013-03-10 16:40:00,48.0,11.0,29.85,SSW,209,2.2,6.7,22,0.00,,---,0.00,VWS V14.01,2013-03-10 22:40:00,
2013-03-10 16:41:00,48.0,11.0,29.85,SW,217,5.8,5.8,22,0.00,,---,0.00,VWS V14.01,2013-03-10 22:41:00,
2013-03-10 16:42:00,48.2,10.1,29.85,South,185,3.6,6.3,21,0.00,,---,0.00,VWS V14.01,2013-03-10 22:42:00,
2013-03-10 16:43:00,48.2,10.1,29.85,SW,220,4.0,7.2,21,0.00,,---,0.00,VWS V14.01,2013-03-10 22:43:00,
2013-03-10 16:44:00,48.2,10.1,29.85,WNW,299,2.7,2.7,21,0.00,,---,0.00,VWS V14.01,2013-03-10 22:44:00,
2013-03-10 16:45:00,48.2,10.1,29.85,WNW,287,8.7,8.7,21,0.00,,---,0.00,VWS V14.01,2013-03-10 22:45:00,
2013-03-10 16:46:00,48.0,7.7,29.85,WSW,252,5.4,8.7,19,0.00,,---,0.00,VWS V14.01,2013-03-10 22:46:00,
2013-03-10 16:47:00,47.8,7.6,29.85,West,279,3.6,8.3,19,0.00,,---,0.00,VWS V14.01,2013-03-10 22:47:00,
2013-03-10 16:48:00,47.8,7.6,29.85,WSW,254,6.3,8.7,19,0.00,,---,0.00,VWS V14.01,2013-03-10 22:48:00,
2013-03-10 16:49:00,47.8,7.6,29.85,WSW,248,10.1,10.1,19,0.00,,---,0.00,VWS V14.01,2013-03-10 22:49:00,
2013-03-10 16:50:00,47.7,7.4,29.85,SW,236,6.3,10.1,19,0.00,,---,0.00,VWS V14.01,2013-03-10 22:50:00,
2013-03-10 16:51:00,47.7,7.4,29.85,WSW,242,7.6,8.1,19,0.00,,---,0.00,VWS V14.01,2013-03-10 22:51:00,
2013-03-10 16:52:00,47.5,7.3,29.85,WSW,257,10.5,12.3,19,0.00,,---,0.00,VWS V14.01,2013-03-10 22:52:00,
2013-03-10 16:53:00,47.5,7.3,29.85,WSW,245,7.6,10.5,19,0.00,,---,0.00,VWS V14.01,2013-03-10 22:53:00,
2013-03-10 16:54:00,47.5,7.3,29.85,WNW,284,6.3,8.3,19,0.00,,---,0.00,VWS V14.01,2013-03-10 22:54:00,
2013-03-10 16:55:00,47.5,7.3,29.85,West,276,7.6,10.5,19,0.00,,---,0.00,VWS V14.01,2013-03-10 22:55:00,
2013-03-10 16:56:00,47.5,7.3,29.85,WSW,254,10.1,10.1,19,0.00,,---,0.00,VWS V14.01,2013-03-10 22:56:00,
2013-03-10 16:57:00,47.5,7.3,29.85,WSW,256,8.7,11.0,19,0.00,,---,0.00,VWS V14.01,2013-03-10 22:57:00,
2013-03-10 16:58:00,47.5,7.3,29.85,West,259,10.1,11.0,19,0.00,,---,0.00,VWS V14.01,2013-03-10 22:58:00,
2013-03-10 16:59:00,47.7,7.4,29.85,WSW,249,10.1,10.1,19,0.00,,---,0.00,VWS V14.01,2013-03-10 22:59:00,
2013-03-10 17:00:00,47.5,7.3,29.85,West,268,7.6,10.1,19,0.00,,---,0.00,VWS V14.01,2013-03-10 23:00:00,
2013-03-10 17:01:00,47.5,7.3,29.85,WNW,292,5.8,9.2,19,0.00,,---,0.00,VWS V14.01,2013-03-10 23:01:00,
2013-03-10 17:02:00,47.5,7.3,29.85,West,273,5.4,8.7,19,0.00,,---,0.00,VWS V14.01,2013-03-10 23:02:00,
2013-03-10 17:03:00,47.7,7.4,29.85,WNW,303,11.4,11.4,19,0.00,,---,0.00,VWS V14.01,2013-03-10 23:03:00,
2013-03-10 17:04:00,47.5,7.3,29.85,SW,219,8.3,8.7,19,0.00,,---,0.00,VWS V14.01,2013-03-10 23:04:00,
2013-03-10 17:05:00,47.5,7.3,29.85,WSW,255,6.3,8.7,19,0.00,,---,0.00,VWS V14.01,2013-03-10 23:05:00,
2013-03-10 17:06:00,47.5,7.3,29.85,West,272,8.1,10.5,19,0.00,,---,0.00,VWS V14.01,2013-03-10 23:06:00,
2013-03-10 17:07:00,47.5,7.3,29.85,NW,314,10.5,13.2,19,0.00,,---,0.00,VWS V14.01,2013-03-10 23:07:00,
2013-03-10 17:08:00,47.3,7.1,29.85,NNW,348,8.1,11.0,19,0.00,,---,0.00,VWS V14.01,2013-03-10 23:08:00,
2013-03-10 17:09:00,47.3,7.1,29.85,WNW,298,5.8,8.7,19,0.00,,---,0.00,VWS V14.01,2013-03-10 23:09:00,
2013-03-10 17:10:00,47.3,7.1,29.85,WSW,253,8.7,10.5,19,0.00,,---,0.00,VWS V14.01,2013-03-10 23:10:00,
2013-03-10 17:11:00,47.1,7.0,29.85,SW,233,5.8,8.7,19,0.00,,---,0.00,VWS V14.01,2013-03-10 23:11:00,
2013-03-10 17:12:00,46.9,6.8,29.85,WSW,248,7.6,7.6,19,0.00,,---,0.00,VWS V14.01,2013-03-10 23:12:00,
2013-03-10 17:13:00,46.9,6.8,29.85,WSW,251,8.1,8.1,19,0.00,,---,0.00,VWS V14.01,2013-03-10 23:13:00,
2013-03-10 17:14:00,46.9,6.8,29.85,NW,307,6.3,7.6,19,0.00,,---,0.00,VWS V14.01,2013-03-10 23:14:00,
2013-03-10 17:15:00,46.9,6.8,29.85,NW,309,8.1,8.3,19,0.00,,---,0.00,VWS V14.01,2013-03-10 23:15:00,
2013-03-10 17:16:00,46.9,6.8,29.85,WNW,284,5.4,8.3,19,0.00,,---,0.00,VWS V14.01,2013-03-10 23:16:00,
2013-03-10 17:17:00,46.9,6.8,29.85,NNW,329,8.1,8.7,19,0.00,,---,0.00,VWS V14.01,2013-03-10 23:17:00,
2013-03-10 17:18:00,46.8,6.7,29.85,WNW,300,5.8,10.1,19,0.00,,---,0.00,VWS V14.01,2013-03-10 23:18:00,
2013-03-10 17:19:00,46.8,6.7,29.82,NW,305,5.8,6.3,19,0.00,,---,0.00,VWS V14.01,2013-03-10 23:19:00,
2013-03-10 17:20:00,46.6,6.6,29.82,WNW,292,8.3,10.1,19,0.00,,---,0.00,VWS V14.01,2013-03-10 23:20:00,
2013-03-10 17:21:00,46.4,6.4,29.82,West,266,7.6,8.3,19,0.00,,---,0.00,VWS V14.01,2013-03-10 23:21:00,
2013-03-10 17:22:00,46.4,6.4,29.82,WNW,297,12.3,12.3,19,0.00,,---,0.00,VWS V14.01,2013-03-10 23:22:00,
2013-03-10 17:23:00,46.4,6.4,29.82,West,263,5.8,12.3,19,0.00,,---,0.00,VWS V14.01,2013-03-10 23:23:00,
2013-03-10 17:24:00,46.2,9.5,29.82,West,259,9.6,9.6,22,0.00,,---,0.00,VWS V14.01,2013-03-10 23:24:00,
2013-03-10 17:25:00,46.2,9.5,29.82,NW,312,8.7,9.6,22,0.00,,---,0.00,VWS V14.01,2013-03-10 23:25:00,
2013-03-10 17:26:00,46.0,7.2,29.82,WSW,256,7.6,11.0,20,0.00,,---,0.00,VWS V14.01,2013-03-10 23:26:00,
2013-03-10 17:27:00,46.0,9.3,29.82,West,265,3.1,7.6,22,0.00,,---,0.00,VWS V14.01,2013-03-10 23:27:00,
2013-03-10 17:28:00,46.0,9.3,29.82,NW,306,5.4,12.3,22,0.00,,---,0.00,VWS V14.01,2013-03-10 23:28:00,
2013-03-10 17:29:00,46.0,9.3,29.82,West,264,5.4,5.4,22,0.00,,---,0.00,VWS V14.01,2013-03-10 23:29:00,
2013-03-10 17:30:00,46.0,9.3,29.82,West,280,6.3,6.7,22,0.00,,---,0.00,VWS V14.01,2013-03-10 23:30:00,
2013-03-10 17:31:00,46.0,9.3,29.82,NW,322,3.6,7.6,22,0.00,,---,0.00,VWS V14.01,2013-03-10 23:31:00,
2013-03-10 17:32:00,46.0,9.3,29.82,WSW,256,8.1,8.1,22,0.00,,---,0.00,VWS V14.01,2013-03-10 23:32:00,
2013-03-10 17:33:00,46.0,9.3,29.82,WNW,293,5.4,8.1,22,0.00,,---,0.00,VWS V14.01,2013-03-10 23:33:00,
2013-03-10 17:34:00,46.0,9.3,29.82,SW,235,5.4,5.4,22,0.00,,---,0.00,VWS V14.01,2013-03-10 23:34:00,
2013-03-10 17:35:00,46.0,9.3,29.82,SW,235,6.3,6.3,22,0.00,,---,0.00,VWS V14.01,2013-03-10 23:35:00,
2013-03-10 17:36:00,46.0,9.3,29.82,WSW,239,8.3,10.1,22,0.00,,---,0.00,VWS V14.01,2013-03-10 23:36:00,
2013-03-10 17:37:00,46.0,9.3,29.82,SW,220,11.0,11.0,22,0.00,,---,0.00,VWS V14.01,2013-03-10 23:37:00,
2013-03-10 17:38:00,46.0,9.3,29.82,SW,224,5.4,11.0,22,0.00,,---,0.00,VWS V14.01,2013-03-10 23:38:00,
2013-03-10 17:39:00,46.0,9.3,29.82,NW,306,4.0,7.6,22,0.00,,---,0.00,VWS V14.01,2013-03-10 23:39:00,
2013-03-10 17:40:00,46.0,9.3,29.82,WNW,292,8.3,12.3,22,0.00,,---,0.00,VWS V14.01,2013-03-10 23:40:00,
2013-03-10 17:41:00,45.9,9.2,29.82,WNW,292,4.0,8.3,22,0.00,,---,0.00,VWS V14.01,2013-03-10 23:41:00,
2013-03-10 17:42:00,45.9,9.2,29.82,WNW,300,5.8,8.3,22,0.00,,---,0.00,VWS V14.01,2013-03-10 23:42:00,
2013-03-10 17:43:00,45.9,9.2,29.82,West,281,8.7,8.7,22,0.00,,---,0.00,VWS V14.01,2013-03-10 23:43:00,
2013-03-10 17:44:00,45.9,9.2,29.82,NW,312,2.7,5.8,22,0.00,,---,0.00,VWS V14.01,2013-03-10 23:44:00,
2013-03-10 17:45:00,45.9,9.2,29.82,WSW,250,4.0,5.8,22,0.00,,---,0.00,VWS V14.01,2013-03-10 23:45:00,
2013-03-10 17:46:00,45.9,9.2,29.82,SW,236,3.6,7.6,22,0.00,,---,0.00,VWS V14.01,2013-03-10 23:46:00,
2013-03-10 17:47:00,45.9,9.2,29.82,NW,316,4.0,4.0,22,0.00,,---,0.00,VWS V14.01,2013-03-10 23:47:00,
2013-03-10 17:48:00,45.9,9.2,29.82,WSW,251,8.3,8.3,22,0.00,,---,0.00,VWS V14.01,2013-03-10 23:48:00,
2013-03-10 17:49:00,45.9,9.2,29.82,WSW,258,5.8,5.8,22,0.00,,---,0.00,VWS V14.01,2013-03-10 23:49:00,
2013-03-10 17:50:00,45.9,9.2,29.82,WNW,300,5.4,5.8,22,0.00,,---,0.00,VWS V14.01,2013-03-10 23:50:00,
2013-03-10 17:51:00,45.9,9.2,29.82,West,273,7.6,8.1,22,0.00,,---,0.00,VWS V14.01,2013-03-10 23:51:00,
2013-03-10 17:52:00,45.7,9.0,29.82,WNW,286,5.8,8.7,22,0.00,,---,0.00,VWS V14.01,2013-03-10 23:52:00,
2013-03-10 17:53:00,45.5,8.9,29.82,WSW,257,6.3,6.3,22,0.00,,---,0.00,VWS V14.01,2013-03-10 23:53:00,
2013-03-10 17:54:00,45.5,8.9,29.82,West,268,8.1,8.1,22,0.00,,---,0.00,VWS V14.01,2013-03-10 23:54:00,
2013-03-10 17:55:00,45.3,8.7,29.82,SW,215,8.1,8.7,22,0.00,,---,0.00,VWS V14.01,2013-03-10 23:55:00,
2013-03-10 17:56:00,45.3,8.7,29.82,SW,229,5.8,8.7,22,0.00,,---,0.00,VWS V14.01,2013-03-10 23:56:00,
2013-03-10 17:57:00,45.3,8.7,29.82,NW,318,7.6,7.6,22,0.00,,---,0.00,VWS V14.01,2013-03-10 23:57:00,
2013-03-10 17:58:00,45.1,8.6,29.82,WSW,238,6.3,8.1,22,0.00,,---,0.00,VWS V14.01,2013-03-10 23:58:00,
2013-03-10 17:59:00,45.1,8.6,29.82,WSW,256,7.6,7.6,22,0.00,,---,0.00,VWS V14.01,2013-03-10 23:59:00,
2013-03-10 18:00:00,45.1,8.6,29.82,West,271,10.1,10.1,22,0.00,,---,0.00,VWS V14.01,2013-03-11 00:00:00,
2013-03-10 18:01:00,45.0,8.4,29.82,WNW,301,6.3,10.1,22,0.00,,---,0.00,VWS V14.01,2013-03-11 00:01:00,
2013-03-10 18:02:00,44.8,8.3,29.82,West,265,8.3,8.3,22,0.00,,---,0.00,VWS V14.01,2013-03-11 00:02:00,
2013-03-10 18:03:00,44.8,8.3,29.82,West,280,12.3,12.8,22,0.00,,---,0.00,VWS V14.01,2013-03-11 00:03:00,
2013-03-10 18:04:00,44.8,8.3,29.82,WSW,253,5.4,5.4,22,0.00,,---,0.00,VWS V14.01,2013-03-11 00:04:00,
2013-03-10 18:05:00,44.6,8.1,29.82,West,270,7.6,7.6,22,0.00,,---,0.00,VWS V14.01,2013-03-11 00:05:00,
2013-03-10 18:06:00,44.6,11.0,29.82,SW,228,6.3,7.6,25,0.00,,---,0.00,VWS V14.01,2013-03-11 00:06:00,
2013-03-10 18:07:00,44.6,11.0,29.82,WSW,251,7.6,8.3,25,0.00,,---,0.00,VWS V14.01,2013-03-11 00:07:00,
2013-03-10 18:08:00,44.6,11.0,29.82,WNW,297,11.0,11.0,25,0.00,,---,0.00,VWS V14.01,2013-03-11 00:08:00,
2013-03-10 18:09:00,44.4,10.8,29.82,WNW,290,8.1,8.1,25,0.00,,---,0.00,VWS V14.01,2013-03-11 00:09:00,
2013-03-10 18:10:00,44.4,10.8,29.82,NW,313,10.5,10.5,25,0.00,,---,0.00,VWS V14.01,2013-03-11 00:10:00,
2013-03-10 18:11:00,44.2,10.7,29.82,West,279,5.4,10.5,25,0.00,,---,0.00,VWS V14.01,2013-03-11 00:11:00,
2013-03-10 18:12:00,44.2,10.7,29.82,NW,317,5.4,10.1,25,0.00,,---,0.00,VWS V14.01,2013-03-11 00:12:00,
2013-03-10 18:13:00,44.2,10.7,29.82,West,268,3.6,5.8,25,0.00,,---,0.00,VWS V14.01,2013-03-11 00:13:00,
2013-03-10 18:14:00,44.2,10.7,29.82,WSW,249,5.4,5.4,25,0.00,,---,0.00,VWS V14.01,2013-03-11 00:14:00,
2013-03-10 18:15:00,44.2,10.7,29.82,WSW,258,6.3,8.1,25,0.00,,---,0.00,VWS V14.01,2013-03-11 00:15:00,
2013-03-10 18:16:00,44.2,10.7,29.82,West,278,2.7,8.3,25,0.00,,---,0.00,VWS V14.01,2013-03-11 00:16:00,
2013-03-10 18:17:00,44.2,13.2,29.82,SW,235,10.1,10.1,28,0.00,,---,0.00,VWS V14.01,2013-03-11 00:17:00,
2013-03-10 18:18:00,44.2,13.2,29.82,NW,308,7.6,10.1,28,0.00,,---,0.00,VWS V14.01,2013-03-11 00:18:00,
2013-03-10 18:19:00,44.2,13.2,29.82,WSW,256,8.3,8.3,28,0.00,,---,0.00,VWS V14.01,2013-03-11 00:19:00,
2013-03-10 18:20:00,44.1,13.1,29.82,West,273,8.3,10.1,28,0.00,,---,0.00,VWS V14.01,2013-03-11 00:20:00,
2013-03-10 18:21:00,44.1,13.1,29.82,West,266,6.3,8.3,28,0.00,,---,0.00,VWS V14.01,2013-03-11 00:21:00,
2013-03-10 18:22:00,44.1,13.1,29.82,West,273,5.4,6.3,28,0.00,,---,0.00,VWS V14.01,2013-03-11 00:22:00,
2013-03-10 18:23:00,44.1,13.1,29.82,WNW,297,5.4,8.7,28,0.00,,---,0.00,VWS V14.01,2013-03-11 00:23:00,
2013-03-10 18:24:00,44.1,13.1,29.82,WSW,251,5.8,8.3,28,0.00,,---,0.00,VWS V14.01,2013-03-11 00:24:00,
2013-03-10 18:25:00,44.1,13.1,29.82,WSW,252,5.4,8.7,28,0.00,,---,0.00,VWS V14.01,2013-03-11 00:25:00,
2013-03-10 18:26:00,44.1,13.1,29.82,West,268,5.8,7.6,28,0.00,,---,0.00,VWS V14.01,2013-03-11 00:26:00,
2013-03-10 18:27:00,43.9,12.9,29.82,West,279,8.7,8.7,28,0.00,,---,0.00,VWS V14.01,2013-03-11 00:27:00,
2013-03-10 18:28:00,43.9,12.9,29.82,West,280,4.5,8.7,28,0.00,,---,0.00,VWS V14.01,2013-03-11 00:28:00,
2013-03-10 18:29:00,43.9,12.9,29.82,WNW,293,5.4,6.3,28,0.00,,---,0.00,VWS V14.01,2013-03-11 00:29:00,
2013-03-10 18:30:00,43.9,12.9,29.82,West,273,3.6,6.3,28,0.00,,---,0.00,VWS V14.01,2013-03-11 00:30:00,
2013-03-10 18:31:00,43.9,12.9,29.82,West,278,4.9,6.3,28,0.00,,---,0.00,VWS V14.01,2013-03-11 00:31:00,
2013-03-10 18:32:00,43.7,12.8,29.82,SW,214,4.0,6.7,28,0.00,,---,0.00,VWS V14.01,2013-03-11 00:32:00,
2013-03-10 18:33:00,43.7,12.8,29.82,SW,228,7.6,7.6,28,0.00,,---,0.00,VWS V14.01,2013-03-11 00:33:00,
2013-03-10 18:34:00,43.7,12.8,29.82,WSW,258,10.1,10.1,28,0.00,,---,0.00,VWS V14.01,2013-03-11 00:34:00,
2013-03-10 18:35:00,43.7,12.8,29.82,SW,226,8.7,10.1,28,0.00,,---,0.00,VWS V14.01,2013-03-11 00:35:00,
2013-03-10 18:36:00,43.7,12.8,29.82,West,280,10.1,10.5,28,0.00,,---,0.00,VWS V14.01,2013-03-11 00:36:00,
2013-03-10 18:37:00,43.7,12.8,29.82,NW,305,10.1,10.1,28,0.00,,---,0.00,VWS V14.01,2013-03-11 00:37:00,
2013-03-10 18:38:00,43.5,12.6,29.82,West,279,9.2,10.1,28,0.00,,---,0.00,VWS V14.01,2013-03-11 00:38:00,
2013-03-10 18:39:00,43.5,12.6,29.82,SW,217,8.7,14.1,28,0.00,,---,0.00,VWS V14.01,2013-03-11 00:39:00,
2013-03-10 18:40:00,43.5,12.6,29.82,West,268,5.4,10.5,28,0.00,,---,0.00,VWS V14.01,2013-03-11 00:40:00,
2013-03-10 18:41:00,43.5,12.6,29.82,West,270,8.7,8.7,28,0.00,,---,0.00,VWS V14.01,2013-03-11 00:41:00,
2013-03-10 18:42:00,43.5,12.6,29.82,West,260,8.1,11.0,28,0.00,,---,0.00,VWS V14.01,2013-03-11 00:42:00,
2013-03-10 18:43:00,43.3,12.4,29.82,West,281,15.0,15.0,28,0.00,,---,0.00,VWS V14.01,2013-03-11 00:43:00,
2013-03-10 18:44:00,43.3,12.4,29.82,SW,224,8.3,10.5,28,0.00,,---,0.00,VWS V14.01,2013-03-11 00:44:00,
2013-03-10 18:45:00,43.3,12.4,29.82,WSW,248,8.7,12.3,28,0.00,,---,0.00,VWS V14.01,2013-03-11 00:45:00,
2013-03-10 18:46:00,43.3,12.4,29.82,NW,306,11.0,11.0,28,0.00,,---,0.00,VWS V14.01,2013-03-11 00:46:00,
2013-03-10 18:47:00,43.3,12.4,29.82,West,278,8.3,11.0,28,0.00,,---,0.00,VWS V14.01,2013-03-11 00:47:00,
2013-03-10 18:48:00,43.2,12.3,29.82,WSW,257,8.3,8.3,28,0.00,,---,0.00,VWS V14.01,2013-03-11 00:48:00,
2013-03-10 18:49:00,43.2,12.3,29.82,WNW,301,4.9,5.4,28,0.00,,---,0.00,VWS V14.01,2013-03-11 00:49:00,
2013-03-10 18:50:00,43.2,12.3,29.82,West,272,9.6,11.0,28,0.00,,---,0.00,VWS V14.01,2013-03-11 00:50:00,
2013-03-10 18:51:00,43.0,12.1,29.82,SW,224,8.7,10.5,28,0.00,,---,0.00,VWS V14.01,2013-03-11 00:51:00,
2013-03-10 18:52:00,43.0,12.1,29.82,WNW,292,11.0,11.0,28,0.00,,---,0.00,VWS V14.01,2013-03-11 00:52:00,
2013-03-10 18:53:00,43.0,12.1,29.82,SW,227,6.3,11.0,28,0.00,,---,0.00,VWS V14.01,2013-03-11 00:53:00,
2013-03-10 18:54:00,43.0,12.1,29.82,West,261,6.3,6.3,28,0.00,,---,0.00,VWS V14.01,2013-03-11 00:54:00,
2013-03-10 18:55:00,43.0,12.1,29.82,West,267,10.5,10.5,28,0.00,,---,0.00,VWS V14.01,2013-03-11 00:55:00,
2013-03-10 18:56:00,42.8,12.0,29.82,SW,233,5.8,10.5,28,0.00,,---,0.00,VWS V14.01,2013-03-11 00:56:00,
2013-03-10 18:57:00,42.8,12.0,29.82,WNW,289,3.6,5.8,28,0.00,,---,0.00,VWS V14.01,2013-03-11 00:57:00,
2013-03-10 18:58:00,42.8,12.0,29.82,WSW,243,0.0,4.9,28,0.00,,---,0.00,VWS V14.01,2013-03-11 00:58:00,
2013-03-10 18:59:00,42.6,12.6,29.82,WSW,249,4.0,4.0,29,0.00,,---,0.00,VWS V14.01,2013-03-11 00:59:00,
2013-03-10 19:00:00,42.6,12.6,29.82,WSW,252,2.7,6.7,29,0.00,,---,0.00,VWS V14.01,2013-03-11 01:00:00,
2013-03-10 19:01:00,42.6,12.6,29.82,WSW,252,3.1,3.1,29,0.00,,---,0.00,VWS V14.01,2013-03-11 01:01:00,
2013-03-10 19:02:00,42.4,12.4,29.82,West,269,3.6,3.6,29,0.00,,---,0.00,VWS V14.01,2013-03-11 01:02:00,
2013-03-10 19:03:00,42.4,12.4,29.82,WNW,283,5.4,7.6,29,0.00,,---,0.00,VWS V14.01,2013-03-11 01:03:00,
2013-03-10 19:04:00,42.4,12.4,29.82,WNW,282,8.3,8.3,29,0.00,,---,0.00,VWS V14.01,2013-03-11 01:04:00,
2013-03-10 19:05:00,42.4,12.4,29.82,SW,236,8.7,10.5,29,0.00,,---,0.00,VWS V14.01,2013-03-11 01:05:00,
2013-03-10 19:06:00,42.4,12.4,29.82,WSW,247,8.3,8.7,29,0.00,,---,0.00,VWS V14.01,2013-03-11 01:06:00,
2013-03-10 19:07:00,42.3,12.3,29.82,West,281,6.3,8.3,29,0.00,,---,0.00,VWS V14.01,2013-03-11 01:07:00,
2013-03-10 19:08:00,42.3,12.3,29.82,SW,229,8.1,8.1,29,0.00,,---,0.00,VWS V14.01,2013-03-11 01:08:00,
2013-03-10 19:09:00,42.3,12.3,29.82,West,279,7.2,11.0,29,0.00,,---,0.00,VWS V14.01,2013-03-11 01:09:00,
2013-03-10 19:10:00,42.3,12.3,29.82,West,272,5.8,8.7,29,0.00,,---,0.00,VWS V14.01,2013-03-11 01:10:00,
2013-03-10 19:11:00,42.3,12.3,29.82,NW,321,7.2,7.2,29,0.00,,---,0.00,VWS V14.01,2013-03-11 01:11:00,
2013-03-10 19:12:00,42.3,12.3,29.82,West,273,8.1,8.1,29,0.00,,---,0.00,VWS V14.01,2013-03-11 01:12:00,
2013-03-10 19:13:00,42.1,12.1,29.82,SW,229,4.0,8.1,29,0.00,,---,0.00,VWS V14.01,2013-03-11 01:13:00,
2013-03-10 19:14:00,42.1,12.1,29.82,West,265,4.0,4.0,29,0.00,,---,0.00,VWS V14.01,2013-03-11 01:14:00,
2013-03-10 19:15:00,42.1,12.1,29.82,WNW,283,7.6,8.3,29,0.00,,---,0.00,VWS V14.01,2013-03-11 01:15:00,
2013-03-10 19:16:00,42.1,12.1,29.82,West,281,5.8,7.6,29,0.00,,---,0.00,VWS V14.01,2013-03-11 01:16:00,
2013-03-10 19:17:00,42.1,12.1,29.82,West,263,5.8,8.7,29,0.00,,---,0.00,VWS V14.01,2013-03-11 01:17:00,
2013-03-10 19:18:00,42.1,12.1,29.82,West,267,5.8,5.8,29,0.00,,---,0.00,VWS V14.01,2013-03-11 01:18:00,
2013-03-10 19:19:00,42.1,12.1,29.82,West,267,5.8,5.8,29,0.00,,---,0.00,VWS V14.01,2013-03-11 01:19:00,
2013-03-10 19:20:00,42.1,12.1,29.82,NW,309,2.7,6.3,29,0.00,,---,0.00,VWS V14.01,2013-03-11 01:20:00,
2013-03-10 19:21:00,42.1,12.1,29.82,WSW,258,8.1,8.3,29,0.00,,---,0.00,VWS V14.01,2013-03-11 01:21:00,
2013-03-10 19:22:00,42.1,12.1,29.82,WNW,288,5.8,8.1,29,0.00,,---,0.00,VWS V14.01,2013-03-11 01:22:00,
2013-03-10 19:23:00,41.9,12.0,29.82,West,274,3.6,6.3,29,0.00,,---,0.00,VWS V14.01,2013-03-11 01:23:00,
2013-03-10 19:24:00,41.9,12.0,29.82,WNW,292,4.0,4.0,29,0.00,,---,0.00,VWS V14.01,2013-03-11 01:24:00,
2013-03-10 19:25:00,41.9,12.0,29.82,WNW,300,4.9,5.8,29,0.00,,---,0.00,VWS V14.01,2013-03-11 01:25:00,
2013-03-10 19:26:00,41.9,12.0,29.82,WNW,293,5.8,5.8,29,0.00,,---,0.00,VWS V14.01,2013-03-11 01:26:00,
2013-03-10 19:27:00,41.9,12.0,29.82,WNW,290,7.2,10.1,29,0.00,,---,0.00,VWS V14.01,2013-03-11 01:27:00,
2013-03-10 19:28:00,41.9,12.0,29.82,WNW,298,11.0,11.4,29,0.00,,---,0.00,VWS V14.01,2013-03-11 01:28:00,
2013-03-10 19:29:00,41.7,12.6,29.82,West,276,7.6,7.6,30,0.00,,---,0.00,VWS V14.01,2013-03-11 01:29:00,
2013-03-10 19:30:00,41.7,12.6,29.82,WSW,239,8.7,11.0,30,0.00,,---,0.00,VWS V14.01,2013-03-11 01:30:00,
2013-03-10 19:31:00,41.7,12.6,29.82,West,272,12.8,12.8,30,0.00,,---,0.00,VWS V14.01,2013-03-11 01:31:00,
2013-03-10 19:32:00,41.7,12.6,29.82,WSW,243,8.3,12.8,30,0.00,,---,0.00,VWS V14.01,2013-03-11 01:32:00,
2013-03-10 19:33:00,41.7,12.6,29.82,NW,317,8.1,8.3,30,0.00,,---,0.00,VWS V14.01,2013-03-11 01:33:00,
2013-03-10 19:34:00,41.7,12.6,29.82,NW,305,8.1,8.7,30,0.00,,---,0.00,VWS V14.01,2013-03-11 01:34:00,
2013-03-10 19:35:00,41.7,12.6,29.82,NNW,328,8.7,8.7,30,0.00,,---,0.00,VWS V14.01,2013-03-11 01:35:00,
2013-03-10 19:36:00,41.7,12.6,29.82,WNW,294,13.6,13.6,30,0.00,,---,0.00,VWS V14.01,2013-03-11 01:36:00,
2013-03-10 19:37:00,41.7,12.6,29.82,WNW,298,7.6,13.6,30,0.00,,---,0.00,VWS V14.01,2013-03-11 01:37:00,
2013-03-10 19:38:00,41.7,12.6,29.82,WSW,248,8.7,8.7,30,0.00,,---,0.00,VWS V14.01,2013-03-11 01:38:00,
2013-03-10 19:39:00,41.7,12.6,29.82,WSW,245,5.8,8.7,30,0.00,,---,0.00,VWS V14.01,2013-03-11 01:39:00,
2013-03-10 19:40:00,41.7,12.6,29.82,WNW,284,4.0,8.7,30,0.00,,---,0.00,VWS V14.01,2013-03-11 01:40:00,
2013-03-10 19:41:00,41.7,12.6,29.82,WNW,303,7.6,8.1,30,0.00,,---,0.00,VWS V14.01,2013-03-11 01:41:00,
2013-03-10 19:42:00,41.5,12.4,29.82,West,278,5.4,7.6,30,0.00,,---,0.00,VWS V14.01,2013-03-11 01:42:00,
2013-03-10 19:43:00,41.5,12.4,29.82,West,262,8.3,8.3,30,0.00,,---,0.00,VWS V14.01,2013-03-11 01:43:00,
2013-03-10 19:44:00,41.5,12.4,29.82,NW,311,5.4,8.3,30,0.00,,---,0.00,VWS V14.01,2013-03-11 01:44:00,
2013-03-10 19:45:00,41.5,12.4,29.82,West,273,4.0,8.1,30,0.00,,---,0.00,VWS V14.01,2013-03-11 01:45:00,
2013-03-10 19:46:00,41.5,12.4,29.82,WNW,290,5.4,8.1,30,0.00,,---,0.00,VWS V14.01,2013-03-11 01:46:00,
2013-03-10 19:47:00,41.5,12.4,29.82,WNW,284,8.1,8.1,30,0.00,,---,0.00,VWS V14.01,2013-03-11 01:47:00,
2013-03-10 19:48:00,41.5,12.4,29.82,WNW,286,4.9,8.1,30,0.00,,---,0.00,VWS V14.01,2013-03-11 01:48:00,
2013-03-10 19:49:00,41.5,12.4,29.82,WNW,295,6.3,6.3,30,0.00,,---,0.00,VWS V14.01,2013-03-11 01:49:00,
2013-03-10 19:50:00,41.5,12.4,29.82,NW,310,5.8,6.3,30,0.00,,---,0.00,VWS V14.01,2013-03-11 01:50:00,
2013-03-10 19:51:00,41.5,12.4,29.82,WSW,252,7.6,7.6,30,0.00,,---,0.00,VWS V14.01,2013-03-11 01:51:00,
2013-03-10 19:52:00,41.5,12.4,29.82,NW,312,5.4,7.6,30,0.00,,---,0.00,VWS V14.01,2013-03-11 01:52:00,
2013-03-10 19:53:00,41.5,12.4,29.82,WNW,292,7.2,8.1,30,0.00,,---,0.00,VWS V14.01,2013-03-11 01:53:00,
2013-03-10 19:54:00,41.4,12.3,29.82,WNW,300,8.7,8.7,30,0.00,,---,0.00,VWS V14.01,2013-03-11 01:54:00,
2013-03-10 19:55:00,41.4,12.3,29.82,SW,230,7.6,10.5,30,0.00,,---,0.00,VWS V14.01,2013-03-11 01:55:00,
2013-03-10 19:56:00,41.4,12.3,29.82,NW,322,5.4,7.6,30,0.00,,---,0.00,VWS V14.01,2013-03-11 01:56:00,
2013-03-10 19:57:00,41.4,12.3,29.82,WNW,297,8.3,8.3,30,0.00,,---,0.00,VWS V14.01,2013-03-11 01:57:00,
2013-03-10 19:58:00,41.4,12.3,29.82,West,280,4.0,9.6,30,0.00,,---,0.00,VWS V14.01,2013-03-11 01:58:00,
2013-03-10 19:59:00,41.4,12.3,29.82,West,271,13.2,13.2,30,0.00,,---,0.00,VWS V14.01,2013-03-11 01:59:00,
2013-03-10 20:00:00,41.2,12.1,29.82,West,273,7.6,13.2,30,0.00,,---,0.00,VWS V14.01,2013-03-11 02:00:00,
2013-03-10 20:01:00,41.2,12.1,29.82,WNW,297,11.0,11.0,30,0.00,,---,0.00,VWS V14.01,2013-03-11 02:01:00,
2013-03-10 20:02:00,41.2,12.1,29.82,WSW,246,10.1,11.0,30,0.00,,---,0.00,VWS V14.01,2013-03-11 02:02:00,
2013-03-10 20:03:00,41.2,12.9,29.82,West,281,12.3,12.8,31,0.00,,---,0.00,VWS V14.01,2013-03-11 02:03:00,
2013-03-10 20:04:00,41.2,12.9,29.82,NW,319,10.1,15.4,31,0.00,,---,0.00,VWS V14.01,2013-03-11 02:04:00,
2013-03-10 20:05:00,41.0,12.7,29.82,West,261,8.3,15.0,31,0.00,,---,0.00,VWS V14.01,2013-03-11 02:05:00,
2013-03-10 20:06:00,41.0,13.4,29.82,WNW,287,8.1,13.2,32,0.00,,---,0.00,VWS V14.01,2013-03-11 02:06:00,
2013-03-10 20:07:00,41.0,13.4,29.82,WNW,294,6.3,8.3,32,0.00,,---,0.00,VWS V14.01,2013-03-11 02:07:00,
2013-03-10 20:08:00,40.8,13.3,29.82,West,281,6.3,10.1,32,0.00,,---,0.00,VWS V14.01,2013-03-11 02:08:00,
2013-03-10 20:09:00,40.8,13.3,29.82,WNW,295,11.4,11.4,32,0.00,,---,0.00,VWS V14.01,2013-03-11 02:09:00,
2013-03-10 20:10:00,40.8,13.3,29.82,West,272,7.6,12.3,32,0.00,,---,0.00,VWS V14.01,2013-03-11 02:10:00,
2013-03-10 20:11:00,40.8,13.3,29.82,West,259,7.6,7.6,32,0.00,,---,0.00,VWS V14.01,2013-03-11 02:11:00,
2013-03-10 20:12:00,40.8,13.3,29.82,NW,305,3.1,8.1,32,0.00,,---,0.00,VWS V14.01,2013-03-11 02:12:00,
2013-03-10 20:13:00,40.8,13.3,29.82,WNW,284,7.2,8.3,32,0.00,,---,0.00,VWS V14.01,2013-03-11 02:13:00,
2013-03-10 20:14:00,40.6,13.1,29.82,WNW,287,8.7,8.7,32,0.00,,---,0.00,VWS V14.01,2013-03-11 02:14:00,
2013-03-10 20:15:00,40.6,13.8,29.82,West,271,10.1,10.1,33,0.00,,---,0.00,VWS V14.01,2013-03-11 02:15:00,
2013-03-10 20:16:00,40.6,13.8,29.82,West,263,12.8,12.8,33,0.00,,---,0.00,VWS V14.01,2013-03-11 02:16:00,
2013-03-10 20:17:00,40.6,13.8,29.82,WSW,256,8.7,12.8,33,0.00,,---,0.00,VWS V14.01,2013-03-11 02:17:00,
2013-03-10 20:18:00,40.6,13.8,29.82,WNW,297,8.7,8.7,33,0.00,,---,0.00,VWS V14.01,2013-03-11 02:18:00,
2013-03-10 20:19:00,40.6,13.8,29.82,WSW,246,6.3,10.5,33,0.00,,---,0.00,VWS V14.01,2013-03-11 02:19:00,
2013-03-10 20:20:00,40.6,13.8,29.82,West,281,8.1,10.5,33,0.00,,---,0.00,VWS V14.01,2013-03-11 02:20:00,
2013-03-10 20:21:00,40.5,13.6,29.82,WSW,243,12.8,12.8,33,0.00,,---,0.00,VWS V14.01,2013-03-11 02:21:00,
2013-03-10 20:22:00,40.5,14.3,29.82,WNW,284,17.0,17.0,34,0.00,,---,0.00,VWS V14.01,2013-03-11 02:22:00,
2013-03-10 20:23:00,40.5,14.3,29.82,SW,231,8.3,17.0,34,0.00,,---,0.00,VWS V14.01,2013-03-11 02:23:00,
2013-03-10 20:24:00,40.5,15.0,29.82,West,261,13.2,13.2,35,0.00,,---,0.00,VWS V14.01,2013-03-11 02:24:00,
2013-03-10 20:25:00,40.3,14.8,29.82,West,270,12.8,15.9,35,0.00,,---,0.00,VWS V14.01,2013-03-11 02:25:00,
2013-03-10 20:26:00,40.3,15.5,29.82,SW,225,18.8,18.8,36,0.00,,---,0.00,VWS V14.01,2013-03-11 02:26:00,
2013-03-10 20:27:00,40.1,15.3,29.82,WSW,257,9.6,18.8,36,0.00,,---,0.00,VWS V14.01,2013-03-11 02:27:00,
2013-03-10 20:28:00,40.1,15.9,29.82,WNW,289,17.0,17.0,37,0.00,,---,0.00,VWS V14.01,2013-03-11 02:28:00,
2013-03-10 20:29:00,39.9,16.4,29.82,WSW,256,12.8,12.8,38,0.00,,---,0.00,VWS V14.01,2013-03-11 02:29:00,
2013-03-10 20:30:00,39.9,16.4,29.82,WSW,247,10.1,13.2,38,0.00,,---,0.00,VWS V14.01,2013-03-11 02:30:00,
2013-03-10 20:31:00,39.9,16.4,29.82,West,265,10.5,13.2,38,0.00,,---,0.00,VWS V14.01,2013-03-11 02:31:00,
2013-03-10 20:32:00,39.7,16.2,29.82,WNW,300,11.0,17.9,38,0.00,,---,0.00,VWS V14.01,2013-03-11 02:32:00,
2013-03-10 20:33:00,39.7,16.2,29.82,West,277,12.8,12.8,38,0.00,,---,0.00,VWS V14.01,2013-03-11 02:33:00,
2013-03-10 20:34:00,39.7,16.2,29.82,WSW,249,8.1,8.1,38,0.00,,---,0.00,VWS V14.01,2013-03-11 02:34:00,
2013-03-10 20:35:00,39.7,16.2,29.82,NW,312,8.1,8.7,38,0.00,,---,0.00,VWS V14.01,2013-03-11 02:35:00,
2013-03-10 20:36:00,39.6,16.1,29.82,West,271,8.7,8.7,38,0.00,,---,0.00,VWS V14.01,2013-03-11 02:36:00,
2013-03-10 20:37:00,39.6,16.7,29.82,WNW,291,14.1,14.5,39,0.00,,---,0.00,VWS V14.01,2013-03-11 02:37:00,
2013-03-10 20:38:00,39.6,16.7,29.82,West,263,8.1,14.1,39,0.00,,---,0.00,VWS V14.01,2013-03-11 02:38:00,
2013-03-10 20:39:00,39.4,16.5,29.82,SW,224,9.6,9.6,39,0.00,,---,0.00,VWS V14.01,2013-03-11 02:39:00,
2013-03-10 20:40:00,39.4,16.5,29.82,WSW,240,8.7,9.6,39,0.00,,---,0.00,VWS V14.01,2013-03-11 02:40:00,
2013-03-10 20:41:00,39.4,16.5,29.82,SW,224,12.3,12.3,39,0.00,,---,0.00,VWS V14.01,2013-03-11 02:41:00,
2013-03-10 20:42:00,39.4,16.5,29.82,West,266,16.3,16.3,39,0.00,,---,0.00,VWS V14.01,2013-03-11 02:42:00,
2013-03-10 20:43:00,39.2,16.9,29.82,WSW,247,15.4,16.3,40,0.00,,---,0.00,VWS V14.01,2013-03-11 02:43:00,
2013-03-10 20:44:00,39.2,16.9,29.82,WSW,238,8.7,15.4,40,0.00,,---,0.00,VWS V14.01,2013-03-11 02:44:00,
2013-03-10 20:45:00,39.0,17.3,29.82,SW,221,15.4,15.4,41,0.00,,---,0.00,VWS V14.01,2013-03-11 02:45:00,
2013-03-10 20:46:00,39.0,17.3,29.82,West,276,10.5,15.4,41,0.00,,---,0.00,VWS V14.01,2013-03-11 02:46:00,
2013-03-10 20:47:00,38.8,17.7,29.82,SSE,168,11.0,12.8,42,0.00,,---,0.00,VWS V14.01,2013-03-11 02:47:00,
2013-03-10 20:48:00,38.8,17.7,29.82,WSW,239,6.7,11.0,42,0.00,,---,0.00,VWS V14.01,2013-03-11 02:48:00,
2013-03-10 20:49:00,38.7,18.1,29.82,West,279,5.4,6.3,43,0.00,,---,0.00,VWS V14.01,2013-03-11 02:49:00,
2013-03-10 20:50:00,38.7,18.1,29.82,West,281,11.0,14.1,43,0.00,,---,0.00,VWS V14.01,2013-03-11 02:50:00,
2013-03-10 20:51:00,38.5,18.5,29.82,West,270,10.5,11.9,44,0.00,,---,0.00,VWS V14.01,2013-03-11 02:51:00,
2013-03-10 20:52:00,38.5,18.5,29.82,West,261,8.1,13.2,44,0.00,,---,0.00,VWS V14.01,2013-03-11 02:52:00,
2013-03-10 20:53:00,38.5,18.5,29.82,SSW,213,8.3,8.7,44,0.00,,---,0.00,VWS V14.01,2013-03-11 02:53:00,
2013-03-10 20:54:00,38.3,18.3,29.82,SSW,209,7.6,7.6,44,0.00,,---,0.00,VWS V14.01,2013-03-11 02:54:00,
2013-03-10 20:55:00,38.3,18.3,29.82,WNW,300,8.1,8.3,44,0.00,,---,0.00,VWS V14.01,2013-03-11 02:55:00,
2013-03-10 20:56:00,38.3,18.3,29.82,WSW,248,10.1,11.9,44,0.00,,---,0.00,VWS V14.01,2013-03-11 02:56:00,
2013-03-10 20:57:00,38.3,18.3,29.82,West,275,8.3,10.1,44,0.00,,---,0.00,VWS V14.01,2013-03-11 02:57:00,
2013-03-10 20:58:00,38.1,18.7,29.82,WNW,284,12.3,13.2,45,0.00,,---,0.00,VWS V14.01,2013-03-11 02:58:00,
2013-03-10 20:59:00,38.1,18.7,29.82,WNW,294,8.1,8.1,45,0.00,,---,0.00,VWS V14.01,2013-03-11 02:59:00,
2013-03-10 21:00:00,38.1,18.7,29.82,WNW,294,8.3,11.0,45,0.00,,---,0.00,VWS V14.01,2013-03-11 03:00:00,
2013-03-10 21:01:00,38.1,18.7,29.82,SW,220,8.3,8.3,45,0.00,,---,0.00,VWS V14.01,2013-03-11 03:01:00,
2013-03-10 21:02:00,38.1,18.7,29.82,West,273,8.7,8.7,45,0.00,,---,0.00,VWS V14.01,2013-03-11 03:02:00,
2013-03-10 21:03:00,38.1,18.7,29.82,WSW,256,5.8,8.7,45,0.00,,---,0.00,VWS V14.01,2013-03-11 03:03:00,
2013-03-10 21:04:00,37.9,18.5,29.82,NW,308,3.1,6.3,45,0.00,,---,0.00,VWS V14.01,2013-03-11 03:04:00,
2013-03-10 21:05:00,37.9,18.5,29.82,WNW,302,5.8,6.3,45,0.00,,---,0.00,VWS V14.01,2013-03-11 03:05:00,
2013-03-10 21:06:00,37.9,18.5,29.82,NW,307,5.8,5.8,45,0.00,,---,0.00,VWS V14.01,2013-03-11 03:06:00,
2013-03-10 21:07:00,37.9,18.5,29.82,WNW,303,0.0,5.8,45,0.00,,---,0.00,VWS V14.01,2013-03-11 03:07:00,
2013-03-10 21:08:00,37.9,18.5,29.82,WNW,291,5.4,5.4,45,0.00,,---,0.00,VWS V14.01,2013-03-11 03:08:00,
2013-03-10 21:09:00,37.8,18.3,29.82,NW,317,4.0,4.0,45,0.00,,---,0.00,VWS V14.01,2013-03-11 03:09:00,
2013-03-10 21:10:00,37.8,18.3,29.82,West,270,7.6,10.1,45,0.00,,---,0.00,VWS V14.01,2013-03-11 03:10:00,
2013-03-10 21:11:00,37.6,18.7,29.82,WNW,302,6.3,7.6,46,0.00,,---,0.00,VWS V14.01,2013-03-11 03:11:00,
2013-03-10 21:12:00,37.6,18.7,29.82,WNW,296,5.4,6.3,46,0.00,,---,0.00,VWS V14.01,2013-03-11 03:12:00,
2013-03-10 21:13:00,37.6,18.7,29.82,WNW,302,8.1,10.1,46,0.00,,---,0.00,VWS V14.01,2013-03-11 03:13:00,
2013-03-10 21:14:00,37.4,19.0,29.82,West,261,5.4,8.1,47,0.00,,---,0.00,VWS V14.01,2013-03-11 03:14:00,
2013-03-10 21:15:00,37.2,19.4,29.82,WNW,287,3.6,8.1,48,0.00,,---,0.00,VWS V14.01,2013-03-11 03:15:00,
2013-03-10 21:16:00,37.2,19.4,29.82,NW,305,5.4,5.4,48,0.00,,---,0.00,VWS V14.01,2013-03-11 03:16:00,
2013-03-10 21:17:00,37.0,19.7,29.82,NW,310,9.2,9.2,49,0.00,,---,0.00,VWS V14.01,2013-03-11 03:17:00,
2013-03-10 21:18:00,37.0,19.7,29.82,West,265,3.1,10.1,49,0.00,,---,0.00,VWS V14.01,2013-03-11 03:18:00,
2013-03-10 21:19:00,37.0,19.7,29.82,WNW,290,5.4,6.7,49,0.00,,---,0.00,VWS V14.01,2013-03-11 03:19:00,
2013-03-10 21:20:00,37.0,19.7,29.82,NW,305,6.3,7.6,49,0.00,,---,0.00,VWS V14.01,2013-03-11 03:20:00,
2013-03-10 21:21:00,36.9,20.0,29.82,West,279,4.9,8.3,50,0.00,,---,0.00,VWS V14.01,2013-03-11 03:21:00,
2013-03-10 21:22:00,36.9,20.0,29.82,West,271,8.1,8.1,50,0.00,,---,0.00,VWS V14.01,2013-03-11 03:22:00,
2013-03-10 21:23:00,36.7,19.8,29.82,WSW,250,7.2,8.1,50,0.00,,---,0.00,VWS V14.01,2013-03-11 03:23:00,
2013-03-10 21:24:00,36.7,19.8,29.82,WSW,254,4.9,6.3,50,0.00,,---,0.00,VWS V14.01,2013-03-11 03:24:00,
2013-03-10 21:25:00,36.7,19.8,29.82,West,272,5.4,6.3,50,0.00,,---,0.00,VWS V14.01,2013-03-11 03:25:00,
2013-03-10 21:26:00,36.7,19.8,29.82,West,277,7.2,10.5,50,0.00,,---,0.00,VWS V14.01,2013-03-11 03:26:00,
2013-03-10 21:27:00,36.7,20.3,29.82,West,263,3.1,7.2,51,0.00,,---,0.00,VWS V14.01,2013-03-11 03:27:00,
2013-03-10 21:28:00,36.7,20.3,29.82,West,265,3.6,5.8,51,0.00,,---,0.00,VWS V14.01,2013-03-11 03:28:00,
2013-03-10 21:29:00,36.5,20.1,29.82,SW,225,5.8,5.8,51,0.00,,---,0.00,VWS V14.01,2013-03-11 03:29:00,
2013-03-10 21:30:00,36.5,20.1,29.82,WNW,282,3.1,7.6,51,0.00,,---,0.00,VWS V14.01,2013-03-11 03:30:00,
2013-03-10 21:31:00,36.5,20.1,29.82,West,261,7.6,10.1,51,0.00,,---,0.00,VWS V14.01,2013-03-11 03:31:00,
2013-03-10 21:32:00,36.5,20.1,29.82,SW,234,6.3,7.6,51,0.00,,---,0.00,VWS V14.01,2013-03-11 03:32:00,
2013-03-10 21:33:00,36.5,20.1,29.82,West,259,5.8,6.3,51,0.00,,---,0.00,VWS V14.01,2013-03-11 03:33:00,
2013-03-10 21:34:00,36.5,20.1,29.85,WSW,249,6.3,7.6,51,0.00,,---,0.00,VWS V14.01,2013-03-11 03:34:00,
2013-03-10 21:35:00,36.5,20.1,29.85,West,267,5.8,8.1,51,0.00,,---,0.00,VWS V14.01,2013-03-11 03:35:00,
2013-03-10 21:36:00,36.5,20.1,29.85,WSW,253,4.0,5.8,51,0.00,,---,0.00,VWS V14.01,2013-03-11 03:36:00,
2013-03-10 21:37:00,36.5,20.1,29.85,SW,230,4.0,4.9,51,0.00,,---,0.00,VWS V14.01,2013-03-11 03:37:00,
2013-03-10 21:38:00,36.5,20.1,29.85,WNW,291,10.5,13.2,51,0.00,,---,0.00,VWS V14.01,2013-03-11 03:38:00,
2013-03-10 21:39:00,36.5,20.1,29.85,West,265,5.4,10.5,51,0.00,,---,0.00,VWS V14.01,2013-03-11 03:39:00,
2013-03-10 21:40:00,36.5,20.1,29.85,NW,311,7.2,10.5,51,0.00,,---,0.00,VWS V14.01,2013-03-11 03:40:00,
2013-03-10 21:41:00,36.5,20.1,29.85,WNW,296,2.7,7.2,51,0.00,,---,0.00,VWS V14.01,2013-03-11 03:41:00,
2013-03-10 21:42:00,36.5,20.1,29.85,WSW,238,5.4,5.4,51,0.00,,---,0.00,VWS V14.01,2013-03-11 03:42:00,
2013-03-10 21:43:00,36.7,20.3,29.85,West,264,9.6,13.2,51,0.00,,---,0.00,VWS V14.01,2013-03-11 03:43:00,
2013-03-10 21:44:00,36.7,20.3,29.85,West,265,14.5,14.5,51,0.00,,---,0.00,VWS V14.01,2013-03-11 03:44:00,
2013-03-10 21:45:00,36.7,20.3,29.85,West,265,8.1,14.5,51,0.00,,---,0.00,VWS V14.01,2013-03-11 03:45:00,
2013-03-10 21:46:00,36.7,20.3,29.85,West,276,10.1,12.8,51,0.00,,---,0.00,VWS V14.01,2013-03-11 03:46:00,
2013-03-10 21:47:00,36.7,20.3,29.85,West,273,7.6,10.1,51,0.00,,---,0.00,VWS V14.01,2013-03-11 03:47:00,
2013-03-10 21:48:00,36.7,20.3,29.85,WNW,283,5.8,8.3,51,0.00,,---,0.00,VWS V14.01,2013-03-11 03:48:00,
2013-03-10 21:49:00,36.7,20.3,29.82,WSW,254,3.6,4.0,51,0.00,,---,0.00,VWS V14.01,2013-03-11 03:49:00,
2013-03-10 21:50:00,36.7,20.3,29.82,WNW,297,5.4,9.6,51,0.00,,---,0.00,VWS V14.01,2013-03-11 03:50:00,
2013-03-10 21:51:00,36.7,20.3,29.82,WNW,285,4.0,8.7,51,0.00,,---,0.00,VWS V14.01,2013-03-11 03:51:00,
2013-03-10 21:52:00,36.7,20.3,29.82,WNW,295,5.8,8.7,51,0.00,,---,0.00,VWS V14.01,2013-03-11 03:52:00,
2013-03-10 21:53:00,36.7,20.7,29.82,NW,319,5.4,8.7,52,0.00,,---,0.00,VWS V14.01,2013-03-11 03:53:00,
2013-03-10 21:54:00,36.5,20.6,29.82,West,269,12.8,12.8,52,0.00,,---,0.00,VWS V14.01,2013-03-11 03:54:00,
2013-03-10 21:55:00,36.5,20.6,29.82,West,261,6.3,12.8,52,0.00,,---,0.00,VWS V14.01,2013-03-11 03:55:00,
2013-03-10 21:56:00,36.5,20.6,29.82,WSW,249,8.7,8.7,52,0.00,,---,0.00,VWS V14.01,2013-03-11 03:56:00,
2013-03-10 21:57:00,36.3,20.8,29.82,West,274,5.4,8.7,53,0.00,,---,0.00,VWS V14.01,2013-03-11 03:57:00,
2013-03-10 21:58:00,36.3,20.8,29.82,West,265,5.8,8.7,53,0.00,,---,0.00,VWS V14.01,2013-03-11 03:58:00,
2013-03-10 21:59:00,36.3,20.8,29.82,West,268,5.8,5.8,53,0.00,,---,0.00,VWS V14.01,2013-03-11 03:59:00,
2013-03-10 22:00:00,36.3,20.8,29.82,West,271,6.3,8.1,53,0.00,,---,0.00,VWS V14.01,2013-03-11 04:00:00,
2013-03-10 22:01:00,36.1,21.1,29.82,West,277,5.8,6.3,54,0.00,,---,0.00,VWS V14.01,2013-03-11 04:01:00,
2013-03-10 22:02:00,36.1,21.1,29.82,West,280,7.6,7.6,54,0.00,,---,0.00,VWS V14.01,2013-03-11 04:02:00,
2013-03-10 22:03:00,36.1,21.5,29.82,West,266,11.0,11.0,55,0.00,,---,0.00,VWS V14.01,2013-03-11 04:03:00,
2013-03-10 22:04:00,36.0,21.4,29.82,NW,310,2.7,11.0,55,0.00,,---,0.00,VWS V14.01,2013-03-11 04:04:00,
2013-03-10 22:05:00,36.0,21.8,29.82,WSW,250,7.6,7.6,56,0.00,,---,0.00,VWS V14.01,2013-03-11 04:05:00,
2013-03-10 22:06:00,36.0,21.8,29.82,West,275,6.3,7.6,56,0.00,,---,0.00,VWS V14.01,2013-03-11 04:06:00,
2013-03-10 22:07:00,35.8,21.6,29.82,WSW,254,7.6,7.6,56,0.00,,---,0.00,VWS V14.01,2013-03-11 04:07:00,
2013-03-10 22:08:00,35.8,22.0,29.82,NW,316,4.0,7.6,57,0.00,,---,0.00,VWS V14.01,2013-03-11 04:08:00,
2013-03-10 22:09:00,35.8,22.0,29.82,West,259,6.3,6.7,57,0.00,,---,0.00,VWS V14.01,2013-03-11 04:09:00,
2013-03-10 22:10:00,35.6,22.3,29.82,West,263,5.4,5.4,58,0.00,,---,0.00,VWS V14.01,2013-03-11 04:10:00,
2013-03-10 22:11:00,35.6,22.3,29.82,WNW,298,5.8,8.7,58,0.00,,---,0.00,VWS V14.01,2013-03-11 04:11:00,
2013-03-10 22:12:00,35.4,22.9,29.82,WSW,240,8.1,8.1,60,0.00,,---,0.00,VWS V14.01,2013-03-11 04:12:00,
2013-03-10 22:13:00,35.4,22.9,29.82,NNW,340,3.6,8.1,60,0.00,,---,0.00,VWS V14.01,2013-03-11 04:13:00,
2013-03-10 22:14:00,35.4,22.9,29.82,West,274,8.7,8.7,60,0.00,,---,0.00,VWS V14.01,2013-03-11 04:14:00,
2013-03-10 22:15:00,35.4,23.3,29.82,West,279,2.7,4.0,61,0.00,,---,0.00,VWS V14.01,2013-03-11 04:15:00,
2013-03-10 22:16:00,35.2,23.5,29.82,West,280,3.1,6.3,62,0.00,,---,0.00,VWS V14.01,2013-03-11 04:16:00,
2013-03-10 22:17:00,35.2,23.5,29.82,WNW,286,6.7,6.7,62,0.00,,---,0.00,VWS V14.01,2013-03-11 04:17:00,
2013-03-10 22:18:00,35.1,23.8,29.82,West,281,3.1,8.1,63,0.00,,---,0.00,VWS V14.01,2013-03-11 04:18:00,
2013-03-10 22:19:00,35.1,23.8,29.82,WNW,293,10.1,10.1,63,0.00,,---,0.00,VWS V14.01,2013-03-11 04:19:00,
2013-03-10 22:20:00,34.9,24.0,29.82,West,271,4.9,4.9,64,0.00,,---,0.00,VWS V14.01,2013-03-11 04:20:00,
2013-03-10 22:21:00,34.9,24.0,29.82,West,271,3.6,4.9,64,0.00,,---,0.00,VWS V14.01,2013-03-11 04:21:00,
2013-03-10 22:22:00,34.9,24.0,29.82,West,268,3.1,5.4,64,0.00,,---,0.00,VWS V14.01,2013-03-11 04:22:00,
2013-03-10 22:23:00,34.9,24.3,29.82,West,259,3.6,5.8,65,0.00,,---,0.00,VWS V14.01,2013-03-11 04:23:00,
2013-03-10 22:24:00,34.9,24.7,29.82,West,261,5.8,6.7,66,0.00,,---,0.00,VWS V14.01,2013-03-11 04:24:00,
2013-03-10 22:25:00,34.7,24.5,29.82,West,261,6.3,6.3,66,0.00,,---,0.00,VWS V14.01,2013-03-11 04:25:00,
2013-03-10 22:26:00,34.7,24.9,29.82,SW,233,7.6,8.3,67,0.00,,---,0.00,VWS V14.01,2013-03-11 04:26:00,
2013-03-10 22:27:00,34.5,24.7,29.82,West,273,6.7,7.6,67,0.00,,---,0.00,VWS V14.01,2013-03-11 04:27:00,
2013-03-10 22:28:00,34.5,24.7,29.82,WSW,258,4.9,8.1,67,0.00,,---,0.00,VWS V14.01,2013-03-11 04:28:00,
2013-03-10 22:29:00,34.5,24.7,29.82,SW,225,6.3,8.3,67,0.00,,---,0.00,VWS V14.01,2013-03-11 04:29:00,
2013-03-10 22:30:00,34.5,24.7,29.82,WSW,238,5.4,5.4,67,0.00,,---,0.00,VWS V14.01,2013-03-11 04:30:00,
2013-03-10 22:31:00,34.5,25.1,29.82,SSW,194,3.1,8.1,68,0.00,,---,0.00,VWS V14.01,2013-03-11 04:31:00,
2013-03-10 22:32:00,34.5,25.1,29.82,SW,231,4.0,8.3,68,0.00,,---,0.00,VWS V14.01,2013-03-11 04:32:00,
2013-03-10 22:33:00,34.5,25.1,29.82,SW,234,4.0,4.0,68,0.00,,---,0.00,VWS V14.01,2013-03-11 04:33:00,
2013-03-10 22:34:00,34.5,25.1,29.82,WSW,257,5.8,7.2,68,0.00,,---,0.00,VWS V14.01,2013-03-11 04:34:00,
2013-03-10 22:35:00,34.5,25.1,29.85,WSW,257,3.6,3.6,68,0.00,,---,0.00,VWS V14.01,2013-03-11 04:35:00,
2013-03-10 22:36:00,34.5,25.1,29.85,West,274,5.8,5.8,68,0.00,,---,0.00,VWS V14.01,2013-03-11 04:36:00,
2013-03-10 22:37:00,34.5,25.1,29.85,West,281,2.2,5.8,68,0.00,,---,0.00,VWS V14.01,2013-03-11 04:37:00,
2013-03-10 22:38:00,34.5,25.1,29.85,SW,234,0.0,4.0,68,0.00,,---,0.00,VWS V14.01,2013-03-11 04:38:00,
2013-03-10 22:39:00,34.5,25.1,29.85,NW,312,5.4,5.4,68,0.00,,---,0.00,VWS V14.01,2013-03-11 04:39:00,
2013-03-10 22:40:00,34.5,25.1,29.85,West,266,3.6,3.6,68,0.00,,---,0.00,VWS V14.01,2013-03-11 04:40:00,
2013-03-10 22:41:00,34.5,25.1,29.85,NW,326,4.0,7.6,68,0.00,,---,0.00,VWS V14.01,2013-03-11 04:41:00,
2013-03-10 22:42:00,34.5,25.1,29.85,NW,320,5.4,6.3,68,0.00,,---,0.00,VWS V14.01,2013-03-11 04:42:00,
2013-03-10 22:43:00,34.5,25.1,29.85,West,277,8.1,11.0,68,0.00,,---,0.00,VWS V14.01,2013-03-11 04:43:00,
2013-03-10 22:44:00,34.5,25.1,29.85,West,267,6.3,8.7,68,0.00,,---,0.00,VWS V14.01,2013-03-11 04:44:00,
2013-03-10 22:45:00,34.5,25.1,29.85,WSW,242,3.1,3.1,68,0.00,,---,0.00,VWS V14.01,2013-03-11 04:45:00,
2013-03-10 22:46:00,34.5,25.1,29.85,WSW,237,5.4,5.8,68,0.00,,---,0.00,VWS V14.01,2013-03-11 04:46:00,
2013-03-10 22:47:00,34.5,25.1,29.85,WNW,286,5.8,10.1,68,0.00,,---,0.00,VWS V14.01,2013-03-11 04:47:00,
2013-03-10 22:48:00,34.5,25.1,29.85,WSW,238,4.9,5.8,68,0.00,,---,0.00,VWS V14.01,2013-03-11 04:48:00,
2013-03-10 22:49:00,34.7,25.2,29.85,West,262,5.8,6.3,68,0.00,,---,0.00,VWS V14.01,2013-03-11 04:49:00,
2013-03-10 22:50:00,34.7,25.2,29.85,West,273,4.9,10.1,68,0.00,,---,0.00,VWS V14.01,2013-03-11 04:50:00,
2013-03-10 22:51:00,34.7,25.2,29.85,WSW,258,8.1,8.7,68,0.00,,---,0.00,VWS V14.01,2013-03-11 04:51:00,
2013-03-10 22:52:00,34.7,25.2,29.85,WSW,254,3.6,8.1,68,0.00,,---,0.00,VWS V14.01,2013-03-11 04:52:00,
2013-03-10 22:53:00,34.7,25.2,29.85,West,268,3.1,6.7,68,0.00,,---,0.00,VWS V14.01,2013-03-11 04:53:00,
2013-03-10 22:54:00,34.7,25.2,29.85,West,263,0.0,6.3,68,0.00,,---,0.00,VWS V14.01,2013-03-11 04:54:00,
2013-03-10 22:55:00,34.7,25.2,29.85,West,261,3.1,3.1,68,0.00,,---,0.00,VWS V14.01,2013-03-11 04:55:00,
2013-03-10 22:56:00,34.7,25.2,29.85,NW,315,4.0,6.3,68,0.00,,---,0.00,VWS V14.01,2013-03-11 04:56:00,
2013-03-10 22:57:00,34.7,25.2,29.85,West,260,4.5,5.4,68,0.00,,---,0.00,VWS V14.01,2013-03-11 04:57:00,
2013-03-10 22:58:00,34.7,25.2,29.85,WNW,291,4.9,5.4,68,0.00,,---,0.00,VWS V14.01,2013-03-11 04:58:00,
2013-03-10 22:59:00,34.7,25.6,29.85,West,278,4.0,4.9,69,0.00,,---,0.00,VWS V14.01,2013-03-11 04:59:00,
2013-03-10 23:00:00,34.5,25.4,29.85,NW,305,5.4,11.0,69,0.00,,---,0.00,VWS V14.01,2013-03-11 05:00:00,
2013-03-10 23:01:00,34.5,25.4,29.85,WSW,257,4.0,11.0,69,0.00,,---,0.00,VWS V14.01,2013-03-11 05:01:00,
2013-03-10 23:02:00,34.5,25.4,29.85,WSW,257,10.5,10.5,69,0.00,,---,0.00,VWS V14.01,2013-03-11 05:02:00,
2013-03-10 23:03:00,34.5,25.8,29.85,NW,319,5.4,10.5,70,0.00,,---,0.00,VWS V14.01,2013-03-11 05:03:00,
2013-03-10 23:04:00,34.5,25.8,29.82,WSW,238,3.1,6.3,70,0.00,,---,0.00,VWS V14.01,2013-03-11 05:04:00,
2013-03-10 23:05:00,34.5,25.8,29.82,WSW,257,8.3,8.3,70,0.00,,---,0.00,VWS V14.01,2013-03-11 05:05:00,
2013-03-10 23:06:00,34.5,25.8,29.82,SW,230,3.1,8.3,70,0.00,,---,0.00,VWS V14.01,2013-03-11 05:06:00,
2013-03-10 23:07:00,34.5,25.8,29.82,WNW,290,4.9,8.1,70,0.00,,---,0.00,VWS V14.01,2013-03-11 05:07:00,
2013-03-10 23:08:00,34.3,25.9,29.82,WSW,255,3.6,5.4,71,0.00,,---,0.00,VWS V14.01,2013-03-11 05:08:00,
2013-03-10 23:09:00,34.3,25.9,29.82,WSW,249,7.6,7.6,71,0.00,,---,0.00,VWS V14.01,2013-03-11 05:09:00,
2013-03-10 23:10:00,34.3,25.9,29.82,SW,231,3.6,4.9,71,0.00,,---,0.00,VWS V14.01,2013-03-11 05:10:00,
2013-03-10 23:11:00,34.3,25.9,29.82,West,263,5.4,8.1,71,0.00,,---,0.00,VWS V14.01,2013-03-11 05:11:00,
2013-03-10 23:12:00,34.3,25.9,29.82,West,272,5.8,5.8,71,0.00,,---,0.00,VWS V14.01,2013-03-11 05:12:00,
2013-03-10 23:13:00,34.3,25.9,29.82,West,275,3.1,6.3,71,0.00,,---,0.00,VWS V14.01,2013-03-11 05:13:00,
2013-03-10 23:14:00,34.3,25.9,29.82,WSW,245,5.4,5.4,71,0.00,,---,0.00,VWS V14.01,2013-03-11 05:14:00,
2013-03-10 23:15:00,34.2,25.8,29.82,NW,304,4.0,4.0,71,0.00,,---,0.00,VWS V14.01,2013-03-11 05:15:00,
2013-03-10 23:16:00,34.2,26.1,29.82,West,270,8.1,8.1,72,0.00,,---,0.00,VWS V14.01,2013-03-11 05:16:00,
2013-03-10 23:17:00,34.3,26.3,29.82,West,278,5.8,8.1,72,0.00,,---,0.00,VWS V14.01,2013-03-11 05:17:00,
2013-03-10 23:18:00,34.3,26.3,29.82,WNW,291,3.6,5.8,72,0.00,,---,0.00,VWS V14.01,2013-03-11 05:18:00,
2013-03-10 23:19:00,34.3,25.9,29.82,WNW,294,2.7,6.3,71,0.00,,---,0.00,VWS V14.01,2013-03-11 05:19:00,
2013-03-10 23:20:00,34.3,25.9,29.82,WSW,241,4.0,4.0,71,0.00,,---,0.00,VWS V14.01,2013-03-11 05:20:00,